Provisional Data: Kishacoquillas Creek near Belleville, PA


Please select a monitoring station.
Please select start date.
Please select start date.

Toggle Unit: C/F Toggle Unit: C/F
Sample Time Temperature (C) Temperature (F) Specific Conductivity (mS/cm) pH   Turbidity (NTU+) DO (mg/L)
4/13/2022 12:00:00 AM 12.67 54.806 0.436 7.44 13.2 8.93
4/13/2022 12:15:00 AM 12.48 54.464 0.392 7.44 14.39 8.94
4/13/2022 12:30:00 AM 12.3 54.14 0.393 7.44 12.69 8.97
4/13/2022 12:45:00 AM 12.12 53.816 0.4 7.43 11.88 9
4/13/2022 1:00:00 AM 11.94 53.492 0.4 7.44 11.85 9.03
4/13/2022 1:15:00 AM 11.76 53.168 0.402 7.43 11.6 9.06
4/13/2022 1:30:00 AM 11.59 52.862 0.399 7.41 12.1 9.09
4/13/2022 1:45:00 AM 11.43 52.574 0.418 7.42 11.7 9.12
4/13/2022 2:00:00 AM 11.27 52.286 0.4 7.42 11.78 9.15
4/13/2022 2:15:00 AM 11.12 52.016 0.423 7.41 12.04 9.2
4/13/2022 2:30:00 AM 10.97 51.746 0.373 7.41 12.7 9.23
4/13/2022 2:45:00 AM 10.83 51.494 0.375 7.41 12.31 9.27
4/13/2022 3:00:00 AM 10.7 51.26 0.39 7.41 11.01 9.31
4/13/2022 3:15:00 AM 10.6 51.08 0.392 7.41 12.09 9.34
4/13/2022 3:30:00 AM 10.48 50.864 0.396 7.42 12.49 9.37
4/13/2022 3:45:00 AM 10.38 50.684 0.4 7.42 10.53 9.4
4/13/2022 4:00:00 AM 10.27 50.486 0.469 7.41 9.85 9.43
4/13/2022 4:15:00 AM 10.18 50.324 0.472 7.41 12.58 9.45
4/13/2022 4:30:00 AM 10.09 50.162 0.472 7.42 12.46 9.47
4/13/2022 4:45:00 AM 10.01 50.018 0.392 7.42 10.82 9.52
4/13/2022 5:00:00 AM 9.94 49.892 0.386 7.41 9.87 9.53
4/13/2022 5:15:00 AM 9.87 49.766 0.387 7.41 11.3 9.56
4/13/2022 5:30:00 AM 9.81 49.658 0.393 7.42 11.11 9.57
4/13/2022 5:45:00 AM 9.74 49.532 0.473 7.41 9.72 9.58
4/13/2022 6:00:00 AM 9.69 49.442 0.47 7.41 10.31 9.62
4/13/2022 6:15:00 AM 9.64 49.352 0.463 7.42 10.95 9.62
4/13/2022 6:30:00 AM 9.59 49.262 0.466 7.42 11.44 9.64
4/13/2022 6:45:00 AM 9.55 49.19 0.462 7.42 8.76 9.67
4/13/2022 7:00:00 AM 9.53 49.154 0.462 7.42 9.75 9.71
4/13/2022 7:15:00 AM 9.51 49.118 0.47 7.43 9.18 9.74
4/13/2022 7:30:00 AM 9.48 49.064 0.358 7.42 8.4 9.79
4/13/2022 7:45:00 AM 9.47 49.046 0.38 7.42 7.65 9.89
4/13/2022 8:00:00 AM 9.48 49.064 0.399 7.43 7.4 9.98
4/13/2022 8:15:00 AM 9.5 49.1 0.409 7.44 7.78 10.13
4/13/2022 8:30:00 AM 9.53 49.154 0.38 7.45 6.63 10.26
4/13/2022 8:45:00 AM 9.58 49.244 0.378 7.45 6.4 10.43
4/13/2022 9:00:00 AM 9.61 49.298 0.44 7.45 7.08 10.5
4/13/2022 9:15:00 AM 9.67 49.406 0.473 7.47 6.72 10.64
4/13/2022 9:30:00 AM 9.72 49.496 0.474 7.47 5.95 10.76
4/13/2022 9:45:00 AM 9.79 49.622 0.44 7.49 5.61 10.92
4/13/2022 10:00:00 AM 9.9 49.82 0.386 7.49 7.49 11.12
4/13/2022 10:15:00 AM 10.03 50.054 0.39 7.51 6.79 11.31
4/13/2022 10:30:00 AM 10.17 50.306 0.39 7.53 5.65 11.51
4/13/2022 10:45:00 AM 10.32 50.576 0.363 7.55 5.18 11.7
4/13/2022 11:00:00 AM 10.49 50.882 0.362 7.57 7.05 11.87
4/13/2022 11:15:00 AM 10.66 51.188 0.453 7.59 7.5 12.04
4/13/2022 11:30:00 AM 10.83 51.494 0.474 7.61 7.36 12.17
4/13/2022 11:45:00 AM 11 51.8 0.37 7.62 5.73 12.3
4/13/2022 12:00:00 PM 11.17 52.106 0.372 7.64 5.16 12.4
4/13/2022 12:15:00 PM 11.35 52.43 0.463 7.66 6.16 12.51
4/13/2022 12:30:00 PM 11.48 52.664 0.473 7.67 4.94 12.43
4/13/2022 12:45:00 PM 11.56 52.808 0.388 7.68 5.01 12.33
4/13/2022 1:00:00 PM 11.71 53.078 0.386 7.69 4.47 12.41
4/13/2022 1:15:00 PM 11.95 53.51 0.369 7.7 5.78 12.6
4/13/2022 1:30:00 PM 12.16 53.888 0.382 7.72 4.36 12.73
4/13/2022 1:45:00 PM 12.36 54.248 0.38 7.74 5.2 12.77
4/13/2022 2:00:00 PM 12.53 54.554 0.38 7.76 5.19 12.76
4/13/2022 2:15:00 PM 12.67 54.806 0.381 7.77 4.4 12.72
4/13/2022 2:30:00 PM 12.83 55.094 0.382 7.78 4.67 12.73
4/13/2022 2:45:00 PM 13 55.4 0.404 7.79 5.56 12.72
4/13/2022 3:00:00 PM 13.14 55.652 0.403 7.8 5.97 12.7
4/13/2022 3:15:00 PM 13.27 55.886 0.391 7.82 6.22 12.67
4/13/2022 3:30:00 PM 13.4 56.12 0.388 7.83 4.67 12.59
4/13/2022 3:45:00 PM 13.54 56.372 0.394 7.83 4.9 12.56
4/13/2022 4:00:00 PM 13.69 56.642 0.393 7.84 4.9 12.53
4/13/2022 4:15:00 PM 13.87 56.966 0.396 7.86 4.94 12.54
4/13/2022 4:30:00 PM 14.02 57.236 0.457 7.86 5.17 12.5
4/13/2022 4:45:00 PM 14.15 57.47 0.352 7.88 6.88 12.45
4/13/2022 5:00:00 PM 14.24 57.632 0.364 7.87 5.14 12.24
4/13/2022 5:15:00 PM 14.3 57.74 0.362 7.85 5.59 11.98
4/13/2022 5:30:00 PM 14.37 57.866 0.376 7.85 7.29 11.83
4/13/2022 5:45:00 PM 14.45 58.01 0.378 7.88 5.45 11.76
4/13/2022 6:00:00 PM 14.51 58.118 0.377 7.85 5.18 11.63
4/13/2022 6:15:00 PM 14.56 58.208 0.471 7.84 4.97 11.42
4/13/2022 6:30:00 PM 14.58 58.244 0.472 7.82 5.93 11.22
4/13/2022 6:45:00 PM 14.61 58.298 0.473 7.81 5.51 11.07
4/13/2022 7:00:00 PM 14.63 58.334 0.473 7.79 5.44 10.91
4/13/2022 7:15:00 PM 14.64 58.352 0.474 7.78 5.98 10.72
4/13/2022 7:30:00 PM 14.62 58.316 0.475 7.76 6.25 10.49
4/13/2022 7:45:00 PM 14.59 58.262 0.475 7.74 8.27 10.26
4/13/2022 8:00:00 PM 14.54 58.172 0.475 7.71 5.31 10.08
4/13/2022 8:15:00 PM 14.5 58.1 0.476 7.69 7.93 9.91
4/13/2022 8:30:00 PM 14.45 58.01 0.476 7.67 11.39 9.75
4/13/2022 8:45:00 PM 14.39 57.902 0.477 7.65 7.23 9.61
4/13/2022 9:00:00 PM 14.33 57.794 0.477 7.63 9.07 9.48
4/13/2022 9:15:00 PM 14.26 57.668 0.478 7.61 8.39 9.37
4/13/2022 9:30:00 PM 14.18 57.524 0.478 7.6 9.31 9.26
4/13/2022 9:45:00 PM 14.1 57.38 0.479 7.59 8.83 9.17
4/13/2022 10:00:00 PM 14.03 57.254 0.479 7.57 8.88 9.09
4/13/2022 10:15:00 PM 13.95 57.11 0.48 7.56 8.58 9.03
4/13/2022 10:30:00 PM 13.84 56.912 0.48 7.54 9.49 8.96
4/13/2022 10:45:00 PM 13.73 56.714 0.481 7.53 9.76 8.89
4/13/2022 11:00:00 PM 13.62 56.516 0.482 7.52 8.9 8.85
4/13/2022 11:15:00 PM 13.52 56.336 0.482 7.5 9.14 8.8
4/13/2022 11:30:00 PM 13.42 56.156 0.482 7.49 9.27 8.76
4/13/2022 11:45:00 PM 13.31 55.958 0.482 7.48 8.12 8.73
4/14/2022 12:00:00 AM 13.21 55.778 0.483 7.47 9.71 8.72
4/14/2022 12:15:00 AM 13.1 55.58 0.483 7.46 12.44 8.7
4/14/2022 12:30:00 AM 12.99 55.382 0.484 7.45 25.37 8.68
4/14/2022 12:45:00 AM 12.9 55.22 0.484 7.44 9.49 8.68
4/14/2022 1:00:00 AM 12.8 55.04 0.484 7.44 9.1 8.68
4/14/2022 1:15:00 AM 12.7 54.86 0.484 7.43 9.22 8.68
4/14/2022 1:30:00 AM 12.6 54.68 0.484 7.43 8.94 8.69
4/14/2022 1:45:00 AM 12.5 54.5 0.484 7.43 8.94 8.72
4/14/2022 2:00:00 AM 12.41 54.338 0.484 7.43 11.45 8.73
4/14/2022 2:15:00 AM 12.32 54.176 0.484 7.43 10.18 8.74
4/14/2022 2:30:00 AM 12.22 53.996 0.484 7.43 9 8.75
4/14/2022 2:45:00 AM 12.11 53.798 0.485 7.43 9.74 8.77
4/14/2022 3:00:00 AM 12.01 53.618 0.485 7.43 11.54 8.8
4/14/2022 3:15:00 AM 11.91 53.438 0.484 7.43 9.62 8.81
4/14/2022 3:30:00 AM 11.81 53.258 0.484 7.43 11.04 8.83
4/14/2022 3:45:00 AM 11.72 53.096 0.484 7.44 10.14 8.86
4/14/2022 4:00:00 AM 11.63 52.934 0.485 7.43 10.82 8.89
4/14/2022 4:15:00 AM 11.55 52.79 0.486 7.43 8.14 8.91
4/14/2022 4:30:00 AM 11.46 52.628 0.485 7.43 9.68 8.92
4/14/2022 4:45:00 AM 11.38 52.484 0.485 7.43 9.44 8.94
4/14/2022 5:00:00 AM 11.31 52.358 0.485 7.43 8.54 8.97
4/14/2022 5:15:00 AM 11.23 52.214 0.486 7.42 9.13 9
4/14/2022 5:30:00 AM 11.16 52.088 0.486 7.43 8.28 9.02
4/14/2022 5:45:00 AM 11.09 51.962 0.485 7.43 8.57 9.04
4/14/2022 6:00:00 AM 11.02 51.836 0.486 7.43 8.35 9.08
4/14/2022 6:15:00 AM 10.96 51.728 0.486 7.42 8.63 9.08
4/14/2022 6:30:00 AM 10.9 51.62 0.486 7.43 9.99 9.09
4/14/2022 6:45:00 AM 10.85 51.53 0.486 7.43 8.51 9.14
4/14/2022 7:00:00 AM 10.8 51.44 0.486 7.43 7.13 9.19
4/14/2022 7:15:00 AM 10.76 51.368 0.486 7.43 7.61 9.23
4/14/2022 7:30:00 AM 10.73 51.314 0.486 7.44 8.37 9.3
4/14/2022 7:45:00 AM 10.71 51.278 0.486 7.45 7.43 9.4
4/14/2022 8:00:00 AM 10.71 51.278 0.486 7.46 6.92 9.53
4/14/2022 8:15:00 AM 10.71 51.278 0.486 7.46 7.41 9.66
4/14/2022 8:30:00 AM 10.75 51.35 0.485 7.46 6.1 9.86
4/14/2022 8:45:00 AM 10.83 51.494 0.485 7.49 5.65 10.11
4/14/2022 9:00:00 AM 10.89 51.602 0.485 7.49 5.79 10.28
4/14/2022 9:15:00 AM 10.95 51.71 0.485 7.5 5.32 10.41
4/14/2022 9:30:00 AM 11.07 51.926 0.485 7.52 4.71 10.65
4/14/2022 9:45:00 AM 11.18 52.124 0.484 7.54 4.8 10.83
4/14/2022 10:00:00 AM 11.3 52.34 0.484 7.55 5.26 11.02
4/14/2022 10:15:00 AM 11.47 52.646 0.485 7.57 4.61 11.23
4/14/2022 10:30:00 AM 11.66 52.988 0.484 7.59 5.4 11.46
4/14/2022 10:45:00 AM 11.81 53.258 0.484 7.6 5.46 11.62
4/14/2022 11:00:00 AM 11.88 53.384 0.484 7.61 4.59 11.65
4/14/2022 11:15:00 AM 11.96 53.528 0.485 7.63 5.76 11.69
4/14/2022 11:30:00 AM 12.02 53.636 0.485 7.62 5.34 11.66
4/14/2022 11:45:00 AM 12.08 53.744 0.484 7.63 5.23 11.62
4/14/2022 12:00:00 PM 12.14 53.852 0.484 7.65 4.4 11.64
4/14/2022 12:15:00 PM 12.21 53.978 0.485 7.67 3.85 11.73
4/14/2022 12:30:00 PM 12.29 54.122 0.484 7.67 3.77 11.75
4/14/2022 12:45:00 PM 12.36 54.248 0.483 7.67 5.22 11.56
4/14/2022 1:00:00 PM 12.43 54.374 0.483 7.67 3.81 11.41
4/14/2022 1:15:00 PM 12.5 54.5 0.483 7.68 4.61 11.3
4/14/2022 1:30:00 PM 12.54 54.572 0.483 7.69 4.23 11.22
4/14/2022 1:45:00 PM 12.57 54.626 0.483 7.67 6.54 11.11
4/14/2022 2:00:00 PM 12.6 54.68 0.484 7.68 3.72 11.02
4/14/2022 2:15:00 PM 12.63 54.734 0.483 7.67 5.36 10.99
4/14/2022 2:30:00 PM 12.67 54.806 0.483 7.67 3.37 10.96
4/14/2022 2:45:00 PM 12.7 54.86 0.483 7.69 4.07 10.96
4/14/2022 3:00:00 PM 12.76 54.968 0.483 7.69 4.41 11.1
4/14/2022 3:15:00 PM 12.82 55.076 0.484 7.71 3.95 11.24
4/14/2022 3:30:00 PM 12.85 55.13 0.484 7.7 3.7 11.2
4/14/2022 3:45:00 PM 12.88 55.184 0.483 7.71 3.42 11.23
4/14/2022 4:00:00 PM 12.9 55.22 0.483 7.72 4.78 11.23
4/14/2022 4:15:00 PM 12.91 55.238 0.484 7.72 3.31 11.21
4/14/2022 4:30:00 PM 12.92 55.256 0.484 7.72 4.78 11.19
4/14/2022 4:45:00 PM 12.92 55.256 0.483 7.73 4.32 11.23
4/14/2022 5:00:00 PM 12.92 55.256 0.484 7.73 4.11 11.24
4/14/2022 5:15:00 PM 12.9 55.22 0.483 7.72 5.04 11.18
4/14/2022 5:30:00 PM 12.87 55.166 0.484 7.72 4.37 11.07
4/14/2022 5:45:00 PM 12.87 55.166 0.484 7.73 6.1 11.09
4/14/2022 6:00:00 PM 12.87 55.166 0.484 7.74 4.08 11.19
4/14/2022 6:15:00 PM 12.89 55.202 0.484 7.74 4.05 11.35
4/14/2022 6:30:00 PM 12.86 55.148 0.484 7.78 4.12 11.3
4/14/2022 6:45:00 PM 12.8 55.04 0.484 7.74 4.55 11.17
4/14/2022 7:00:00 PM 12.74 54.932 0.484 7.73 5.42 11.02
4/14/2022 7:15:00 PM 12.68 54.824 0.485 7.72 6.13 10.91
4/14/2022 7:30:00 PM 12.62 54.716 0.485 7.71 4.18 10.81
4/14/2022 7:45:00 PM 12.55 54.59 0.485 7.69 9.17 10.65
4/14/2022 8:00:00 PM 12.47 54.446 0.485 7.67 5.13 10.48
4/14/2022 8:15:00 PM 12.38 54.284 0.487 7.66 6.95 10.36
4/14/2022 8:30:00 PM 12.29 54.122 0.487 7.65 4.8 10.25
4/14/2022 8:45:00 PM 12.2 53.96 0.488 7.64 7.02 10.18
4/14/2022 9:00:00 PM 12.1 53.78 0.488 7.63 7.71 10.09
4/14/2022 9:15:00 PM 12 53.6 0.488 7.62 5.94 10.01
4/14/2022 9:30:00 PM 11.9 53.42 0.488 7.61 6.55 9.93
4/14/2022 9:45:00 PM 11.8 53.24 0.488 7.61 6.07 9.86
4/14/2022 10:00:00 PM 11.7 53.06 0.488 7.61 10.85 9.82
4/14/2022 10:15:00 PM 11.59 52.862 0.488 7.58 6.5 9.75
4/14/2022 10:30:00 PM 11.48 52.664 0.489 7.57 6.09 9.7
4/14/2022 10:45:00 PM 11.37 52.466 0.489 7.56 9.51 9.65
4/14/2022 11:00:00 PM 11.25 52.25 0.489 7.56 10.43 9.6
4/14/2022 11:15:00 PM 11.13 52.034 0.489 7.54 7.78 9.55
4/14/2022 11:30:00 PM 11.02 51.836 0.489 7.54 7.53 9.53
4/14/2022 11:45:00 PM 10.91 51.638 0.489 7.53 7.33 9.5
4/15/2022 12:00:00 AM 10.8 51.44 0.49 7.53 7.25 9.5
4/15/2022 12:15:00 AM 10.69 51.242 0.49 7.52 8.3 9.5
4/15/2022 12:30:00 AM 10.58 51.044 0.49 7.51 7.16 9.48
4/15/2022 12:45:00 AM 10.46 50.828 0.49 7.51 6.93 9.49
4/15/2022 1:00:00 AM 10.35 50.63 0.49 7.5 7.46 9.49
4/15/2022 1:15:00 AM 10.25 50.45 0.491 7.5 8.98 9.5
4/15/2022 1:30:00 AM 10.14 50.252 0.491 7.51 8.36 9.52
4/15/2022 1:45:00 AM 10.04 50.072 0.492 7.5 8.68 9.53
4/15/2022 2:00:00 AM 9.93 49.874 0.491 7.5 6.87 9.55
4/15/2022 2:15:00 AM 9.83 49.694 0.491 7.5 7.86 9.57
4/15/2022 2:30:00 AM 9.73 49.514 0.493 7.49 7.69 9.58
4/15/2022 2:45:00 AM 9.63 49.334 0.493 7.49 6.79 9.62
4/15/2022 3:00:00 AM 9.52 49.136 0.493 7.49 8.98 9.63
4/15/2022 3:15:00 AM 9.42 48.956 0.492 7.48 8.55 9.67
4/15/2022 3:30:00 AM 9.33 48.794 0.492 7.48 7.33 9.7
4/15/2022 3:45:00 AM 9.24 48.632 0.493 7.47 7.38 9.73
4/15/2022 4:00:00 AM 9.15 48.47 0.493 7.47 8.23 9.75
4/15/2022 4:15:00 AM 9.07 48.326 0.493 7.49 6.33 9.77
4/15/2022 4:30:00 AM 8.99 48.182 0.493 7.47 7.74 9.8
4/15/2022 4:45:00 AM 8.91 48.038 0.467 7.49 8.17 9.84
4/15/2022 5:00:00 AM 8.83 47.894 0.419 7.47 7.97 9.86
4/15/2022 5:15:00 AM 8.76 47.768 0.434 7.47 8.02 9.89
4/15/2022 5:30:00 AM 8.69 47.642 0.41 7.49 7.28 9.91
4/15/2022 5:45:00 AM 8.62 47.516 0.493 7.48 14.19 9.94
4/15/2022 6:00:00 AM 8.56 47.408 0.494 7.48 9.29 9.96
4/15/2022 6:15:00 AM 8.5 47.3 0.493 7.48 8.94 9.98
4/15/2022 6:30:00 AM 8.45 47.21 0.493 7.48 7.07 10
4/15/2022 6:45:00 AM 8.41 47.138 0.493 7.48 6.24 10.03
4/15/2022 7:00:00 AM 8.37 47.066 0.493 7.48 6.31 10.07
4/15/2022 7:15:00 AM 8.34 47.012 0.493 7.49 6.36 10.13
4/15/2022 7:30:00 AM 8.33 46.994 0.494 7.49 5.24 10.19
4/15/2022 7:45:00 AM 8.33 46.994 0.494 7.5 5.62 10.31
4/15/2022 8:00:00 AM 8.35 47.03 0.493 7.5 5.63 10.45
4/15/2022 8:15:00 AM 8.39 47.102 0.494 7.51 5.21 10.61
4/15/2022 8:30:00 AM 8.45 47.21 0.494 7.52 4.81 10.79
4/15/2022 8:45:00 AM 8.53 47.354 0.494 7.53 4.31 10.98
4/15/2022 9:00:00 AM 8.62 47.516 0.493 7.55 6.32 11.17
4/15/2022 9:15:00 AM 8.72 47.696 0.493 7.54 3.96 11.36
4/15/2022 9:30:00 AM 8.84 47.912 0.493 7.56 4.64 11.56
4/15/2022 9:45:00 AM 8.96 48.128 0.493 7.58 4.14 11.75
4/15/2022 10:00:00 AM 9.1 48.38 0.492 7.6 4.04 11.93
4/15/2022 10:15:00 AM 9.26 48.668 0.493 7.61 4.47 12.1
4/15/2022 10:30:00 AM 9.42 48.956 0.492 7.63 4.05 12.28
4/15/2022 10:45:00 AM 9.6 49.28 0.492 7.65 4.34 12.46
4/15/2022 11:00:00 AM 9.8 49.64 0.493 7.67 6.21 12.61
4/15/2022 11:15:00 AM 10 50 0.493 7.69 3.91 12.77
4/15/2022 11:30:00 AM 10.22 50.396 0.494 7.7 4.32 12.92
4/15/2022 11:45:00 AM 10.44 50.792 0.493 7.73 4.53 13.06
4/15/2022 12:00:00 PM 10.67 51.206 0.492 7.74 3.34 13.19
4/15/2022 12:15:00 PM 10.92 51.656 0.491 7.77 4.16 13.3
4/15/2022 12:30:00 PM 11.17 52.106 0.493 7.79 4.39 13.42
4/15/2022 12:45:00 PM 11.44 52.592 0.491 7.81 3.67 13.51
4/15/2022 1:00:00 PM 11.7 53.06 0.49 7.83 4.81 13.54
4/15/2022 1:15:00 PM 11.95 53.51 0.491 7.85 6.28 13.62
4/15/2022 1:30:00 PM 12.22 53.996 0.492 7.88 4.36 13.68
4/15/2022 1:45:00 PM 12.48 54.464 0.49 7.89 3.8 13.72
4/15/2022 2:00:00 PM 12.74 54.932 0.491 7.91 4.41 13.75
4/15/2022 2:15:00 PM 13 55.4 0.49 7.93 3.95 13.77
4/15/2022 2:30:00 PM 13.26 55.868 0.49 7.96 3.5 13.77
4/15/2022 2:45:00 PM 13.49 56.282 0.489 7.97 3.71 13.7
4/15/2022 3:00:00 PM 13.73 56.714 0.487 7.98 3.93 13.71
4/15/2022 3:15:00 PM 13.94 57.092 0.487 8 4.48 13.64
4/15/2022 3:30:00 PM 14.13 57.434 0.487 8.01 4.88 13.58
4/15/2022 3:45:00 PM 14.29 57.722 0.487 8.02 4.15 13.52
4/15/2022 4:00:00 PM 14.45 58.01 0.487 8.04 5.99 13.44
4/15/2022 4:15:00 PM 14.58 58.244 0.488 8.06 5.44 13.4
4/15/2022 4:30:00 PM 14.7 58.46 0.488 8.08 4.32 13.43
4/15/2022 4:45:00 PM 14.81 58.658 0.487 8.11 4.47 13.25
4/15/2022 5:00:00 PM 14.9 58.82 0.487 8.11 3.95 13.05
4/15/2022 5:15:00 PM 14.96 58.928 0.486 8.12 5.9 12.85
4/15/2022 5:30:00 PM 15 59 0.487 8.11 4.55 12.67
4/15/2022 5:45:00 PM 15.02 59.036 0.49 8.11 13.25 12.48
4/15/2022 6:00:00 PM 15.03 59.054 0.489 8.1 5.16 12.29
4/15/2022 6:15:00 PM 15.02 59.036 0.49 8.06 4.75 12.04
4/15/2022 6:30:00 PM 14.98 58.964 0.49 8.05 3.8 11.81
4/15/2022 6:45:00 PM 14.94 58.892 0.49 8.02 5.65 11.58
4/15/2022 7:00:00 PM 14.89 58.802 0.491 7.99 4.48 11.31
4/15/2022 7:15:00 PM 14.83 58.694 0.493 7.96 6.32 11.06
4/15/2022 7:30:00 PM 14.75 58.55 0.493 7.93 6.73 10.8
4/15/2022 7:45:00 PM 14.68 58.424 0.493 7.9 4.65 10.53
4/15/2022 8:00:00 PM 14.58 58.244 0.495 7.87 5.12 10.29
4/15/2022 8:15:00 PM 14.47 58.046 0.495 7.84 4.96 10.1
4/15/2022 8:30:00 PM 14.36 57.848 0.495 7.82 6.04 9.93
4/15/2022 8:45:00 PM 14.24 57.632 0.496 7.79 6.94 9.77
4/15/2022 9:00:00 PM 14.12 57.416 0.497 7.78 6.2 9.63
4/15/2022 9:15:00 PM 14 57.2 0.498 7.75 5.59 9.49
4/15/2022 9:30:00 PM 13.88 56.984 0.498 7.73 6.58 9.36
4/15/2022 9:45:00 PM 13.76 56.768 0.499 7.7 7.05 9.27
4/15/2022 10:00:00 PM 13.63 56.534 0.499 7.69 6.78 9.18
4/15/2022 10:15:00 PM 13.51 56.318 0.5 7.67 6.85 9.09
4/15/2022 10:30:00 PM 13.38 56.084 0.501 7.63 6.76 9.02
4/15/2022 10:45:00 PM 13.24 55.832 0.501 7.61 8.48 8.95
4/15/2022 11:00:00 PM 13.11 55.598 0.502 7.6 9.19 8.91
4/15/2022 11:15:00 PM 12.97 55.346 0.502 7.57 5.85 8.87
4/15/2022 11:30:00 PM 12.83 55.094 0.503 7.57 7.55 8.83
4/15/2022 11:45:00 PM 12.7 54.86 0.504 7.56 7.4 8.8
4/16/2022 12:00:00 AM 12.56 54.608 0.503 7.54 7.05 8.81
4/16/2022 12:15:00 AM 12.44 54.392 0.503 7.53 7.84 8.79
4/16/2022 12:30:00 AM 12.3 54.14 0.503 7.54 7.43 8.79
4/16/2022 12:45:00 AM 12.16 53.888 0.503 7.54 41.37 8.8
4/16/2022 1:00:00 AM 12.03 53.654 0.504 7.53 7.33 8.8
4/16/2022 1:15:00 AM 11.9 53.42 0.504 7.52 9.72 8.83
4/16/2022 1:30:00 AM 11.79 53.222 0.504 7.51 7.41 8.86
4/16/2022 1:45:00 AM 11.67 53.006 0.504 7.5 6.97 8.88
4/16/2022 2:00:00 AM 11.55 52.79 0.503 7.49 7.36 8.9
4/16/2022 2:15:00 AM 11.44 52.592 0.503 7.51 6.64 8.92
4/16/2022 2:30:00 AM 11.32 52.376 0.504 7.5 10.18 8.96
4/16/2022 2:45:00 AM 11.21 52.178 0.503 7.5 6.93 8.98
4/16/2022 3:00:00 AM 11.1 51.98 0.503 7.49 6.54 9
4/16/2022 3:15:00 AM 10.99 51.782 0.503 7.49 7.87 9.03
4/16/2022 3:30:00 AM 10.9 51.62 0.504 7.48 6.27 9.07
4/16/2022 3:45:00 AM 10.82 51.476 0.504 7.48 5.8 9.09
4/16/2022 4:00:00 AM 10.74 51.332 0.504 7.49 6.61 9.13
4/16/2022 4:15:00 AM 10.67 51.206 0.505 7.48 6.52 9.15
4/16/2022 4:30:00 AM 10.6 51.08 0.504 7.49 5.44 9.16
4/16/2022 4:45:00 AM 10.53 50.954 0.505 7.48 6.99 9.19
4/16/2022 5:00:00 AM 10.47 50.846 0.504 7.49 6.41 9.21
4/16/2022 5:15:00 AM 10.41 50.738 0.504 7.49 8.18 9.23
4/16/2022 5:30:00 AM 10.36 50.648 0.504 7.49 6.95 9.25
4/16/2022 5:45:00 AM 10.31 50.558 0.504 7.48 9.08 9.26
4/16/2022 6:00:00 AM 10.27 50.486 0.504 7.48 5.91 9.29
4/16/2022 6:15:00 AM 10.24 50.432 0.504 7.48 6.58 9.3
4/16/2022 6:30:00 AM 10.22 50.396 0.505 7.48 7.1 9.32
4/16/2022 6:45:00 AM 10.2 50.36 0.504 7.48 5.52 9.34
4/16/2022 7:00:00 AM 10.18 50.324 0.505 7.48 5.68 9.35
4/16/2022 7:15:00 AM 10.16 50.288 0.505 7.48 6.42 9.33
4/16/2022 7:30:00 AM 10.15 50.27 0.505 7.48 6.05 9.35
4/16/2022 7:45:00 AM 10.14 50.252 0.505 7.48 5.42 9.46
4/16/2022 8:00:00 AM 10.15 50.27 0.505 7.48 4.72 9.61
4/16/2022 8:15:00 AM 10.16 50.288 0.506 7.49 7.9 9.75
4/16/2022 8:30:00 AM 10.17 50.306 0.506 7.51 6.98 9.93
4/16/2022 8:45:00 AM 10.2 50.36 0.505 7.52 5.18 10.13
4/16/2022 9:00:00 AM 10.22 50.396 0.505 7.53 4.07 10.27
4/16/2022 9:15:00 AM 10.27 50.486 0.505 7.54 4.13 10.44
4/16/2022 9:30:00 AM 10.38 50.684 0.505 7.57 4.23 10.72
4/16/2022 9:45:00 AM 10.45 50.81 0.504 7.58 3.49 10.86
4/16/2022 10:00:00 AM 10.5 50.9 0.504 7.59 3.33 11.03
4/16/2022 10:15:00 AM 10.55 50.99 0.504 7.6 4.76 11.08
4/16/2022 10:30:00 AM 10.62 51.116 0.505 7.61 4.67 11.22
4/16/2022 10:45:00 AM 10.67 51.206 0.504 7.61 5.6 11.28
4/16/2022 11:00:00 AM 10.79 51.422 0.506 7.63 3.94 11.55
4/16/2022 11:15:00 AM 10.96 51.728 0.506 7.66 4.25 11.85
4/16/2022 11:30:00 AM 11.05 51.89 0.505 7.68 3.95 11.94
4/16/2022 11:45:00 AM 11.06 51.908 0.505 7.69 3.39 11.82
4/16/2022 12:00:00 PM 11.07 51.926 0.506 7.68 3.22 11.71
4/16/2022 12:15:00 PM 11.12 52.016 0.506 7.68 3.87 11.58
4/16/2022 12:30:00 PM 11.23 52.214 0.506 7.69 6.1 11.82
4/16/2022 12:45:00 PM 11.36 52.448 0.503 7.71 3.37 12.03
4/16/2022 1:00:00 PM 11.48 52.664 0.506 7.72 4.54 12.23
4/16/2022 1:15:00 PM 11.54 52.772 0.504 7.74 3.86 12.14
4/16/2022 1:30:00 PM 11.56 52.808 0.504 7.74 4.09 11.95
4/16/2022 1:45:00 PM 11.58 52.844 0.505 7.73 2.77 11.74
4/16/2022 2:00:00 PM 11.62 52.916 0.506 7.73 3.71 11.66
4/16/2022 2:15:00 PM 11.68 53.024 0.506 7.74 4.93 11.72
4/16/2022 2:30:00 PM 11.72 53.096 0.505 7.75 6.83 11.72
4/16/2022 2:45:00 PM 11.75 53.15 0.505 7.75 2.93 11.64
4/16/2022 3:00:00 PM 11.76 53.168 0.506 7.75 7.23 11.54
4/16/2022 3:15:00 PM 11.78 53.204 0.505 7.77 3.2 11.53
4/16/2022 3:30:00 PM 11.82 53.276 0.505 7.76 6.56 11.62
4/16/2022 3:45:00 PM 11.87 53.366 0.506 7.77 2.88 11.7
4/16/2022 4:00:00 PM 11.93 53.474 0.506 7.77 6.74 11.79
4/16/2022 4:15:00 PM 11.97 53.546 0.507 7.78 9.16 11.8
4/16/2022 4:30:00 PM 11.98 53.564 0.507 7.78 3.48 11.7
4/16/2022 4:45:00 PM 11.95 53.51 0.506 7.78 8.79 11.48
4/16/2022 5:00:00 PM 11.92 53.456 0.507 7.75 4.37 11.22
4/16/2022 5:15:00 PM 11.9 53.42 0.505 7.73 5.6 11.08
4/16/2022 5:30:00 PM 11.87 53.366 0.506 7.72 5.81 10.96
4/16/2022 5:45:00 PM 11.86 53.348 0.506 7.71 3.63 10.87
4/16/2022 6:00:00 PM 11.84 53.312 0.506 7.73 4.22 10.85
4/16/2022 6:15:00 PM 11.81 53.258 0.506 7.72 3.25 10.74
4/16/2022 6:30:00 PM 11.78 53.204 0.506 7.69 6.2 10.62
4/16/2022 6:45:00 PM 11.75 53.15 0.506 7.69 3.17 10.55
4/16/2022 7:00:00 PM 11.73 53.114 0.506 7.68 3.5 10.46
4/16/2022 7:15:00 PM 11.7 53.06 0.506 7.66 4.16 10.38
4/16/2022 7:30:00 PM 11.66 52.988 0.507 7.65 5.46 10.27
4/16/2022 7:45:00 PM 11.61 52.898 0.507 7.66 3.72 10.16
4/16/2022 8:00:00 PM 11.55 52.79 0.507 7.66 6.33 10.04
4/16/2022 8:15:00 PM 11.49 52.682 0.506 7.63 3.87 9.97
4/16/2022 8:30:00 PM 11.42 52.556 0.506 7.62 8.4 9.89
4/16/2022 8:45:00 PM 11.35 52.43 0.506 7.61 4.61 9.84
4/16/2022 9:00:00 PM 11.28 52.304 0.506 7.6 6.27 9.78
4/16/2022 9:15:00 PM 11.22 52.196 0.504 7.59 6.37 9.72
4/16/2022 9:30:00 PM 11.16 52.088 0.505 7.58 4.92 9.67
4/16/2022 9:45:00 PM 11.09 51.962 0.506 7.57 5.22 9.63
4/16/2022 10:00:00 PM 11.03 51.854 0.506 7.57 6.63 9.58
4/16/2022 10:15:00 PM 10.96 51.728 0.506 7.56 9.46 9.56
4/16/2022 10:30:00 PM 10.89 51.602 0.506 7.55 6.33 9.53
4/16/2022 10:45:00 PM 10.81 51.458 0.506 7.55 5.2 9.5
4/16/2022 11:00:00 PM 10.73 51.314 0.505 7.54 6.58 9.49
4/16/2022 11:15:00 PM 10.65 51.17 0.505 7.54 6.22 9.46
4/16/2022 11:30:00 PM 10.58 51.044 0.505 7.53 10.35 9.45
4/16/2022 11:45:00 PM 10.5 50.9 0.505 7.53 6.46 9.45
4/17/2022 12:00:00 AM 10.4 50.72 0.505 7.52 5.82 9.44
4/17/2022 12:15:00 AM 10.3 50.54 0.504 7.52 5.53 9.44
4/17/2022 12:30:00 AM 10.22 50.396 0.504 7.52 5.57 9.44
4/17/2022 12:45:00 AM 10.14 50.252 0.504 7.52 5.03 9.46
4/17/2022 1:00:00 AM 10.05 50.09 0.504 7.51 6.52 9.46
4/17/2022 1:15:00 AM 9.97 49.946 0.504 7.52 5.93 9.48
4/17/2022 1:30:00 AM 9.89 49.802 0.505 7.51 6.57 9.48
4/17/2022 1:45:00 AM 9.81 49.658 0.505 7.52 5.39 9.5
4/17/2022 2:00:00 AM 9.73 49.514 0.505 7.51 6.22 9.51
4/17/2022 2:15:00 AM 9.65 49.37 0.505 7.51 5.07 9.52
4/17/2022 2:30:00 AM 9.57 49.226 0.505 7.51 7.16 9.55
4/17/2022 2:45:00 AM 9.49 49.082 0.504 7.51 4.65 9.57
4/17/2022 3:00:00 AM 9.41 48.938 0.506 7.51 5.97 9.59
4/17/2022 3:15:00 AM 9.33 48.794 0.505 7.51 6.24 9.62
4/17/2022 3:30:00 AM 9.26 48.668 0.506 7.51 5.31 9.64
4/17/2022 3:45:00 AM 9.18 48.524 0.506 7.52 15.9 9.65
4/17/2022 4:00:00 AM 9.1 48.38 0.506 7.51 6.75 9.68
4/17/2022 4:15:00 AM 9.02 48.236 0.506 7.52 4.65 9.72
4/17/2022 4:30:00 AM 8.95 48.11 0.506 7.51 5 9.73
4/17/2022 4:45:00 AM 8.87 47.966 0.507 7.52 5.09 9.76
4/17/2022 5:00:00 AM 8.8 47.84 0.507 7.52 5.85 9.79
4/17/2022 5:15:00 AM 8.74 47.732 0.508 7.51 4.95 9.82
4/17/2022 5:30:00 AM 8.68 47.624 0.508 7.51 5.18 9.84
4/17/2022 5:45:00 AM 8.61 47.498 0.508 7.52 4.72 9.86
4/17/2022 6:00:00 AM 8.55 47.39 0.508 7.52 5.17 9.9
4/17/2022 6:15:00 AM 8.5 47.3 0.509 7.51 6.83 9.82
4/17/2022 6:30:00 AM 8.45 47.21 0.509 7.5 10.18 9.76
4/17/2022 6:45:00 AM 8.41 47.138 0.509 7.49 9.24 9.81
4/17/2022 7:00:00 AM 8.37 47.066 0.509 7.49 8.15 9.93
4/17/2022 7:15:00 AM 8.33 46.994 0.509 7.51 7.41 10.06
4/17/2022 7:30:00 AM 8.3 46.94 0.509 7.53 5.08 10.2
4/17/2022 7:45:00 AM 8.28 46.904 0.509 7.53 5.24 10.33
4/17/2022 8:00:00 AM 8.26 46.868 0.51 7.55 5.06 10.47
4/17/2022 8:15:00 AM 8.25 46.85 0.51 7.56 6.63 10.62
4/17/2022 8:30:00 AM 8.25 46.85 0.51 7.57 3.46 10.82
4/17/2022 8:45:00 AM 8.25 46.85 0.51 7.58 4.68 11.03
4/17/2022 9:00:00 AM 8.24 46.832 0.51 7.59 3.18 11.12
4/17/2022 9:15:00 AM 8.24 46.832 0.51 7.6 3.77 11.18
4/17/2022 9:30:00 AM 8.22 46.796 0.51 7.6 5.21 11.19
4/17/2022 9:45:00 AM 8.26 46.868 0.509 7.61 19.51 11.5
4/17/2022 10:00:00 AM 8.37 47.066 0.509 7.64 4.23 11.81
4/17/2022 10:15:00 AM 8.47 47.246 0.508 7.65 2.93 12.09
4/17/2022 10:30:00 AM 8.51 47.318 0.51 7.66 3.43 12.17
4/17/2022 10:45:00 AM 8.61 47.498 0.509 7.68 2.92 12.38
4/17/2022 11:00:00 AM 8.68 47.624 0.509 7.68 3.02 12.54
4/17/2022 11:15:00 AM 8.84 47.912 0.508 7.72 13.37 12.84
4/17/2022 11:30:00 AM 8.91 48.038 0.507 7.73 3.03 13.01
4/17/2022 11:45:00 AM 9.02 48.236 0.506 7.75 4.36 13.19
4/17/2022 12:00:00 PM 9.06 48.308 0.506 7.76 5.06 13.2
4/17/2022 12:15:00 PM 9.14 48.452 0.506 7.78 2.42 13.31
4/17/2022 12:30:00 PM 9.21 48.578 0.506 7.8 4.37 13.46
4/17/2022 12:45:00 PM 9.34 48.812 0.507 7.82 4.31 13.67
4/17/2022 1:00:00 PM 9.57 49.226 0.507 7.84 2.52 13.85
4/17/2022 1:15:00 PM 9.78 49.604 0.506 7.86 2.8 13.95
4/17/2022 1:30:00 PM 10.13 50.234 0.505 7.88 3.1 14.11
4/17/2022 1:45:00 PM 10.36 50.648 0.506 7.9 2.78 14.13
4/17/2022 2:00:00 PM 10.67 51.206 0.505 7.93 2.64 14.24
4/17/2022 2:15:00 PM 10.89 51.602 0.505 7.94 5.06 14.32
4/17/2022 2:30:00 PM 11.02 51.836 0.505 7.96 3.9 14.28
4/17/2022 2:45:00 PM 11.11 51.998 0.505 7.97 3.51 14.21
4/17/2022 3:00:00 PM 11.23 52.214 0.503 7.98 3.22 14.23
4/17/2022 3:15:00 PM 11.35 52.43 0.504 7.99 3.1 14.19
4/17/2022 3:30:00 PM 11.52 52.736 0.505 8.01 2.96 14.27
4/17/2022 3:45:00 PM 11.69 53.042 0.502 8.02 3.33 14.26
4/17/2022 4:00:00 PM 11.9 53.42 0.505 8.04 3.14 14.26
4/17/2022 4:15:00 PM 12.07 53.726 0.505 8.05 4.24 14.19
4/17/2022 4:30:00 PM 12.28 54.104 0.503 8.08 2.72 14.16
4/17/2022 4:45:00 PM 12.44 54.392 0.502 8.11 4.39 14.07
4/17/2022 5:00:00 PM 12.51 54.518 0.499 8.1 2.97 13.89
4/17/2022 5:15:00 PM 12.62 54.716 0.501 8.12 3.01 13.8
4/17/2022 5:30:00 PM 12.69 54.842 0.501 8.14 3.12 13.68
4/17/2022 5:45:00 PM 12.73 54.914 0.5 8.13 4.27 13.53
4/17/2022 6:00:00 PM 12.76 54.968 0.502 8.13 4.19 13.28
4/17/2022 6:15:00 PM 12.76 54.968 0.501 8.12 3 13.08
4/17/2022 6:30:00 PM 12.76 54.968 0.503 8.12 11.92 12.84
4/17/2022 6:45:00 PM 12.74 54.932 0.502 8.05 6.05 12.56
4/17/2022 7:00:00 PM 12.71 54.878 0.502 8.03 2.93 12.31
4/17/2022 7:15:00 PM 12.67 54.806 0.504 8 5.54 12.02
4/17/2022 7:30:00 PM 12.62 54.716 0.504 7.98 3.53 11.75
4/17/2022 7:45:00 PM 12.58 54.644 0.505 7.96 3.72 11.47
4/17/2022 8:00:00 PM 12.53 54.554 0.504 7.93 4.37 11.22
4/17/2022 8:15:00 PM 12.46 54.428 0.504 7.91 4.67 10.98
4/17/2022 8:30:00 PM 12.38 54.284 0.503 7.89 6.07 10.78
4/17/2022 8:45:00 PM 12.3 54.14 0.504 7.85 10.43 10.61
4/17/2022 9:00:00 PM 12.2 53.96 0.506 7.83 7.77 10.44
4/17/2022 9:15:00 PM 12.1 53.78 0.506 7.81 6.59 10.29
4/17/2022 9:30:00 PM 12 53.6 0.505 7.79 9.21 10.15
4/17/2022 9:45:00 PM 11.9 53.42 0.506 7.77 6.74 10.03
4/17/2022 10:00:00 PM 11.8 53.24 0.507 7.75 6.74 9.9
4/17/2022 10:15:00 PM 11.7 53.06 0.508 7.73 7.08 9.81
4/17/2022 10:30:00 PM 11.6 52.88 0.509 7.71 5.07 9.71
4/17/2022 10:45:00 PM 11.49 52.682 0.509 7.69 6.08 9.63
4/17/2022 11:00:00 PM 11.38 52.484 0.51 7.66 8.89 9.56
4/17/2022 11:15:00 PM 11.25 52.25 0.511 7.64 6.37 9.49
4/17/2022 11:30:00 PM 11.12 52.016 0.512 7.63 5.63 9.44
4/17/2022 11:45:00 PM 10.99 51.782 0.513 7.62 5.87 9.41
4/18/2022 12:00:00 AM 10.84 51.512 0.513 7.61 4.87 9.38
4/18/2022 12:15:00 AM 10.7 51.26 0.514 7.6 5.32 9.38
4/18/2022 12:30:00 AM 10.55 50.99 0.515 7.59 7.09 9.37
4/18/2022 12:45:00 AM 10.4 50.72 0.516 7.58 8.08 9.38
4/18/2022 1:00:00 AM 10.26 50.468 0.514 7.57 5.02 9.41
4/18/2022 1:15:00 AM 10.12 50.216 0.517 7.56 4.63 9.42
4/18/2022 1:30:00 AM 9.98 49.964 0.516 7.55 6.18 9.45
4/18/2022 1:45:00 AM 9.84 49.712 0.516 7.55 5.07 9.47
4/18/2022 2:00:00 AM 9.7 49.46 0.516 7.54 6.05 9.51
4/18/2022 2:15:00 AM 9.56 49.208 0.516 7.54 5.23 9.54
4/18/2022 2:30:00 AM 9.43 48.974 0.517 7.54 4.57 9.57
4/18/2022 2:45:00 AM 9.29 48.722 0.517 7.53 5.5 9.62
4/18/2022 3:00:00 AM 9.15 48.47 0.517 7.53 7.53 9.65
4/18/2022 3:15:00 AM 9.02 48.236 0.516 7.54 9.76 9.69
4/18/2022 3:30:00 AM 8.88 47.984 0.516 7.53 6.81 9.74
4/18/2022 3:45:00 AM 8.75 47.75 0.516 7.52 5.08 9.78
4/18/2022 4:00:00 AM 8.62 47.516 0.517 7.53 4.94 9.83
4/18/2022 4:15:00 AM 8.49 47.282 0.516 7.52 5.06 9.85
4/18/2022 4:30:00 AM 8.38 47.084 0.515 7.51 5.81 9.89
4/18/2022 4:45:00 AM 8.26 46.868 0.517 7.51 5.17 9.94
4/18/2022 5:00:00 AM 8.14 46.652 0.517 7.52 5.37 9.99
4/18/2022 5:15:00 AM 8.04 46.472 0.517 7.51 6.58 10.04
4/18/2022 5:30:00 AM 7.94 46.292 0.517 7.51 4.34 10.06
4/18/2022 5:45:00 AM 7.84 46.112 0.516 7.52 3.87 10.09
4/18/2022 6:00:00 AM 7.75 45.95 0.518 7.52 4.62 10.14
4/18/2022 6:15:00 AM 7.66 45.788 0.517 7.52 4.92 10.17
4/18/2022 6:30:00 AM 7.58 45.644 0.516 7.52 4.15 10.21
4/18/2022 6:45:00 AM 7.52 45.536 0.516 7.52 3.87 10.26
4/18/2022 7:00:00 AM 7.46 45.428 0.518 7.52 3.8 10.34
4/18/2022 7:15:00 AM 7.42 45.356 0.518 7.52 4.42 10.43
4/18/2022 7:30:00 AM 7.38 45.284 0.517 7.52 3.6 10.55
4/18/2022 7:45:00 AM 7.34 45.212 0.517 7.53 4.16 10.66
4/18/2022 8:00:00 AM 7.32 45.176 0.517 7.55 3.33 10.8
4/18/2022 8:15:00 AM 7.3 45.14 0.518 7.55 3.02 10.92
4/18/2022 8:30:00 AM 7.28 45.104 0.518 7.56 3.37 11.04
4/18/2022 8:45:00 AM 7.28 45.104 0.518 7.56 3.9 11.19
4/18/2022 9:00:00 AM 7.3 45.14 0.518 7.56 3.2 11.39
4/18/2022 9:15:00 AM 7.33 45.194 0.517 7.58 3.37 11.63
4/18/2022 9:30:00 AM 7.36 45.248 0.517 7.61 4.13 11.78
4/18/2022 9:45:00 AM 7.38 45.284 0.517 7.61 6.44 11.97
4/18/2022 10:00:00 AM 7.4 45.32 0.516 7.61 3.96 12.02
4/18/2022 10:15:00 AM 7.41 45.338 0.516 7.61 4.32 12.09
4/18/2022 10:30:00 AM 7.42 45.356 0.517 7.61 2.5 12.18
4/18/2022 10:45:00 AM 7.46 45.428 0.516 7.63 7.56 12.34
4/18/2022 11:00:00 AM 7.5 45.5 0.516 7.65 2.4 12.52
4/18/2022 11:15:00 AM 7.55 45.59 0.517 7.66 7.45 12.65
4/18/2022 11:30:00 AM 7.57 45.626 0.517 7.68 3.35 12.68
4/18/2022 11:45:00 AM 7.58 45.644 0.516 7.68 3.08 12.68
4/18/2022 12:00:00 PM 7.6 45.68 0.518 7.67 17.77 12.66
4/18/2022 12:15:00 PM 7.62 45.716 0.518 7.68 2.48 12.67
4/18/2022 12:30:00 PM 7.64 45.752 0.518 7.68 2.47 12.71
4/18/2022 12:45:00 PM 7.65 45.77 0.517 7.7 2.52 12.73
4/18/2022 1:00:00 PM 7.65 45.77 0.516 7.71 2.64 12.73
4/18/2022 1:15:00 PM 7.66 45.788 0.515 7.71 2.62 12.82
4/18/2022 1:30:00 PM 7.66 45.788 0.515 7.72 2.12 12.87
4/18/2022 1:45:00 PM 7.64 45.752 0.513 7.72 2.68 12.83
4/18/2022 2:00:00 PM 7.58 45.644 0.513 7.72 3.12 12.7
4/18/2022 2:15:00 PM 7.45 45.41 0.513 7.71 3.21 12.57
4/18/2022 2:30:00 PM 7.36 45.248 0.513 7.72 4.2 12.63
4/18/2022 2:45:00 PM 7.3 45.14 0.515 7.72 11.68 12.69
4/18/2022 3:00:00 PM 7.26 45.068 0.518 7.73 5.99 12.8
4/18/2022 3:15:00 PM 7.31 45.158 0.514 7.73 3.48 12.81
4/18/2022 3:30:00 PM 7.26 45.068 0.512 7.73 2.84 12.78
4/18/2022 3:45:00 PM 7.2 44.96 0.512 7.74 12.57 12.79
4/18/2022 4:00:00 PM 7.18 44.924 0.511 7.73 6.75 12.85
4/18/2022 4:15:00 PM 7.23 45.014 0.507 7.75 6.38 12.96
4/18/2022 4:30:00 PM 7.26 45.068 0.507 7.75 5.63 13.01
4/18/2022 4:45:00 PM 7.29 45.122 0.506 7.75 5.77 12.97
4/18/2022 5:00:00 PM 7.3 45.14 0.506 7.75 3.73 12.89
4/18/2022 5:15:00 PM 7.29 45.122 0.505 7.75 4.28 12.78
4/18/2022 5:30:00 PM 7.27 45.086 0.504 7.73 7.55 12.71
4/18/2022 5:45:00 PM 7.24 45.032 0.503 7.74 5.87 12.63
4/18/2022 6:00:00 PM 7.23 45.014 0.5 7.72 4.61 12.54
4/18/2022 6:15:00 PM 7.2 44.96 0.499 7.71 5.89 12.41
4/18/2022 6:30:00 PM 7.15 44.87 0.498 7.69 5.3 12.32
4/18/2022 6:45:00 PM 7.1 44.78 0.496 7.7 6.26 12.25
4/18/2022 7:00:00 PM 7.07 44.726 0.495 7.69 6.7 12.2
4/18/2022 7:15:00 PM 7.07 44.726 0.494 7.69 6.32 12.15
4/18/2022 7:30:00 PM 7.1 44.78 0.495 7.67 5.14 12.07
4/18/2022 7:45:00 PM 7.1 44.78 0.496 7.66 5.57 11.94
4/18/2022 8:00:00 PM 7.07 44.726 0.497 7.65 5.53 11.81
4/18/2022 8:15:00 PM 7.01 44.618 0.497 7.64 6.26 11.71
4/18/2022 8:30:00 PM 6.97 44.546 0.496 7.65 6.85 11.6
4/18/2022 8:45:00 PM 6.94 44.492 0.496 7.63 6.08 11.51
4/18/2022 9:00:00 PM 6.92 44.456 0.495 7.63 5.48 11.41
4/18/2022 9:15:00 PM 6.89 44.402 0.493 7.61 7 11.32
4/18/2022 9:30:00 PM 6.85 44.33 0.492 7.6 7.21 11.24
4/18/2022 9:45:00 PM 6.8 44.24 0.491 7.59 6.62 11.16
4/18/2022 10:00:00 PM 6.78 44.204 0.491 7.59 10.92 11.09
4/18/2022 10:15:00 PM 6.78 44.204 0.491 7.59 8.2 11.02
4/18/2022 10:30:00 PM 6.76 44.168 0.491 7.57 6.2 10.95
4/18/2022 10:45:00 PM 6.72 44.096 0.49 7.56 7.21 10.9
4/18/2022 11:00:00 PM 6.65 43.97 0.489 7.55 6.52 10.87
4/18/2022 11:15:00 PM 6.6 43.88 0.49 7.54 8.24 10.83
4/18/2022 11:30:00 PM 6.58 43.844 0.491 7.53 11.46 10.79
4/18/2022 11:45:00 PM 6.58 43.844 0.492 7.54 6.88 10.76
4/19/2022 12:00:00 AM 6.57 43.826 0.494 7.52 9.89 10.72
4/19/2022 12:15:00 AM 6.57 43.826 0.496 7.52 5.83 10.69
4/19/2022 12:30:00 AM 6.56 43.808 0.497 7.51 6.11 10.65
4/19/2022 12:45:00 AM 6.57 43.826 0.496 7.51 8.44 10.62
4/19/2022 1:00:00 AM 6.57 43.826 0.497 7.49 6.77 10.58
4/19/2022 1:15:00 AM 6.57 43.826 0.498 7.49 5.85 10.55
4/19/2022 1:30:00 AM 6.56 43.808 0.5 7.49 6.87 10.52
4/19/2022 1:45:00 AM 6.56 43.808 0.5 7.48 6.5 10.51
4/19/2022 2:00:00 AM 6.57 43.826 0.5 7.49 6.11 10.49
4/19/2022 2:15:00 AM 6.57 43.826 0.5 7.47 6.58 10.46
4/19/2022 2:30:00 AM 6.58 43.844 0.499 7.47 14.19 10.45
4/19/2022 2:45:00 AM 6.59 43.862 0.499 7.45 7.16 10.44
4/19/2022 3:00:00 AM 6.61 43.898 0.499 7.45 7.33 10.42
4/19/2022 3:15:00 AM 6.62 43.916 0.5 7.45 7.62 10.43
4/19/2022 3:30:00 AM 6.64 43.952 0.499 7.45 6.88 10.39
4/19/2022 3:45:00 AM 6.65 43.97 0.5 7.44 7 10.38
4/19/2022 4:00:00 AM 6.66 43.988 0.5 7.44 6.65 10.37
4/19/2022 4:15:00 AM 6.67 44.006 0.501 7.44 6.71 10.36
4/19/2022 4:30:00 AM 6.68 44.024 0.501 7.43 6.11 10.36
4/19/2022 4:45:00 AM 6.69 44.042 0.501 7.44 12.52 10.34
4/19/2022 5:00:00 AM 6.7 44.06 0.502 7.45 7.44 10.35
4/19/2022 5:15:00 AM 6.7 44.06 0.504 7.44 6.25 10.33
4/19/2022 5:30:00 AM 6.71 44.078 0.504 7.44 5.75 10.34
4/19/2022 5:45:00 AM 6.72 44.096 0.506 7.44 5.02 10.34
4/19/2022 6:00:00 AM 6.73 44.114 0.505 7.43 4.95 10.33
4/19/2022 6:15:00 AM 6.73 44.114 0.506 7.43 4.48 10.32
4/19/2022 6:30:00 AM 6.74 44.132 0.505 7.44 5.15 10.32
4/19/2022 6:45:00 AM 6.74 44.132 0.506 7.44 4.55 10.35
4/19/2022 7:00:00 AM 6.76 44.168 0.506 7.45 15.38 10.36
4/19/2022 7:15:00 AM 6.76 44.168 0.506 7.45 5.14 10.41
4/19/2022 7:30:00 AM 6.77 44.186 0.508 7.45 7.83 10.5
4/19/2022 7:45:00 AM 6.8 44.24 0.507 7.46 4.82 10.64
4/19/2022 8:00:00 AM 6.83 44.294 0.506 7.48 4.97 10.78
4/19/2022 8:15:00 AM 6.86 44.348 0.506 7.49 5.22 10.86
4/19/2022 8:30:00 AM 6.89 44.402 0.506 7.51 3.93 11.05
4/19/2022 8:45:00 AM 6.95 44.51 0.506 7.51 7.84 11.26
4/19/2022 9:00:00 AM 7 44.6 0.508 7.52 3.55 11.45
4/19/2022 9:15:00 AM 7.02 44.636 0.507 7.53 4.67 11.49
4/19/2022 9:30:00 AM 7.06 44.708 0.506 7.54 3.44 11.58
4/19/2022 9:45:00 AM 7.1 44.78 0.507 7.55 16.88 11.7
4/19/2022 10:00:00 AM 7.14 44.852 0.507 7.56 3.15 11.89
4/19/2022 10:15:00 AM 7.17 44.906 0.507 7.57 3.24 12.03
4/19/2022 10:30:00 AM 7.22 44.996 0.506 7.57 3.3 12.21
4/19/2022 10:45:00 AM 7.3 45.14 0.506 7.6 3.49 12.46
4/19/2022 11:00:00 AM 7.44 45.392 0.506 7.62 3.25 12.73
4/19/2022 11:15:00 AM 7.67 45.806 0.506 7.64 3.77 13
4/19/2022 11:30:00 AM 7.91 46.238 0.506 7.66 3.87 13.23
4/19/2022 11:45:00 AM 8.06 46.508 0.505 7.68 3.28 13.34
4/19/2022 12:00:00 PM 8.13 46.634 0.504 7.71 3.84 13.48
4/19/2022 12:15:00 PM 8.26 46.868 0.503 7.73 5.95 13.69
4/19/2022 12:30:00 PM 8.39 47.102 0.502 7.74 18.34 13.83
4/19/2022 12:45:00 PM 8.5 47.3 0.501 7.76 4.71 13.94
4/19/2022 1:00:00 PM 8.58 47.444 0.499 7.78 3.58 14.01
4/19/2022 1:15:00 PM 8.66 47.588 0.497 7.8 3.49 14.06
4/19/2022 1:30:00 PM 8.72 47.696 0.494 7.81 4.75 14.11
4/19/2022 1:45:00 PM 8.93 48.074 0.49 7.84 3.18 14.31
4/19/2022 2:00:00 PM 9.18 48.524 0.487 7.86 3.59 14.46
4/19/2022 2:15:00 PM 9.47 49.046 0.486 7.92 7.28 14.58
4/19/2022 2:30:00 PM 9.74 49.532 0.488 7.92 4.93 14.66
4/19/2022 2:45:00 PM 9.96 49.928 0.492 7.94 3.94 14.62
4/19/2022 3:00:00 PM 10.08 50.144 0.493 7.96 8.2 14.51
4/19/2022 3:15:00 PM 10.14 50.252 0.487 7.96 5.38 14.29
4/19/2022 3:30:00 PM 10.14 50.252 0.485 7.97 4.11 14.01
4/19/2022 3:45:00 PM 10.3 50.54 0.483 7.99 6.92 14.09
4/19/2022 4:00:00 PM 10.48 50.864 0.48 8.01 4.91 14.16
4/19/2022 4:15:00 PM 10.5 50.9 0.475 8.01 7.18 13.95
4/19/2022 4:30:00 PM 10.53 50.954 0.47 8.02 5.48 13.81
4/19/2022 4:45:00 PM 10.54 50.972 0.463 8.01 6.16 13.59
4/19/2022 5:00:00 PM 10.54 50.972 0.46 8 18.26 13.4
4/19/2022 5:15:00 PM 10.51 50.918 0.456 7.98 21.64 13.11
4/19/2022 5:30:00 PM 10.51 50.918 0.451 7.97 17.25 12.9
4/19/2022 5:45:00 PM 10.51 50.918 0.45 7.94 28.97 12.57
4/19/2022 6:00:00 PM 10.51 50.918 0.449 7.94 11.68 12.51
4/19/2022 6:15:00 PM 10.48 50.864 0.448 7.92 12.9 12.36
4/19/2022 6:30:00 PM 10.43 50.774 0.45 7.8 23.43 12.12
4/19/2022 6:45:00 PM 10.38 50.684 0.45 7.79 14.12 11.98
4/19/2022 7:00:00 PM 10.32 50.576 0.451 7.76 14.07 11.84
4/19/2022 7:15:00 PM 10.24 50.432 0.451 7.75 12.37 11.65
4/19/2022 7:30:00 PM 10.15 50.27 0.454 7.74 11.23 11.46
4/19/2022 7:45:00 PM 10.06 50.108 0.456 7.72 10.66 11.29
4/19/2022 8:00:00 PM 9.96 49.928 0.459 7.72 11.8 11.15
4/19/2022 8:15:00 PM 9.87 49.766 0.46 7.71 10.89 11.02
4/19/2022 8:30:00 PM 9.78 49.604 0.461 7.69 15.75 10.9
4/19/2022 8:45:00 PM 9.68 49.424 0.463 7.67 11.02 10.79
4/19/2022 9:00:00 PM 9.57 49.226 0.464 7.65 12.25 10.69
4/19/2022 9:15:00 PM 9.47 49.046 0.464 7.63 12.79 10.61
4/19/2022 9:30:00 PM 9.35 48.83 0.466 7.62 12.95 10.55
4/19/2022 9:45:00 PM 9.24 48.632 0.469 7.61 14.25 10.47
4/19/2022 10:00:00 PM 9.12 48.416 0.469 7.61 21.79 10.42
4/19/2022 10:15:00 PM 8.99 48.182 0.47 7.59 10.95 10.37
4/19/2022 10:30:00 PM 8.87 47.966 0.468 7.57 21.37 10.3
4/19/2022 10:45:00 PM 8.74 47.732 0.47 7.56 10.33 10.26
4/19/2022 11:00:00 PM 8.63 47.534 0.473 7.55 22.32 10.21
4/19/2022 11:15:00 PM 8.51 47.318 0.475 7.54 15.85 10.17
4/19/2022 11:30:00 PM 8.4 47.12 0.477 7.53 8.92 10.14
4/19/2022 11:45:00 PM 8.29 46.922 0.479 7.52 8.99 10.12
4/20/2022 12:00:00 AM 8.19 46.742 0.479 7.51 12.43 10.09
4/20/2022 12:15:00 AM 8.08 46.544 0.477 7.5 9.43 10.09
4/20/2022 12:30:00 AM 7.97 46.346 0.476 7.5 11.27 10.09
4/20/2022 12:45:00 AM 7.87 46.166 0.475 7.5 11.22 10.1
4/20/2022 1:00:00 AM 7.78 46.004 0.476 7.49 8.81 10.11
4/20/2022 1:15:00 AM 7.68 45.824 0.476 7.49 10.15 10.12
4/20/2022 1:30:00 AM 7.58 45.644 0.477 7.48 8.26 10.14
4/20/2022 1:45:00 AM 7.49 45.482 0.475 7.48 8.32 10.16
4/20/2022 2:00:00 AM 7.4 45.32 0.476 7.48 7.7 10.2
4/20/2022 2:15:00 AM 7.31 45.158 0.477 7.48 8.41 10.21
4/20/2022 2:30:00 AM 7.24 45.032 0.478 7.47 8.26 10.22
4/20/2022 2:45:00 AM 7.15 44.87 0.478 7.48 7.11 10.25
4/20/2022 3:00:00 AM 7.08 44.744 0.479 7.47 8.41 10.27
4/20/2022 3:15:00 AM 7.02 44.636 0.479 7.47 7.07 10.29
4/20/2022 3:30:00 AM 6.96 44.528 0.48 7.46 7.09 10.32
4/20/2022 3:45:00 AM 6.89 44.402 0.481 7.46 9.64 10.34
4/20/2022 4:00:00 AM 6.83 44.294 0.482 7.47 15.24 10.37
4/20/2022 4:15:00 AM 6.78 44.204 0.483 7.47 8.1 10.38
4/20/2022 4:30:00 AM 6.74 44.132 0.484 7.46 7.54 10.42
4/20/2022 4:45:00 AM 6.69 44.042 0.485 7.46 16.47 10.42
4/20/2022 5:00:00 AM 6.65 43.97 0.486 7.47 5.2 10.45
4/20/2022 5:15:00 AM 6.61 43.898 0.487 7.47 51.64 10.47
4/20/2022 5:30:00 AM 6.57 43.826 0.487 7.46 5.37 10.49
4/20/2022 5:45:00 AM 6.53 43.754 0.488 7.46 5.63 10.51
4/20/2022 6:00:00 AM 6.49 43.682 0.489 7.46 5.84 10.52
4/20/2022 6:15:00 AM 6.45 43.61 0.49 7.46 80.09 10.55
4/20/2022 6:30:00 AM 6.42 43.556 0.49 7.46 4.47 10.57
4/20/2022 6:45:00 AM 6.39 43.502 0.492 7.47 10.97 10.6
4/20/2022 7:00:00 AM 6.37 43.466 0.491 7.48 4.02 10.68
4/20/2022 7:15:00 AM 6.36 43.448 0.492 7.47 5.4 10.76
4/20/2022 7:30:00 AM 6.37 43.466 0.493 7.47 4.77 10.86
4/20/2022 7:45:00 AM 6.38 43.484 0.493 7.48 5.54 10.95
4/20/2022 8:00:00 AM 6.4 43.52 0.495 7.48 4.89 11.11
4/20/2022 8:15:00 AM 6.44 43.592 0.493 7.49 3.7 11.31
4/20/2022 8:30:00 AM 6.49 43.682 0.493 7.5 7.25 11.52
4/20/2022 8:45:00 AM 6.57 43.826 0.494 7.52 7.83 11.74
4/20/2022 9:00:00 AM 6.67 44.006 0.494 7.53 5.86 11.95
4/20/2022 9:15:00 AM 6.77 44.186 0.495 7.55 4.27 12.16
4/20/2022 9:30:00 AM 6.9 44.42 0.495 7.56 6.43 12.39
4/20/2022 9:45:00 AM 7.03 44.654 0.493 7.58 4.05 12.61
4/20/2022 10:00:00 AM 7.19 44.942 0.494 7.6 6.81 12.84
4/20/2022 10:15:00 AM 7.34 45.212 0.493 7.61 9.34 13.05
4/20/2022 10:30:00 AM 7.52 45.536 0.493 7.63 3.9 13.24
4/20/2022 10:45:00 AM 7.72 45.896 0.493 7.65 2.89 13.45
4/20/2022 11:00:00 AM 7.92 46.256 0.492 7.67 3.51 13.65
4/20/2022 11:15:00 AM 8.14 46.652 0.492 7.7 2.83 13.84
4/20/2022 11:30:00 AM 8.37 47.066 0.492 7.73 3.28 14.03
4/20/2022 11:45:00 AM 8.6 47.48 0.494 7.74 7.8 14.19
4/20/2022 12:00:00 PM 8.86 47.948 0.494 7.77 3.16 14.37
4/20/2022 12:15:00 PM 9.13 48.434 0.494 7.79 2.88 14.48
4/20/2022 12:30:00 PM 9.42 48.956 0.492 7.82 8.28 14.61
4/20/2022 12:45:00 PM 9.69 49.442 0.493 7.84 16.14 14.71
4/20/2022 1:00:00 PM 9.99 49.982 0.491 7.88 5.28 14.81
4/20/2022 1:15:00 PM 10.28 50.504 0.49 7.9 3.39 14.88
4/20/2022 1:30:00 PM 10.55 50.99 0.487 7.91 4.97 14.93
4/20/2022 1:45:00 PM 10.83 51.494 0.483 7.94 4.1 14.96
4/20/2022 2:00:00 PM 11.12 52.016 0.486 7.97 13.74 14.97
4/20/2022 2:15:00 PM 11.41 52.538 0.487 7.98 3.59 14.99
4/20/2022 2:30:00 PM 11.67 53.006 0.488 8.01 5.84 14.99
4/20/2022 2:45:00 PM 11.93 53.474 0.487 8.03 3.04 14.95
4/20/2022 3:00:00 PM 12.18 53.924 0.49 8.07 5.38 14.92
4/20/2022 3:15:00 PM 12.41 54.338 0.487 8.08 3.98 14.89
4/20/2022 3:30:00 PM 12.63 54.734 0.484 8.11 11.93 14.84
4/20/2022 3:45:00 PM 12.83 55.094 0.485 8.12 3.31 14.8
4/20/2022 4:00:00 PM 13.03 55.454 0.482 8.12 3.31 14.71
4/20/2022 4:15:00 PM 13.2 55.76 0.487 8.15 3.23 14.62
4/20/2022 4:30:00 PM 13.36 56.048 0.487 8.16 3.05 14.56
4/20/2022 4:45:00 PM 13.5 56.3 0.486 8.2 2.96 14.45
4/20/2022 5:00:00 PM 13.63 56.534 0.487 8.21 3.6 14.31
4/20/2022 5:15:00 PM 13.73 56.714 0.483 8.21 2.8 14.14
4/20/2022 5:30:00 PM 13.81 56.858 0.483 8.23 4.35 13.98
4/20/2022 5:45:00 PM 13.87 56.966 0.488 8.22 3.38 13.75
4/20/2022 6:00:00 PM 13.91 57.038 0.491 8.21 3.67 13.53
4/20/2022 6:15:00 PM 13.94 57.092 0.488 8.2 3.07 13.27
4/20/2022 6:30:00 PM 13.95 57.11 0.487 8.18 2.97 13
4/20/2022 6:45:00 PM 13.95 57.11 0.483 8.11 7.01 12.7
4/20/2022 7:00:00 PM 13.95 57.11 0.486 8.07 3.93 12.35
4/20/2022 7:15:00 PM 13.94 57.092 0.487 8.03 2.76 12.04
4/20/2022 7:30:00 PM 13.9 57.02 0.487 8 3.21 11.71
4/20/2022 7:45:00 PM 13.86 56.948 0.489 7.98 3.23 11.4
4/20/2022 8:00:00 PM 13.8 56.84 0.489 7.95 3.33 11.08
4/20/2022 8:15:00 PM 13.73 56.714 0.489 7.91 4.84 10.79
4/20/2022 8:30:00 PM 13.65 56.57 0.491 7.87 4.46 10.53
4/20/2022 8:45:00 PM 13.57 56.426 0.493 7.86 5.3 10.3
4/20/2022 9:00:00 PM 13.47 56.246 0.493 7.83 3.52 10.1
4/20/2022 9:15:00 PM 13.36 56.048 0.495 7.78 4.42 9.91
4/20/2022 9:30:00 PM 13.26 55.868 0.495 7.75 3.84 9.74
4/20/2022 9:45:00 PM 13.15 55.67 0.497 7.73 3.76 9.58
4/20/2022 10:00:00 PM 13.04 55.472 0.498 7.7 6.58 9.44
4/20/2022 10:15:00 PM 12.93 55.274 0.498 7.67 4.16 9.31
4/20/2022 10:30:00 PM 12.83 55.094 0.498 7.65 4.44 9.21
4/20/2022 10:45:00 PM 12.73 54.914 0.499 7.63 5.6 9.11
4/20/2022 11:00:00 PM 12.63 54.734 0.501 7.61 4.65 9.03
4/20/2022 11:15:00 PM 12.53 54.554 0.501 7.6 4.43 8.95
4/20/2022 11:30:00 PM 12.41 54.338 0.501 7.58 5.02 8.89
4/20/2022 11:45:00 PM 12.29 54.122 0.501 7.57 6.04 8.82
4/21/2022 12:00:00 AM 12.17 53.906 0.501 7.56 5.84 8.8
4/21/2022 12:15:00 AM 12.03 53.654 0.501 7.55 4.53 8.79
4/21/2022 12:30:00 AM 11.9 53.42 0.502 7.54 7.21 8.78
4/21/2022 12:45:00 AM 11.77 53.186 0.502 7.53 10.97 8.77
4/21/2022 1:00:00 AM 11.62 52.916 0.501 7.52 7.73 8.79
4/21/2022 1:15:00 AM 11.48 52.664 0.501 7.51 6.28 8.82
4/21/2022 1:30:00 AM 11.33 52.394 0.502 7.5 8.55 8.85
4/21/2022 1:45:00 AM 11.18 52.124 0.502 7.5 5.34 8.86
4/21/2022 2:00:00 AM 11.04 51.872 0.501 7.49 10.84 8.9
4/21/2022 2:15:00 AM 10.9 51.62 0.502 7.49 5.53 8.94
4/21/2022 2:30:00 AM 10.76 51.368 0.501 7.48 4.3 8.97
4/21/2022 2:45:00 AM 10.64 51.152 0.501 7.48 5.71 9.01
4/21/2022 3:00:00 AM 10.53 50.954 0.501 7.48 5.71 9.05
4/21/2022 3:15:00 AM 10.41 50.738 0.502 7.48 6.03 9.08
4/21/2022 3:30:00 AM 10.3 50.54 0.502 7.49 5.48 9.13
4/21/2022 3:45:00 AM 10.19 50.342 0.501 7.48 4.92 9.17
4/21/2022 4:00:00 AM 10.07 50.126 0.501 7.48 4.61 9.2
4/21/2022 4:15:00 AM 9.97 49.946 0.501 7.47 6 9.24
4/21/2022 4:30:00 AM 9.86 49.748 0.501 7.48 5.35 9.28
4/21/2022 4:45:00 AM 9.75 49.55 0.502 7.47 6.57 9.33
4/21/2022 5:00:00 AM 9.63 49.334 0.502 7.47 12.82 9.37
4/21/2022 5:15:00 AM 9.52 49.136 0.502 7.46 5.54 9.41
4/21/2022 5:30:00 AM 9.41 48.938 0.502 7.47 8.75 9.44
4/21/2022 5:45:00 AM 9.3 48.74 0.501 7.47 4.77 9.48
4/21/2022 6:00:00 AM 9.22 48.596 0.501 7.47 13.24 9.52
4/21/2022 6:15:00 AM 9.14 48.452 0.501 7.47 5.67 9.55
4/21/2022 6:30:00 AM 9.05 48.29 0.501 7.47 4.62 9.58
4/21/2022 6:45:00 AM 8.97 48.146 0.501 7.46 4.97 9.65
4/21/2022 7:00:00 AM 8.9 48.02 0.501 7.46 4.65 9.71
4/21/2022 7:15:00 AM 8.86 47.948 0.501 7.46 4.6 9.82
4/21/2022 7:30:00 AM 8.83 47.894 0.5 7.47 5.12 9.91
4/21/2022 7:45:00 AM 8.81 47.858 0.5 7.47 3.2 10.03
4/21/2022 8:00:00 AM 8.8 47.84 0.5 7.48 2.94 10.19
4/21/2022 8:15:00 AM 8.79 47.822 0.499 7.48 2.86 10.31
4/21/2022 8:30:00 AM 8.79 47.822 0.499 7.49 3.76 10.47
4/21/2022 8:45:00 AM 8.8 47.84 0.499 7.5 3.68 10.67
4/21/2022 9:00:00 AM 8.81 47.858 0.5 7.51 3.16 10.87
4/21/2022 9:15:00 AM 8.83 47.894 0.501 7.53 3.46 11.01
4/21/2022 9:30:00 AM 8.86 47.948 0.501 7.56 3.5 11.27
4/21/2022 9:45:00 AM 8.91 48.038 0.501 7.61 4.55 11.5
4/21/2022 10:00:00 AM 8.98 48.164 0.5 7.65 5.62 11.84
4/21/2022 10:15:00 AM 9.08 48.344 0.5 7.68 2.7 12.17
4/21/2022 10:30:00 AM 9.11 48.398 0.5 7.68 3.99 12.25
4/21/2022 10:45:00 AM 9.14 48.452 0.499 7.68 5.77 12.27
4/21/2022 11:00:00 AM 9.15 48.47 0.499 7.69 2.68 12.23
4/21/2022 11:15:00 AM 9.17 48.506 0.5 7.68 3.61 12.27
4/21/2022 11:30:00 AM 9.2 48.56 0.499 7.66 3.67 12.29
4/21/2022 11:45:00 AM 9.24 48.632 0.497 7.67 3.29 12.37
4/21/2022 12:00:00 PM 9.27 48.686 0.501 7.68 4.45 12.38
4/21/2022 12:15:00 PM 9.3 48.74 0.5 7.68 3.3 12.4
4/21/2022 12:30:00 PM 9.34 48.812 0.5 7.69 3.51 12.49
4/21/2022 12:45:00 PM 9.38 48.884 0.497 7.7 4.37 12.51
4/21/2022 1:00:00 PM 9.42 48.956 0.497 7.71 3.44 12.54
4/21/2022 1:15:00 PM 9.46 49.028 0.496 7.7 2.91 12.47
4/21/2022 1:30:00 PM 9.49 49.082 0.497 7.7 3.61 12.31
4/21/2022 1:45:00 PM 9.52 49.136 0.499 7.7 4.68 12.21
4/21/2022 2:00:00 PM 9.56 49.208 0.496 7.69 4.72 12.17
4/21/2022 2:15:00 PM 9.6 49.28 0.494 7.68 4.77 12.2
4/21/2022 2:30:00 PM 9.64 49.352 0.492 7.68 3.81 12.16
4/21/2022 2:45:00 PM 9.68 49.424 0.492 7.69 6.58 12.1
4/21/2022 3:00:00 PM 9.71 49.478 0.491 7.69 4.1 12.02
4/21/2022 3:15:00 PM 9.75 49.55 0.491 7.69 4.32 12.03
4/21/2022 3:30:00 PM 9.79 49.622 0.492 7.7 3.09 12.02
4/21/2022 3:45:00 PM 9.83 49.694 0.49 7.7 11.08 12.07
4/21/2022 4:00:00 PM 9.88 49.784 0.489 7.72 3 12.15
4/21/2022 4:15:00 PM 9.93 49.874 0.489 7.73 3.41 12.17
4/21/2022 4:30:00 PM 9.97 49.946 0.488 7.73 10.67 12.11
4/21/2022 4:45:00 PM 10 50 0.485 7.73 3.67 12.04
4/21/2022 5:00:00 PM 10.04 50.072 0.486 7.71 4.51 11.92
4/21/2022 5:15:00 PM 10.07 50.126 0.486 7.71 12.25 11.87
4/21/2022 5:30:00 PM 10.11 50.198 0.485 7.71 3.75 11.87
4/21/2022 5:45:00 PM 10.14 50.252 0.483 7.71 3.85 11.84
4/21/2022 6:00:00 PM 10.16 50.288 0.487 7.71 9.78 11.75
4/21/2022 6:15:00 PM 10.18 50.324 0.487 7.71 4.38 11.63
4/21/2022 6:30:00 PM 10.19 50.342 0.486 7.71 2.97 11.48
4/21/2022 6:45:00 PM 10.21 50.378 0.485 7.7 3.18 11.38
4/21/2022 7:00:00 PM 10.23 50.414 0.485 7.69 3.02 11.25
4/21/2022 7:15:00 PM 10.25 50.45 0.484 7.68 2.81 11.17
4/21/2022 7:30:00 PM 10.26 50.468 0.484 7.67 3.81 11.06
4/21/2022 7:45:00 PM 10.27 50.486 0.484 7.66 4.08 10.91
4/21/2022 8:00:00 PM 10.28 50.504 0.484 7.66 3.43 10.78
4/21/2022 8:15:00 PM 10.29 50.522 0.485 7.64 4.99 10.64
4/21/2022 8:30:00 PM 10.29 50.522 0.485 7.63 26.66 10.51
4/21/2022 8:45:00 PM 10.28 50.504 0.485 7.62 3.51 10.44
4/21/2022 9:00:00 PM 10.26 50.468 0.485 7.61 4.27 10.34
4/21/2022 9:15:00 PM 10.25 50.45 0.486 7.61 3.54 10.24
4/21/2022 9:30:00 PM 10.25 50.45 0.485 7.6 3.98 10.14
4/21/2022 9:45:00 PM 10.23 50.414 0.488 7.58 4.15 10.06
4/21/2022 10:00:00 PM 10.2 50.36 0.49 7.59 3.83 10
4/21/2022 10:15:00 PM 10.16 50.288 0.489 7.58 6.39 9.92
4/21/2022 10:30:00 PM 10.12 50.216 0.491 7.57 4.5 9.86
4/21/2022 10:45:00 PM 10.08 50.144 0.491 7.56 5.58 9.81
4/21/2022 11:00:00 PM 10.05 50.09 0.491 7.55 5.7 9.77
4/21/2022 11:15:00 PM 10.01 50.018 0.492 7.54 6.28 9.7
4/21/2022 11:30:00 PM 9.98 49.964 0.492 7.53 9.89 9.67
4/21/2022 11:45:00 PM 9.94 49.892 0.493 7.53 4.35 9.65
4/22/2022 12:00:00 AM 9.9 49.82 0.493 7.52 5.44 9.62
4/22/2022 12:15:00 AM 9.86 49.748 0.493 7.53 4.48 9.59
4/22/2022 12:30:00 AM 9.83 49.694 0.494 7.51 5.72 9.57
4/22/2022 12:45:00 AM 9.8 49.64 0.494 7.51 6.08 9.56
4/22/2022 1:00:00 AM 9.76 49.568 0.494 7.5 4.29 9.55
4/22/2022 1:15:00 AM 9.73 49.514 0.495 7.5 6.26 9.56
4/22/2022 1:30:00 AM 9.69 49.442 0.496 7.49 4.83 9.54
4/22/2022 1:45:00 AM 9.66 49.388 0.496 7.48 6.98 9.54
4/22/2022 2:00:00 AM 9.63 49.334 0.495 7.49 4.51 9.54
4/22/2022 2:15:00 AM 9.6 49.28 0.495 7.5 6.89 9.54
4/22/2022 2:30:00 AM 9.56 49.208 0.495 7.5 6.42 9.55
4/22/2022 2:45:00 AM 9.52 49.136 0.496 7.5 4.97 9.56
4/22/2022 3:00:00 AM 9.49 49.082 0.496 7.49 4.4 9.57
4/22/2022 3:15:00 AM 9.45 49.01 0.496 7.48 3.96 9.57
4/22/2022 3:30:00 AM 9.41 48.938 0.495 7.48 19.37 9.58
4/22/2022 3:45:00 AM 9.37 48.866 0.495 7.48 5.73 9.59
4/22/2022 4:00:00 AM 9.33 48.794 0.496 7.48 6.53 9.61
4/22/2022 4:15:00 AM 9.28 48.704 0.496 7.49 4.91 9.62
4/22/2022 4:30:00 AM 9.23 48.614 0.496 7.49 4.07 9.64
4/22/2022 4:45:00 AM 9.18 48.524 0.496 7.49 4.21 9.66
4/22/2022 5:00:00 AM 9.14 48.452 0.496 7.49 5.93 9.65
4/22/2022 5:15:00 AM 9.1 48.38 0.496 7.49 3.56 9.68
4/22/2022 5:30:00 AM 9.07 48.326 0.496 7.49 5.53 9.7
4/22/2022 5:45:00 AM 9.03 48.254 0.496 7.5 3.8 9.71
4/22/2022 6:00:00 AM 8.99 48.182 0.496 7.51 3.75 9.73
4/22/2022 6:15:00 AM 8.95 48.11 0.496 7.51 6.36 9.73
4/22/2022 6:30:00 AM 8.91 48.038 0.496 7.5 4.49 9.76
4/22/2022 6:45:00 AM 8.88 47.984 0.496 7.5 4.01 9.81
4/22/2022 7:00:00 AM 8.85 47.93 0.497 7.52 4.11 9.9
4/22/2022 7:15:00 AM 8.82 47.876 0.496 7.5 9.98 10.01
4/22/2022 7:30:00 AM 8.8 47.84 0.496 7.51 4.78 10.19
4/22/2022 7:45:00 AM 8.78 47.804 0.496 7.53 3.67 10.37
4/22/2022 8:00:00 AM 8.78 47.804 0.496 7.54 2.97 10.6
4/22/2022 8:15:00 AM 8.8 47.84 0.496 7.56 2.88 10.83
4/22/2022 8:30:00 AM 8.84 47.912 0.496 7.57 3.27 11.06
4/22/2022 8:45:00 AM 8.9 48.02 0.496 7.57 3.44 11.3
4/22/2022 9:00:00 AM 8.96 48.128 0.497 7.58 3.34 11.54
4/22/2022 9:15:00 AM 9.05 48.29 0.496 7.6 3.68 11.81
4/22/2022 9:30:00 AM 9.17 48.506 0.497 7.62 2.99 12.05
4/22/2022 9:45:00 AM 9.31 48.758 0.496 7.64 2.51 12.36
4/22/2022 10:00:00 AM 9.46 49.028 0.495 7.66 2.54 12.63
4/22/2022 10:15:00 AM 9.63 49.334 0.494 7.68 2.63 12.91
4/22/2022 10:30:00 AM 9.8 49.64 0.493 7.71 3.13 13.15
4/22/2022 10:45:00 AM 10.01 50.018 0.492 7.74 3.22 13.44
4/22/2022 11:00:00 AM 10.21 50.378 0.492 7.77 2.33 13.66
4/22/2022 11:15:00 AM 10.44 50.792 0.491 7.79 4.26 13.89
4/22/2022 11:30:00 AM 10.66 51.188 0.489 7.82 2.4 14.08
4/22/2022 11:45:00 AM 10.89 51.602 0.49 7.84 3.04 14.24
4/22/2022 12:00:00 PM 11.14 52.052 0.49 7.87 3.25 14.4
4/22/2022 12:15:00 PM 11.38 52.484 0.488 7.91 3.32 14.56
4/22/2022 12:30:00 PM 11.6 52.88 0.486 7.93 2.69 14.66
4/22/2022 12:45:00 PM 11.82 53.276 0.486 7.96 2.27 14.79
4/22/2022 1:00:00 PM 12.05 53.69 0.487 8 2.38 14.89
4/22/2022 1:15:00 PM 12.3 54.14 0.483 8.02 2.82 15
4/22/2022 1:30:00 PM 12.55 54.59 0.484 8.06 2.9 15.1
4/22/2022 1:45:00 PM 12.7 54.86 0.484 8.09 2.4 15.15
4/22/2022 2:00:00 PM 12.81 55.058 0.488 8.1 2.47 15.12
4/22/2022 2:15:00 PM 12.87 55.166 0.488 8.11 2.32 14.99
4/22/2022 2:30:00 PM 12.98 55.364 0.484 8.12 2.97 14.99
4/22/2022 2:45:00 PM 13.17 55.706 0.483 8.14 2.89 15.04
4/22/2022 3:00:00 PM 13.41 56.138 0.483 8.17 3.18 15.06
4/22/2022 3:15:00 PM 13.69 56.642 0.479 8.2 2.62 15.1
4/22/2022 3:30:00 PM 13.92 57.056 0.478 8.21 2.39 15.07
4/22/2022 3:45:00 PM 14.08 57.344 0.476 8.23 4.6 15.08
4/22/2022 4:00:00 PM 14.19 57.542 0.479 8.23 2.52 15.06
4/22/2022 4:15:00 PM 14.28 57.704 0.479 8.24 11.95 14.92
4/22/2022 4:30:00 PM 14.4 57.92 0.477 8.27 2.56 14.81
4/22/2022 4:45:00 PM 14.54 58.172 0.478 8.28 3.24 14.78
4/22/2022 5:00:00 PM 14.64 58.352 0.477 8.28 4.13 14.67
4/22/2022 5:15:00 PM 14.69 58.442 0.476 8.3 13.43 14.47
4/22/2022 5:30:00 PM 14.73 58.514 0.477 8.31 2.53 14.26
4/22/2022 5:45:00 PM 14.75 58.55 0.479 8.32 2.62 14.05
4/22/2022 6:00:00 PM 14.78 58.604 0.479 8.31 3.27 13.78
4/22/2022 6:15:00 PM 14.81 58.658 0.477 8.27 3.37 13.54
4/22/2022 6:30:00 PM 14.83 58.694 0.479 8.25 2.8 13.25
4/22/2022 6:45:00 PM 14.81 58.658 0.478 8.22 3.2 12.88
4/22/2022 7:00:00 PM 14.8 58.64 0.478 8.19 2.79 12.49
4/22/2022 7:15:00 PM 14.78 58.604 0.482 8.16 3.44 12.1
4/22/2022 7:30:00 PM 14.75 58.55 0.482 8.14 3.14 11.73
4/22/2022 7:45:00 PM 14.72 58.496 0.479 8.11 2.48 11.39
4/22/2022 8:00:00 PM 14.68 58.424 0.482 8.08 5.08 11.04
4/22/2022 8:15:00 PM 14.64 58.352 0.481 8.04 3.94 10.7
4/22/2022 8:30:00 PM 14.58 58.244 0.483 8 5.03 10.43
4/22/2022 8:45:00 PM 14.52 58.136 0.485 7.95 5.31 10.16
4/22/2022 9:00:00 PM 14.45 58.01 0.486 7.91 3.07 9.92
4/22/2022 9:15:00 PM 14.37 57.866 0.488 7.87 4.48 9.71
4/22/2022 9:30:00 PM 14.27 57.686 0.489 7.84 4.46 9.51
4/22/2022 9:45:00 PM 14.16 57.488 0.491 7.8 11.31 9.33
4/22/2022 10:00:00 PM 14.06 57.308 0.492 7.76 8.6 9.15
4/22/2022 10:15:00 PM 13.96 57.128 0.493 7.73 3.88 9.02
4/22/2022 10:30:00 PM 13.86 56.948 0.495 7.7 4.27 8.88
4/22/2022 10:45:00 PM 13.77 56.786 0.496 7.68 3.93 8.77
4/22/2022 11:00:00 PM 13.67 56.606 0.498 7.65 4.21 8.66
4/22/2022 11:15:00 PM 13.56 56.408 0.5 7.62 5.14 8.55
4/22/2022 11:30:00 PM 13.46 56.228 0.501 7.6 7.86 8.5
4/22/2022 11:45:00 PM 13.37 56.066 0.501 7.58 3.68 8.44
4/23/2022 12:00:00 AM 13.27 55.886 0.501 7.56 3.96 8.41
4/23/2022 12:15:00 AM 13.17 55.706 0.501 7.55 3.87 8.37
4/23/2022 12:30:00 AM 13.06 55.508 0.501 7.53 3.3 8.36
4/23/2022 12:45:00 AM 12.95 55.31 0.501 7.52 4.38 8.35
4/23/2022 1:00:00 AM 12.84 55.112 0.502 7.52 4.38 8.35
4/23/2022 1:15:00 AM 12.73 54.914 0.502 7.51 4.41 8.34
4/23/2022 1:30:00 AM 12.63 54.734 0.502 7.49 3.96 8.36
4/23/2022 1:45:00 AM 12.51 54.518 0.503 7.49 4.44 8.36
4/23/2022 2:00:00 AM 12.41 54.338 0.503 7.49 4.25 8.39
4/23/2022 2:15:00 AM 12.29 54.122 0.503 7.49 5.81 8.41
4/23/2022 2:30:00 AM 12.18 53.924 0.503 7.49 4.94 8.44
4/23/2022 2:45:00 AM 12.08 53.744 0.502 7.48 5.39 8.47
4/23/2022 3:00:00 AM 11.98 53.564 0.503 7.48 6.33 8.5
4/23/2022 3:15:00 AM 11.88 53.384 0.506 7.48 9.71 8.54
4/23/2022 3:30:00 AM 11.78 53.204 0.504 7.48 10.72 8.55
4/23/2022 3:45:00 AM 11.68 53.024 0.504 7.48 9.43 8.59
4/23/2022 4:00:00 AM 11.58 52.844 0.504 7.48 3.98 8.63
4/23/2022 4:15:00 AM 11.49 52.682 0.505 7.48 4.1 8.66
4/23/2022 4:30:00 AM 11.39 52.502 0.505 7.48 5.61 8.69
4/23/2022 4:45:00 AM 11.31 52.358 0.505 7.48 5.57 8.72
4/23/2022 5:00:00 AM 11.22 52.196 0.505 7.49 5.3 8.75
4/23/2022 5:15:00 AM 11.14 52.052 0.505 7.49 4.45 8.78
4/23/2022 5:30:00 AM 11.05 51.89 0.505 7.48 3.88 8.8
4/23/2022 5:45:00 AM 10.97 51.746 0.506 7.48 10.64 8.84
4/23/2022 6:00:00 AM 10.89 51.602 0.505 7.48 3.72 8.86
4/23/2022 6:15:00 AM 10.81 51.458 0.505 7.48 4.16 8.9
4/23/2022 6:30:00 AM 10.74 51.332 0.505 7.48 5.01 8.92
4/23/2022 6:45:00 AM 10.68 51.224 0.504 7.48 5.45 8.98
4/23/2022 7:00:00 AM 10.62 51.116 0.504 7.48 7.08 9.03
4/23/2022 7:15:00 AM 10.56 51.008 0.504 7.49 2.99 9.1
4/23/2022 7:30:00 AM 10.51 50.918 0.504 7.48 4.95 9.17
4/23/2022 7:45:00 AM 10.47 50.846 0.503 7.49 6.87 9.26
4/23/2022 8:00:00 AM 10.43 50.774 0.504 7.49 4.9 9.4
4/23/2022 8:15:00 AM 10.41 50.738 0.504 7.51 3.76 9.57
4/23/2022 8:30:00 AM 10.38 50.684 0.504 7.5 3.45 9.71
4/23/2022 8:45:00 AM 10.36 50.648 0.504 7.52 4.52 9.86
4/23/2022 9:00:00 AM 10.34 50.612 0.503 7.53 5.92 10.01
4/23/2022 9:15:00 AM 10.32 50.576 0.504 7.55 8.06 10.2
4/23/2022 9:30:00 AM 10.31 50.558 0.503 7.55 4.16 10.26
4/23/2022 9:45:00 AM 10.29 50.522 0.503 7.56 2.25 10.31
4/23/2022 10:00:00 AM 10.27 50.486 0.503 7.57 3.33 10.35
4/23/2022 10:15:00 AM 10.26 50.468 0.503 7.57 2.35 10.42
4/23/2022 10:30:00 AM 10.26 50.468 0.502 7.57 3.09 10.5
4/23/2022 10:45:00 AM 10.26 50.468 0.501 7.58 2.52 10.64
4/23/2022 11:00:00 AM 10.27 50.486 0.501 7.59 2.41 10.83
4/23/2022 11:15:00 AM 10.29 50.522 0.501 7.6 2.37 11.06
4/23/2022 11:30:00 AM 10.33 50.594 0.501 7.62 8.38 11.4
4/23/2022 11:45:00 AM 10.37 50.666 0.501 7.64 27.77 11.58
4/23/2022 12:00:00 PM 10.49 50.882 0.501 7.67 14.57 12.07
4/23/2022 12:15:00 PM 10.57 51.026 0.5 7.69 6.24 12.36
4/23/2022 12:30:00 PM 10.71 51.278 0.5 7.72 27.93 12.79
4/23/2022 12:45:00 PM 10.91 51.638 0.499 7.76 9.13 13.2
4/23/2022 1:00:00 PM 11.04 51.872 0.499 7.79 5.46 13.45
4/23/2022 1:15:00 PM 11.15 52.07 0.499 7.82 2.23 13.64
4/23/2022 1:30:00 PM 11.29 52.322 0.498 7.85 2.51 13.9
4/23/2022 1:45:00 PM 11.42 52.556 0.498 7.88 4.43 14.06
4/23/2022 2:00:00 PM 11.55 52.79 0.498 7.91 3.65 14.26
4/23/2022 2:15:00 PM 11.66 52.988 0.5 7.94 7.62 14.42
4/23/2022 2:30:00 PM 11.88 53.384 0.498 7.97 2.78 14.64
4/23/2022 2:45:00 PM 12.12 53.816 0.495 8 4.91 14.77
4/23/2022 3:00:00 PM 12.38 54.284 0.493 8.03 2.7 14.93
4/23/2022 3:15:00 PM 12.61 54.698 0.495 8.06 3.09 15.02
4/23/2022 3:30:00 PM 12.8 55.04 0.491 8.09 2.94 15.08
4/23/2022 3:45:00 PM 12.96 55.328 0.489 8.11 3.72 15.1
4/23/2022 4:00:00 PM 13.11 55.598 0.492 8.13 25.78 15.11
4/23/2022 4:15:00 PM 13.26 55.868 0.488 8.16 5.02 15.1
4/23/2022 4:30:00 PM 13.4 56.12 0.489 8.19 2.53 15.11
4/23/2022 4:45:00 PM 13.53 56.354 0.489 8.22 28.19 15.02
4/23/2022 5:00:00 PM 13.63 56.534 0.484 8.24 3.78 14.92
4/23/2022 5:15:00 PM 13.71 56.678 0.486 8.25 2.92 14.8
4/23/2022 5:30:00 PM 13.77 56.786 0.485 8.26 4.47 14.7
4/23/2022 5:45:00 PM 13.82 56.876 0.486 8.28 6.64 14.61
4/23/2022 6:00:00 PM 13.86 56.948 0.484 8.27 3.06 14.43
4/23/2022 6:15:00 PM 13.89 57.002 0.487 8.28 3.17 14.21
4/23/2022 6:30:00 PM 13.91 57.038 0.489 8.26 5.06 13.82
4/23/2022 6:45:00 PM 13.93 57.074 0.488 8.21 2.85 13.44
4/23/2022 7:00:00 PM 13.94 57.092 0.491 8.16 2.83 13.1
4/23/2022 7:15:00 PM 13.94 57.092 0.49 8.13 2.84 12.72
4/23/2022 7:30:00 PM 13.94 57.092 0.49 8.1 2.76 12.37
4/23/2022 7:45:00 PM 13.93 57.074 0.491 8.07 4.66 11.99
4/23/2022 8:00:00 PM 13.92 57.056 0.493 8.04 4.76 11.59
4/23/2022 8:15:00 PM 13.9 57.02 0.493 8 3.95 11.22
4/23/2022 8:30:00 PM 13.87 56.966 0.495 7.99 4.82 10.91
4/23/2022 8:45:00 PM 13.84 56.912 0.496 7.94 4.39 10.63
4/23/2022 9:00:00 PM 13.8 56.84 0.497 7.9 4.55 10.37
4/23/2022 9:15:00 PM 13.76 56.768 0.498 7.87 3.18 10.1
4/23/2022 9:30:00 PM 13.7 56.66 0.498 7.83 5.27 9.88
4/23/2022 9:45:00 PM 13.64 56.552 0.499 7.82 10.95 9.68
4/23/2022 10:00:00 PM 13.58 56.444 0.5 7.79 4.41 9.47
4/23/2022 10:15:00 PM 13.51 56.318 0.5 7.76 3.34 9.31
4/23/2022 10:30:00 PM 13.45 56.21 0.501 7.73 3.62 9.16
4/23/2022 10:45:00 PM 13.39 56.102 0.503 7.7 4.81 9.01
4/23/2022 11:00:00 PM 13.33 55.994 0.503 7.68 4.25 8.87
4/23/2022 11:15:00 PM 13.26 55.868 0.504 7.65 4.85 8.74
4/23/2022 11:30:00 PM 13.19 55.742 0.503 7.63 3.52 8.65
4/23/2022 11:45:00 PM 13.11 55.598 0.504 7.63 3.48 8.57
4/24/2022 12:00:00 AM 13.04 55.472 0.504 7.61 4.19 8.49
4/24/2022 12:15:00 AM 12.95 55.31 0.505 7.59 7.03 8.43
4/24/2022 12:30:00 AM 12.87 55.166 0.505 7.6 3.32 8.4
4/24/2022 12:45:00 AM 12.78 55.004 0.506 7.56 4.7 8.36
4/24/2022 1:00:00 AM 12.68 54.824 0.506 7.56 4.67 8.32
4/24/2022 1:15:00 AM 12.58 54.644 0.508 7.55 3.98 8.32
4/24/2022 1:30:00 AM 12.49 54.482 0.508 7.54 4.18 8.33
4/24/2022 1:45:00 AM 12.39 54.302 0.508 7.54 4.72 8.32
4/24/2022 2:00:00 AM 12.29 54.122 0.509 7.52 10.59 8.33
4/24/2022 2:15:00 AM 12.19 53.942 0.51 7.51 9.71 8.34
4/24/2022 2:30:00 AM 12.08 53.744 0.51 7.51 6.7 8.35
4/24/2022 2:45:00 AM 11.98 53.564 0.511 7.51 19.81 8.36
4/24/2022 3:00:00 AM 11.88 53.384 0.511 7.51 4.79 8.4
4/24/2022 3:15:00 AM 11.78 53.204 0.511 7.53 3.97 8.42
4/24/2022 3:30:00 AM 11.68 53.024 0.511 7.52 4.18 8.46
4/24/2022 3:45:00 AM 11.57 52.826 0.511 7.5 3.91 8.48
4/24/2022 4:00:00 AM 11.47 52.646 0.512 7.51 3.78 8.51
4/24/2022 4:15:00 AM 11.36 52.448 0.511 7.51 3.64 8.54
4/24/2022 4:30:00 AM 11.26 52.268 0.513 7.51 4.11 8.57
4/24/2022 4:45:00 AM 11.15 52.07 0.513 7.51 4.51 8.62
4/24/2022 5:00:00 AM 11.04 51.872 0.513 7.52 22.77 8.66
4/24/2022 5:15:00 AM 10.93 51.674 0.512 7.53 4.88 8.69
4/24/2022 5:30:00 AM 10.83 51.494 0.512 7.52 7.13 8.74
4/24/2022 5:45:00 AM 10.73 51.314 0.512 7.52 4.4 8.76
4/24/2022 6:00:00 AM 10.63 51.134 0.513 7.52 4.71 8.8
4/24/2022 6:15:00 AM 10.52 50.936 0.512 7.54 7.33 8.83
4/24/2022 6:30:00 AM 10.43 50.774 0.512 7.53 4.06 8.89
4/24/2022 6:45:00 AM 10.34 50.612 0.512 7.55 4.42 8.96
4/24/2022 7:00:00 AM 10.26 50.468 0.512 7.57 3.66 9.05
4/24/2022 7:15:00 AM 10.18 50.324 0.512 7.58 3.01 9.14
4/24/2022 7:30:00 AM 10.13 50.234 0.508 7.61 3.35 9.31
4/24/2022 7:45:00 AM 10.08 50.144 0.512 7.67 3.61 9.48
4/24/2022 8:00:00 AM 10.06 50.108 0.511 7.68 2.65 9.72
4/24/2022 8:15:00 AM 10.05 50.09 0.511 7.69 3.08 10.03
4/24/2022 8:30:00 AM 10.07 50.126 0.51 7.69 3.84 10.33
4/24/2022 8:45:00 AM 10.1 50.18 0.51 7.75 2.36 10.64
4/24/2022 9:00:00 AM 10.16 50.288 0.51 7.76 6.39 10.95
4/24/2022 9:15:00 AM 10.24 50.432 0.509 7.77 2.96 11.27
4/24/2022 9:30:00 AM 10.33 50.594 0.508 7.79 2.11 11.59
4/24/2022 9:45:00 AM 10.44 50.792 0.508 7.84 2.43 11.92
4/24/2022 10:00:00 AM 10.57 51.026 0.508 7.83 2.26 12.23
4/24/2022 10:15:00 AM 10.71 51.278 0.507 7.82 2.09 12.55
4/24/2022 10:30:00 AM 10.88 51.584 0.507 7.86 2.26 12.83
4/24/2022 10:45:00 AM 11.05 51.89 0.506 7.92 1.98 13.09
4/24/2022 11:00:00 AM 11.24 52.232 0.505 7.97 1.97 13.34
4/24/2022 11:15:00 AM 11.45 52.61 0.504 7.95 2.3 13.59
4/24/2022 11:30:00 AM 11.68 53.024 0.501 8 2.23 13.83
4/24/2022 11:45:00 AM 11.92 53.456 0.5 8.05 2.01 14.04
4/24/2022 12:00:00 PM 12.17 53.906 0.498 8.09 4.81 14.26
4/24/2022 12:15:00 PM 12.43 54.374 0.501 8.15 2.74 14.41
4/24/2022 12:30:00 PM 12.7 54.86 0.501 8.24 34.09 14.59
4/24/2022 12:45:00 PM 12.97 55.346 0.495 8.31 9.93 14.68
4/24/2022 1:00:00 PM 13.25 55.85 0.496 8.31 6.54 14.8
4/24/2022 1:15:00 PM 13.55 56.39 0.499 8.33 70.77 14.93
4/24/2022 1:30:00 PM 13.83 56.894 0.492 8.37 2.79 14.98
4/24/2022 1:45:00 PM 14.12 57.416 0.494 8.38 2.76 15.07
4/24/2022 2:00:00 PM 14.41 57.938 0.491 8.37 2.62 15.13
4/24/2022 2:15:00 PM 14.69 58.442 0.49 8.35 24.65 15.13
4/24/2022 2:30:00 PM 14.97 58.946 0.49 8.41 2.74 15.15
4/24/2022 2:45:00 PM 15.24 59.432 0.491 8.37 1.92 15.17
4/24/2022 3:00:00 PM 15.5 59.9 0.488 8.4 2.9 15.18
4/24/2022 3:15:00 PM 15.75 60.35 0.488 8.38 5.09 15.1
4/24/2022 3:30:00 PM 15.99 60.782 0.485 8.38 5.21 15.03
4/24/2022 3:45:00 PM 16.21 61.178 0.485 8.41 4.65 15.03
4/24/2022 4:00:00 PM 16.43 61.574 0.485 8.4 2.35 14.96
4/24/2022 4:15:00 PM 16.62 61.916 0.484 8.42 3.97 14.8
4/24/2022 4:30:00 PM 16.81 62.258 0.484 8.42 2.44 14.7
4/24/2022 4:45:00 PM 16.97 62.546 0.481 8.43 2.65 14.58
4/24/2022 5:00:00 PM 17.11 62.798 0.483 8.44 10.43 14.4
4/24/2022 5:15:00 PM 17.24 63.032 0.479 8.43 3.77 14.21
4/24/2022 5:30:00 PM 17.31 63.158 0.482 8.41 6.51 13.88
4/24/2022 5:45:00 PM 17.42 63.356 0.483 8.43 7.45 13.8
4/24/2022 6:00:00 PM 17.48 63.464 0.48 8.43 3.65 13.74
4/24/2022 6:15:00 PM 17.53 63.554 0.482 8.42 4.62 13.45
4/24/2022 6:30:00 PM 17.56 63.608 0.483 8.39 5.35 13.03
4/24/2022 6:45:00 PM 17.59 63.662 0.485 8.35 7.2 12.54
4/24/2022 7:00:00 PM 17.6 63.68 0.483 8.29 5.77 12.03
4/24/2022 7:15:00 PM 17.59 63.662 0.486 8.25 9.39 11.55
4/24/2022 7:30:00 PM 17.57 63.626 0.486 8.22 2.88 11.08
4/24/2022 7:45:00 PM 17.54 63.572 0.486 8.19 2.55 10.63
4/24/2022 8:00:00 PM 17.51 63.518 0.488 8.2 3.81 10.2
4/24/2022 8:15:00 PM 17.48 63.464 0.489 8.11 5.66 9.81
4/24/2022 8:30:00 PM 17.43 63.374 0.491 8.07 94.6 9.46
4/24/2022 8:45:00 PM 17.39 63.302 0.492 8 4.53 9.13
4/24/2022 9:00:00 PM 17.33 63.194 0.494 7.96 3.55 8.89
4/24/2022 9:15:00 PM 17.27 63.086 0.495 7.91 3.07 8.64
4/24/2022 9:30:00 PM 17.21 62.978 0.496 7.86 4.43 8.41
4/24/2022 9:45:00 PM 17.14 62.852 0.497 7.82 3.74 8.2
4/24/2022 10:00:00 PM 17.07 62.726 0.497 7.79 183.3 8.04
4/24/2022 10:15:00 PM 17 62.6 0.498 7.75 5.48 7.86
4/24/2022 10:30:00 PM 16.92 62.456 0.499 7.73 3.98 7.73
4/24/2022 10:45:00 PM 16.83 62.294 0.5 7.7 25.19 7.62
4/24/2022 11:00:00 PM 16.75 62.15 0.501 7.69 4.31 7.5
4/24/2022 11:15:00 PM 16.66 61.988 0.502 7.69 75.43 7.4
4/24/2022 11:30:00 PM 16.56 61.808 0.503 7.65 6.74 7.34
4/24/2022 11:45:00 PM 16.45 61.61 0.507 7.63 7.07 7.25
4/25/2022 12:00:00 AM 16.34 61.412 0.508 7.61 5.95 7.19
4/25/2022 12:15:00 AM 16.23 61.214 0.508 7.63 3.86 7.16
4/25/2022 12:30:00 AM 16.1 60.98 0.508 7.61 5.45 7.15
4/25/2022 12:45:00 AM 15.97 60.746 0.506 7.59 4 7.13
4/25/2022 1:00:00 AM 15.84 60.512 0.507 7.57 5.83 7.14
4/25/2022 1:15:00 AM 15.71 60.278 0.509 7.56 4.91 7.14
4/25/2022 1:30:00 AM 15.57 60.026 0.51 7.56 23.06 7.15
4/25/2022 1:45:00 AM 15.44 59.792 0.511 7.57 5.2 7.16
4/25/2022 2:00:00 AM 15.31 59.558 0.511 7.56 7.32 7.18
4/25/2022 2:15:00 AM 15.18 59.324 0.511 7.61 6 7.21
4/25/2022 2:30:00 AM 15.04 59.072 0.512 7.64 5.33 7.24
4/25/2022 2:45:00 AM 14.9 58.82 0.511 7.63 5.88 7.29
4/25/2022 3:00:00 AM 14.75 58.55 0.511 7.63 6.81 7.33
4/25/2022 3:15:00 AM 14.61 58.298 0.511 7.63 4.69 7.38
4/25/2022 3:30:00 AM 14.48 58.064 0.511 7.61 5.02 7.41
4/25/2022 3:45:00 AM 14.34 57.812 0.511 7.62 5.75 7.44
4/25/2022 4:00:00 AM 14.21 57.578 0.512 7.64 4.08 7.48
4/25/2022 4:15:00 AM 14.07 57.326 0.512 7.64 4.91 7.55
4/25/2022 4:30:00 AM 13.94 57.092 0.513 7.62 9.87 7.58
4/25/2022 4:45:00 AM 13.8 56.84 0.511 7.63 4.88 7.64
4/25/2022 5:00:00 AM 13.66 56.588 0.512 7.63 3.59 7.68
4/25/2022 5:15:00 AM 13.52 56.336 0.515 7.64 4.81 7.74
4/25/2022 5:30:00 AM 13.37 56.066 0.511 7.65 7.1 7.79
4/25/2022 5:45:00 AM 13.24 55.832 0.511 7.63 10.19 7.84
4/25/2022 6:00:00 AM 13.1 55.58 0.511 7.65 3.96 7.89
4/25/2022 6:15:00 AM 12.97 55.346 0.511 7.66 7.38 7.93
4/25/2022 6:30:00 AM 12.84 55.112 0.511 7.67 4.59 7.98
4/25/2022 6:45:00 AM 12.72 54.896 0.511 7.67 4.56 8.06
4/25/2022 7:00:00 AM 12.61 54.698 0.511 7.66 10.89 8.1
4/25/2022 7:15:00 AM 12.51 54.518 0.51 7.67 3.52 8.23
4/25/2022 7:30:00 AM 12.42 54.356 0.51 7.66 8.02 8.47
4/25/2022 7:45:00 AM 12.34 54.212 0.51 7.68 3.08 8.72
4/25/2022 8:00:00 AM 12.28 54.104 0.509 7.7 3.76 9
4/25/2022 8:15:00 AM 12.23 54.014 0.508 7.75 2.5 9.28
4/25/2022 8:30:00 AM 12.2 53.96 0.508 7.75 3.52 9.61
4/25/2022 8:45:00 AM 12.19 53.942 0.508 7.78 3.17 9.93
4/25/2022 9:00:00 AM 12.19 53.942 0.507 7.78 2.71 10.26
4/25/2022 9:15:00 AM 12.22 53.996 0.508 7.8 2.65 10.61
4/25/2022 9:30:00 AM 12.26 54.068 0.507 7.79 2.92 10.96
4/25/2022 9:45:00 AM 12.32 54.176 0.507 7.79 2.74 11.3
4/25/2022 10:00:00 AM 12.42 54.356 0.506 7.81 3.43 11.64
4/25/2022 10:15:00 AM 12.52 54.536 0.507 7.83 3.2 12
4/25/2022 10:30:00 AM 12.64 54.752 0.505 7.85 2.84 12.29
4/25/2022 10:45:00 AM 12.78 55.004 0.505 7.94 3.5 12.59
4/25/2022 11:00:00 AM 12.93 55.274 0.502 7.97 5.58 12.91
4/25/2022 11:15:00 AM 13.1 55.58 0.502 7.99 3.72 13.18
4/25/2022 11:30:00 AM 13.28 55.904 0.501 8.04 20.81 13.48
4/25/2022 11:45:00 AM 13.48 56.264 0.5 8.06 2.62 13.71
4/25/2022 12:00:00 PM 13.68 56.624 0.5 8.11 2.99 13.95
4/25/2022 12:15:00 PM 13.9 57.02 0.499 8.14 2.4 14.15
4/25/2022 12:30:00 PM 14.11 57.398 0.495 8.18 2.59 14.32
4/25/2022 12:45:00 PM 14.34 57.812 0.495 8.24 2.4 14.5
4/25/2022 1:00:00 PM 14.57 58.226 0.492 8.4 2.68 14.63
4/25/2022 1:15:00 PM 14.8 58.64 0.491 8.44 3.05 14.78
4/25/2022 1:30:00 PM 15.04 59.072 0.491 8.46 7.07 14.86
4/25/2022 1:45:00 PM 15.28 59.504 0.49 8.47 3.58 14.96
4/25/2022 2:00:00 PM 15.52 59.936 0.489 8.45 3.76 15
4/25/2022 2:15:00 PM 15.75 60.35 0.488 8.46 2.89 15.08
4/25/2022 2:30:00 PM 15.97 60.746 0.487 8.48 2.87 15.12
4/25/2022 2:45:00 PM 16.19 61.142 0.479 8.49 2.92 15.26
4/25/2022 3:00:00 PM 16.4 61.52 0.486 8.51 5.57 15.44
4/25/2022 3:15:00 PM 16.59 61.862 0.482 8.53 2.44 15.45
4/25/2022 3:30:00 PM 16.78 62.204 0.484 8.56 3.22 15.28
4/25/2022 3:45:00 PM 16.95 62.51 0.483 8.59 5.11 15.12
4/25/2022 4:00:00 PM 17.1 62.78 0.482 8.54 49.86 15
4/25/2022 4:15:00 PM 17.23 63.014 0.481 8.55 2.98 14.86
4/25/2022 4:30:00 PM 17.32 63.176 0.479 8.56 3.42 14.66
4/25/2022 4:45:00 PM 17.37 63.266 0.482 8.56 2.4 14.41
4/25/2022 5:00:00 PM 17.41 63.338 0.481 8.53 3.68 14.16
4/25/2022 5:15:00 PM 17.52 63.536 0.478 8.54 3.98 14.08
4/25/2022 5:30:00 PM 17.57 63.626 0.481 8.54 79.64 13.93
4/25/2022 5:45:00 PM 17.57 63.626 0.479 8.52 13.38 13.64
4/25/2022 6:00:00 PM 17.55 63.59 0.48 8.52 3.89 13.29
4/25/2022 6:15:00 PM 17.57 63.626 0.481 8.55 4.96 13.1
4/25/2022 6:30:00 PM 17.58 63.644 0.481 8.55 7.1 12.82
4/25/2022 6:45:00 PM 17.56 63.608 0.481 8.48 3.6 12.49
4/25/2022 7:00:00 PM 17.55 63.59 0.483 8.44 15.37 12.08
4/25/2022 7:15:00 PM 17.51 63.518 0.483 8.43 9.28 11.54
4/25/2022 7:30:00 PM 17.45 63.41 0.486 8.36 2.92 11.03
4/25/2022 7:45:00 PM 17.41 63.338 0.488 8.32 46.07 10.56
4/25/2022 8:00:00 PM 17.35 63.23 0.488 8.27 5.99 10.18
4/25/2022 8:15:00 PM 17.31 63.158 0.489 8.23 5.49 9.88
4/25/2022 8:30:00 PM 17.27 63.086 0.488 8.2 3.23 9.55
4/25/2022 8:45:00 PM 17.21 62.978 0.489 8.15 3.16 9.25
4/25/2022 9:00:00 PM 17.14 62.852 0.49 8.11 4.28 8.97
4/25/2022 9:15:00 PM 17.05 62.69 0.492 8.07 3.7 8.69
4/25/2022 9:30:00 PM 16.97 62.546 0.493 8.03 5.18 8.47
4/25/2022 9:45:00 PM 16.88 62.384 0.494 7.98 3.7 8.25
4/25/2022 10:00:00 PM 16.8 62.24 0.494 7.93 15.4 8.07
4/25/2022 10:15:00 PM 16.72 62.096 0.495 7.89 5.35 7.95
4/25/2022 10:30:00 PM 16.63 61.934 0.496 7.85 5.38 7.81
4/25/2022 10:45:00 PM 16.55 61.79 0.498 7.82 4.37 7.69
4/25/2022 11:00:00 PM 16.46 61.628 0.499 7.81 8.49 7.57
4/25/2022 11:15:00 PM 16.36 61.448 0.501 7.79 7.5 7.48
4/25/2022 11:30:00 PM 16.27 61.286 0.502 7.77 3.45 7.39
4/25/2022 11:45:00 PM 16.16 61.088 0.503 7.74 4.29 7.33
4/26/2022 12:00:00 AM 16.05 60.89 0.504 7.72 3.89 7.27
4/26/2022 12:15:00 AM 15.94 60.692 0.505 7.7 4.01 7.24
4/26/2022 12:30:00 AM 15.84 60.512 0.506 7.69 4.9 7.21
4/26/2022 12:45:00 AM 15.73 60.314 0.507 7.68 4.48 7.2
4/26/2022 1:00:00 AM 15.63 60.134 0.508 7.67 7.05 7.18
4/26/2022 1:15:00 AM 15.52 59.936 0.508 7.67 12.86 7.17
4/26/2022 1:30:00 AM 15.42 59.756 0.509 7.66 4.05 7.18
4/26/2022 1:45:00 AM 15.32 59.576 0.507 7.66 13.24 7.19
4/26/2022 2:00:00 AM 15.21 59.378 0.507 7.66 5.93 7.2
4/26/2022 2:15:00 AM 15.11 59.198 0.507 7.66 4.06 7.22
4/26/2022 2:30:00 AM 15 59 0.507 7.69 4.42 7.25
4/26/2022 2:45:00 AM 14.9 58.82 0.507 7.67 91.09 7.27
4/26/2022 3:00:00 AM 14.79 58.622 0.506 7.66 6.04 7.3
4/26/2022 3:15:00 AM 14.69 58.442 0.506 7.65 15.38 7.34
4/26/2022 3:30:00 AM 14.58 58.244 0.506 7.64 9.51 7.37
4/26/2022 3:45:00 AM 14.47 58.046 0.506 7.66 3.7 7.39
4/26/2022 4:00:00 AM 14.37 57.866 0.505 7.64 5.79 7.43
4/26/2022 4:15:00 AM 14.27 57.686 0.506 7.64 8.34 7.47
4/26/2022 4:30:00 AM 14.16 57.488 0.505 7.71 4.01 7.5
4/26/2022 4:45:00 AM 14.06 57.308 0.505 7.65 3.98 7.54
4/26/2022 5:00:00 AM 13.96 57.128 0.505 7.64 3.71 7.58
4/26/2022 5:15:00 AM 13.86 56.948 0.505 7.66 3.71 7.61
4/26/2022 5:30:00 AM 13.76 56.768 0.504 7.64 3.69 7.66
4/26/2022 5:45:00 AM 13.66 56.588 0.504 7.64 3.6 7.69
4/26/2022 6:00:00 AM 13.56 56.408 0.505 7.64 7.34 7.72
4/26/2022 6:15:00 AM 13.47 56.246 0.504 7.64 4.43 7.76
4/26/2022 6:30:00 AM 13.38 56.084 0.504 7.62 11.6 7.8
4/26/2022 6:45:00 AM 13.29 55.922 0.504 7.64 12.43 7.83
4/26/2022 7:00:00 AM 13.21 55.778 0.504 7.66 3.69 7.85
4/26/2022 7:15:00 AM 13.14 55.652 0.504 7.66 3.29 7.94
4/26/2022 7:30:00 AM 13.07 55.526 0.504 7.65 4.18 8.02
4/26/2022 7:45:00 AM 13 55.4 0.505 7.65 6.12 8.14
4/26/2022 8:00:00 AM 12.94 55.292 0.504 7.64 4.73 8.29
4/26/2022 8:15:00 AM 12.88 55.184 0.505 7.64 6.56 8.38
4/26/2022 8:30:00 AM 12.82 55.076 0.505 7.65 6.75 8.43
4/26/2022 8:45:00 AM 12.76 54.968 0.504 7.65 8.14 8.52
4/26/2022 9:00:00 AM 12.72 54.896 0.505 7.69 2.95 8.7
4/26/2022 9:15:00 AM 12.68 54.824 0.504 7.71 3.73 8.9
4/26/2022 9:30:00 AM 12.65 54.77 0.504 7.72 5.65 9.12
4/26/2022 9:45:00 AM 12.63 54.734 0.506 7.73 4.2 9.32
4/26/2022 10:00:00 AM 12.61 54.698 0.507 7.72 5.2 9.46
4/26/2022 10:15:00 AM 12.61 54.698 0.511 7.71 16.51 9.62
4/26/2022 10:30:00 AM 12.6 54.68 0.507 7.73 3.48 9.88
4/26/2022 10:45:00 AM 12.6 54.68 0.506 7.74 6.79 10.08
4/26/2022 11:00:00 AM 12.6 54.68 0.504 7.74 21.29 10.33
4/26/2022 11:15:00 AM 12.62 54.716 0.503 7.74 13.32 10.61
4/26/2022 11:30:00 AM 12.64 54.752 0.503 7.77 17.3 10.85
4/26/2022 11:45:00 AM 12.65 54.77 0.501 7.79 37.53 11.07
4/26/2022 12:00:00 PM 12.64 54.752 0.501 7.81 6.55 11.09
4/26/2022 12:15:00 PM 12.66 54.788 0.5 7.84 7.21 11.29
4/26/2022 12:30:00 PM 12.67 54.806 0.5 7.84 29.23 11.42
4/26/2022 12:45:00 PM 12.71 54.878 0.498 7.86 19.94 11.7
4/26/2022 1:00:00 PM 12.72 54.896 0.498 7.87 27.84 11.77
4/26/2022 1:15:00 PM 12.73 54.914 0.496 7.89 10.85 11.83
4/26/2022 1:30:00 PM 12.75 54.95 0.496 7.89 24.73 11.94
4/26/2022 1:45:00 PM 12.75 54.95 0.495 7.91 31.67 11.83
4/26/2022 2:00:00 PM 12.75 54.95 0.495 7.91 7.42 11.82
4/26/2022 2:15:00 PM 12.75 54.95 0.495 7.92 25.61 11.82
4/26/2022 2:30:00 PM 12.76 54.968 0.494 7.92 5.05 11.85
4/26/2022 2:45:00 PM 12.77 54.986 0.495 7.94 26.78 11.89
4/26/2022 3:00:00 PM 12.78 55.004 0.494 7.94 6.29 11.88
4/26/2022 3:15:00 PM 12.79 55.022 0.495 7.94 15.64 11.9
4/26/2022 3:30:00 PM 12.8 55.04 0.495 7.94 5.14 11.88
4/26/2022 3:45:00 PM 12.81 55.058 0.497 7.92 6.04 11.8
4/26/2022 4:00:00 PM 12.81 55.058 0.498 7.9 5.73 11.67
4/26/2022 4:15:00 PM 12.8 55.04 0.495 7.92 10.18 11.58
4/26/2022 4:30:00 PM 12.8 55.04 0.495 7.9 25.48 11.58
4/26/2022 4:45:00 PM 12.8 55.04 0.494 7.9 2.93 11.49
4/26/2022 5:00:00 PM 12.81 55.058 0.494 7.92 4.11 11.49
4/26/2022 5:15:00 PM 12.8 55.04 0.493 7.95 5.78 11.43
4/26/2022 5:30:00 PM 12.79 55.022 0.492 7.94 4.57 11.34
4/26/2022 5:45:00 PM 12.78 55.004 0.491 7.93 4.22 11.24
4/26/2022 6:00:00 PM 12.79 55.022 0.491 7.92 27.32 11.32
4/26/2022 6:15:00 PM 12.77 54.986 0.491 7.92 13.54 11.23
4/26/2022 6:30:00 PM 12.74 54.932 0.491 7.9 5.36 11.07
4/26/2022 6:45:00 PM 12.72 54.896 0.489 7.89 11.63 10.94
4/26/2022 7:00:00 PM 12.68 54.824 0.49 7.88 48.12 10.72
4/26/2022 7:15:00 PM 12.65 54.77 0.49 7.87 7.25 10.55
4/26/2022 7:30:00 PM 12.61 54.698 0.491 7.86 18.34 10.36
4/26/2022 7:45:00 PM 12.57 54.626 0.491 7.85 10.3 10.22
4/26/2022 8:00:00 PM 12.53 54.554 0.492 7.81 25.21 10.05
4/26/2022 8:15:00 PM 12.48 54.464 0.492 7.81 8.99 9.88
4/26/2022 8:30:00 PM 12.43 54.374 0.492 7.8 3.99 9.73
4/26/2022 8:45:00 PM 12.37 54.266 0.492 7.77 6.57 9.59
4/26/2022 9:00:00 PM 12.31 54.158 0.492 7.75 13 9.47
4/26/2022 9:15:00 PM 12.27 54.086 0.492 7.73 4.6 9.36
4/26/2022 9:30:00 PM 12.22 53.996 0.492 7.74 7.69 9.29
4/26/2022 9:45:00 PM 12.17 53.906 0.492 7.72 12.04 9.2
4/26/2022 10:00:00 PM 12.11 53.798 0.492 7.72 11.85 9.13
4/26/2022 10:15:00 PM 12.05 53.69 0.492 7.71 9.77 9.05
4/26/2022 10:30:00 PM 11.98 53.564 0.492 7.71 14.02 9.01
4/26/2022 10:45:00 PM 11.92 53.456 0.492 7.7 6.72 8.96
4/26/2022 11:00:00 PM 11.87 53.366 0.492 7.71 5.75 8.9
4/26/2022 11:15:00 PM 11.81 53.258 0.492 7.69 9.44 8.88
4/26/2022 11:30:00 PM 11.74 53.132 0.492 7.68 6.45 8.83
4/26/2022 11:45:00 PM 11.68 53.024 0.493 7.68 4.75 8.81
4/27/2022 12:00:00 AM 11.6 52.88 0.493 7.66 40.97 8.79
4/27/2022 12:15:00 AM 11.53 52.754 0.493 7.66 11.83 8.77
4/27/2022 12:30:00 AM 11.46 52.628 0.493 7.66 8.29 8.76
4/27/2022 12:45:00 AM 11.39 52.502 0.494 7.66 9.18 8.76
4/27/2022 1:00:00 AM 11.31 52.358 0.494 7.66 27.88 8.77
4/27/2022 1:15:00 AM 11.22 52.196 0.495 7.65 9.41 8.77
4/27/2022 1:30:00 AM 11.15 52.07 0.495 7.67 5.66 8.78
4/27/2022 1:45:00 AM 11.07 51.926 0.495 7.67 6.45 8.79
4/27/2022 2:00:00 AM 11 51.8 0.495 7.65 9.48 8.79
4/27/2022 2:15:00 AM 10.93 51.674 0.496 7.64 9.36 8.82
4/27/2022 2:30:00 AM 10.86 51.548 0.496 7.64 9.1 8.83
4/27/2022 2:45:00 AM 10.79 51.422 0.496 7.63 21.82 8.84
4/27/2022 3:00:00 AM 10.71 51.278 0.496 7.62 7.69 8.86
4/27/2022 3:15:00 AM 10.62 51.116 0.496 7.61 11.98 8.88
4/27/2022 3:30:00 AM 10.53 50.954 0.496 7.62 10.04 8.89
4/27/2022 3:45:00 AM 10.44 50.792 0.497 7.62 12.02 8.93
4/27/2022 4:00:00 AM 10.33 50.594 0.497 7.64 15.41 8.95
4/27/2022 4:15:00 AM 10.24 50.432 0.497 7.65 15.78 8.98
4/27/2022 4:30:00 AM 10.15 50.27 0.497 7.64 6.72 9.01
4/27/2022 4:45:00 AM 10.06 50.108 0.498 7.63 8.84 9.03
4/27/2022 5:00:00 AM 9.97 49.946 0.497 7.62 7.94 9.08
4/27/2022 5:15:00 AM 9.86 49.748 0.498 7.63 9.63 9.11
4/27/2022 5:30:00 AM 9.76 49.568 0.499 7.63 5.55 9.14
4/27/2022 5:45:00 AM 9.65 49.37 0.499 7.62 23.64 9.17
4/27/2022 6:00:00 AM 9.55 49.19 0.499 7.63 6.04 9.2
4/27/2022 6:15:00 AM 9.46 49.028 0.5 7.66 7.04 9.24
4/27/2022 6:30:00 AM 9.39 48.902 0.5 7.66 3.55 9.28
4/27/2022 6:45:00 AM 9.33 48.794 0.5 7.65 17.64 9.35
4/27/2022 7:00:00 AM 9.25 48.65 0.5 7.68 5.06 9.45
4/27/2022 7:15:00 AM 9.18 48.524 0.5 7.69 5.54 9.53
4/27/2022 7:30:00 AM 9.08 48.344 0.502 7.67 6.99 9.65
4/27/2022 7:45:00 AM 8.98 48.164 0.501 7.68 8.96 9.8
4/27/2022 8:00:00 AM 8.88 47.984 0.501 7.69 5.17 9.97
4/27/2022 8:15:00 AM 8.82 47.876 0.501 7.7 8.77 10.16
4/27/2022 8:30:00 AM 8.76 47.768 0.501 7.71 6.64 10.36
4/27/2022 8:45:00 AM 8.71 47.678 0.502 7.71 2.89 10.53
4/27/2022 9:00:00 AM 8.67 47.606 0.501 7.72 6.59 10.74
4/27/2022 9:15:00 AM 8.63 47.534 0.501 7.74 38.6 10.96
4/27/2022 9:30:00 AM 8.62 47.516 0.501 7.77 7.02 11.21
4/27/2022 9:45:00 AM 8.63 47.534 0.501 7.78 3.54 11.44
4/27/2022 10:00:00 AM 8.63 47.534 0.5 7.8 7.4 11.64
4/27/2022 10:15:00 AM 8.63 47.534 0.5 7.82 30.03 11.77
4/27/2022 10:30:00 AM 8.62 47.516 0.5 7.88 7.97 11.95
4/27/2022 10:45:00 AM 8.64 47.552 0.5 7.9 3.5 12.2
4/27/2022 11:00:00 AM 8.64 47.552 0.5 7.92 2.99 12.39
4/27/2022 11:15:00 AM 8.66 47.588 0.499 7.96 4.86 12.68
4/27/2022 11:30:00 AM 8.68 47.624 0.498 7.99 4.9 12.88
4/27/2022 11:45:00 AM 8.71 47.678 0.498 8.03 11.01 13.05
4/27/2022 12:00:00 PM 8.73 47.714 0.498 8.04 5.78 13.16
4/27/2022 12:15:00 PM 8.8 47.84 0.497 8.06 9.76 13.34
4/27/2022 12:30:00 PM 8.88 47.984 0.496 8.06 4.85 13.58
4/27/2022 12:45:00 PM 8.94 48.092 0.495 8.1 4.96 13.74
4/27/2022 1:00:00 PM 9.01 48.218 0.495 8.13 3.23 13.89
4/27/2022 1:15:00 PM 9.05 48.29 0.495 8.15 16.17 13.97
4/27/2022 1:30:00 PM 9.15 48.47 0.495 8.15 15.8 14.13
4/27/2022 1:45:00 PM 9.23 48.614 0.495 8.15 21.82 14.23
4/27/2022 2:00:00 PM 9.31 48.758 0.495 8.17 3.51 14.36
4/27/2022 2:15:00 PM 9.37 48.866 0.494 8.16 15.9 14.4
4/27/2022 2:30:00 PM 9.43 48.974 0.493 8.18 5.37 14.42
4/27/2022 2:45:00 PM 9.58 49.244 0.491 8.18 9.41 14.59
4/27/2022 3:00:00 PM 9.73 49.514 0.491 8.2 15.8 14.68
4/27/2022 3:15:00 PM 9.83 49.694 0.491 8.22 3.09 14.59
4/27/2022 3:30:00 PM 9.9 49.82 0.489 8.23 13.73 14.56
4/27/2022 3:45:00 PM 9.89 49.802 0.49 8.23 5.14 14.41
4/27/2022 4:00:00 PM 9.93 49.874 0.488 8.23 3.36 14.38
4/27/2022 4:15:00 PM 10.01 50.018 0.49 8.24 7.92 14.39
4/27/2022 4:30:00 PM 10.08 50.144 0.494 8.23 8.58 14.45
4/27/2022 4:45:00 PM 10.14 50.252 0.49 8.25 6.24 14.32
4/27/2022 5:00:00 PM 10.14 50.252 0.49 8.26 3.35 14.06
4/27/2022 5:15:00 PM 10.14 50.252 0.488 8.25 5.53 13.78
4/27/2022 5:30:00 PM 10.12 50.216 0.487 8.23 26.78 13.52
4/27/2022 5:45:00 PM 10.08 50.144 0.489 8.21 2.13 13.24
4/27/2022 6:00:00 PM 10.05 50.09 0.49 8.2 4.29 13.03
4/27/2022 6:15:00 PM 10.05 50.09 0.491 8.21 4.22 12.86
4/27/2022 6:30:00 PM 10.03 50.054 0.49 8.18 4.06 12.65
4/27/2022 6:45:00 PM 10.02 50.036 0.489 8.15 5.02 12.43
4/27/2022 7:00:00 PM 9.99 49.982 0.49 8.13 54.88 12.18
4/27/2022 7:15:00 PM 9.95 49.91 0.491 8.13 17.67 11.98
4/27/2022 7:30:00 PM 9.91 49.838 0.492 8.11 3.37 11.76
4/27/2022 7:45:00 PM 9.88 49.784 0.493 8.08 13.4 11.55
4/27/2022 8:00:00 PM 9.84 49.712 0.493 8.06 12.44 11.33
4/27/2022 8:15:00 PM 9.8 49.64 0.493 8.04 7.29 11.14
4/27/2022 8:30:00 PM 9.76 49.568 0.494 8.03 9.81 10.95
4/27/2022 8:45:00 PM 9.71 49.478 0.494 8 8.99 10.82
4/27/2022 9:00:00 PM 9.65 49.37 0.495 7.96 4.01 10.66
4/27/2022 9:15:00 PM 9.61 49.298 0.495 7.95 7.88 10.53
4/27/2022 9:30:00 PM 9.54 49.172 0.496 7.91 7.78 10.38
4/27/2022 9:45:00 PM 9.49 49.082 0.497 7.89 5.74 10.29
4/27/2022 10:00:00 PM 9.41 48.938 0.497 7.88 21.43 10.15
4/27/2022 10:15:00 PM 9.34 48.812 0.498 7.85 28.93 10.07
4/27/2022 10:30:00 PM 9.27 48.686 0.499 7.85 9.81 10
4/27/2022 10:45:00 PM 9.21 48.578 0.498 7.85 20.85 9.95
4/27/2022 11:00:00 PM 9.15 48.47 0.499 7.83 7.49 9.86
4/27/2022 11:15:00 PM 9.08 48.344 0.5 7.82 2.82 9.83
4/27/2022 11:30:00 PM 9.02 48.236 0.5 7.82 6.24 9.77
4/27/2022 11:45:00 PM 8.95 48.11 0.501 7.8 5.37 9.74
4/28/2022 12:00:00 AM 8.9 48.02 0.501 7.81 5.83 9.71
4/28/2022 12:15:00 AM 8.83 47.894 0.501 7.78 3.92 9.7
4/28/2022 12:30:00 AM 8.77 47.786 0.502 7.79 4.87 9.68
4/28/2022 12:45:00 AM 8.71 47.678 0.502 7.78 5.25 9.66
4/28/2022 1:00:00 AM 8.64 47.552 0.503 7.79 10.33 9.67
4/28/2022 1:15:00 AM 8.56 47.408 0.503 7.79 7.9 9.67
4/28/2022 1:30:00 AM 8.48 47.264 0.503 7.76 6 9.68
4/28/2022 1:45:00 AM 8.4 47.12 0.504 7.75 3.58 9.68
4/28/2022 2:00:00 AM 8.34 47.012 0.505 7.76 8.51 9.7
4/28/2022 2:15:00 AM 8.28 46.904 0.505 7.76 9.11 9.7
4/28/2022 2:30:00 AM 8.21 46.778 0.505 7.74 9.37 9.72
4/28/2022 2:45:00 AM 8.15 46.67 0.505 7.74 7.57 9.71
4/28/2022 3:00:00 AM 8.09 46.562 0.505 7.73 4.2 9.74
4/28/2022 3:15:00 AM 8.03 46.454 0.506 7.72 9.21 9.77
4/28/2022 3:30:00 AM 7.96 46.328 0.505 7.72 4.01 9.77
4/28/2022 3:45:00 AM 7.9 46.22 0.506 7.71 4.93 9.79
4/28/2022 4:00:00 AM 7.84 46.112 0.506 7.7 4.65 9.8
4/28/2022 4:15:00 AM 7.78 46.004 0.506 7.71 13.56 9.82
4/28/2022 4:30:00 AM 7.72 45.896 0.507 7.72 5.26 9.85
4/28/2022 4:45:00 AM 7.67 45.806 0.507 7.75 3.5 9.88
4/28/2022 5:00:00 AM 7.6 45.68 0.507 7.75 5.26 9.88
4/28/2022 5:15:00 AM 7.55 45.59 0.508 7.74 5.04 9.91
4/28/2022 5:30:00 AM 7.52 45.536 0.509 7.71 19.01 9.92
4/28/2022 5:45:00 AM 7.48 45.464 0.509 7.73 10.83 9.94
4/28/2022 6:00:00 AM 7.44 45.392 0.509 7.71 12.11 9.95
4/28/2022 6:15:00 AM 7.41 45.338 0.508 7.7 6.7 9.98
4/28/2022 6:30:00 AM 7.37 45.266 0.507 7.71 5.83 10.02
4/28/2022 6:45:00 AM 7.35 45.23 0.507 7.7 3.98 10.07
4/28/2022 7:00:00 AM 7.32 45.176 0.506 7.7 5.92 10.13
4/28/2022 7:15:00 AM 7.29 45.122 0.506 7.7 12.61 10.22
4/28/2022 7:30:00 AM 7.25 45.05 0.506 7.7 8.34 10.34
4/28/2022 7:45:00 AM 7.25 45.05 0.506 7.7 14.96 10.52
4/28/2022 8:00:00 AM 7.27 45.086 0.506 7.72 24.07 10.8
4/28/2022 8:15:00 AM 7.33 45.194 0.505 7.73 16.91 11.14
4/28/2022 8:30:00 AM 7.4 45.32 0.505 7.75 12.31 11.46
4/28/2022 8:45:00 AM 7.46 45.428 0.505 7.76 10.41 11.76
4/28/2022 9:00:00 AM 7.52 45.536 0.505 7.77 15.39 12
4/28/2022 9:15:00 AM 7.6 45.68 0.505 7.79 4.67 12.21
4/28/2022 9:30:00 AM 7.68 45.824 0.504 7.79 3.31 12.41
4/28/2022 9:45:00 AM 7.78 46.004 0.504 7.82 15.8 12.64
4/28/2022 10:00:00 AM 7.9 46.22 0.503 7.83 5.1 12.87
4/28/2022 10:15:00 AM 8.06 46.508 0.503 7.85 4.07 13.14
4/28/2022 10:30:00 AM 8.23 46.814 0.503 7.87 7.25 13.36
4/28/2022 10:45:00 AM 8.42 47.156 0.503 7.9 2.49 13.6
4/28/2022 11:00:00 AM 8.61 47.498 0.502 7.92 2.07 13.74
4/28/2022 11:15:00 AM 8.82 47.876 0.501 7.94 6.2 13.96
4/28/2022 11:30:00 AM 9.03 48.254 0.499 7.97 3.15 14.11
4/28/2022 11:45:00 AM 9.25 48.65 0.499 7.99 2.4 14.28
4/28/2022 12:00:00 PM 9.49 49.082 0.498 8 4.93 14.46
4/28/2022 12:15:00 PM 9.73 49.514 0.495 8.01 2.68 14.57
4/28/2022 12:30:00 PM 9.99 49.982 0.494 8.05 2.83 14.71
4/28/2022 12:45:00 PM 10.23 50.414 0.493 8.08 16.82 14.8
4/28/2022 1:00:00 PM 10.5 50.9 0.492 8.11 8.47 14.92
4/28/2022 1:15:00 PM 10.77 51.386 0.494 8.15 16.65 15.02
4/28/2022 1:30:00 PM 11.02 51.836 0.493 8.17 24.24 15.05
4/28/2022 1:45:00 PM 11.28 52.304 0.492 8.19 13.87 15.13
4/28/2022 2:00:00 PM 11.53 52.754 0.491 8.21 3.36 15.12
4/28/2022 2:15:00 PM 11.77 53.186 0.491 8.24 2.61 15.15
4/28/2022 2:30:00 PM 12.01 53.618 0.49 8.27 2.46 15.18
4/28/2022 2:45:00 PM 12.25 54.05 0.489 8.28 5.63 15.18
4/28/2022 3:00:00 PM 12.47 54.446 0.487 8.3 4.68 15.21
4/28/2022 3:15:00 PM 12.68 54.824 0.49 8.33 6.09 15.12
4/28/2022 3:30:00 PM 12.88 55.184 0.49 8.35 13.94 15.1
4/28/2022 3:45:00 PM 13.05 55.49 0.488 8.37 11.48 15.05
4/28/2022 4:00:00 PM 13.22 55.796 0.487 8.36 3.81 15
4/28/2022 4:15:00 PM 13.36 56.048 0.484 8.37 72.53 14.93
4/28/2022 4:30:00 PM 13.49 56.282 0.483 8.39 5.42 14.82
4/28/2022 4:45:00 PM 13.6 56.48 0.485 8.39 3.57 14.71
4/28/2022 5:00:00 PM 13.68 56.624 0.484 8.53 14.75 14.56
4/28/2022 5:15:00 PM 13.75 56.75 0.483 8.69 3.05 14.42
4/28/2022 5:30:00 PM 13.81 56.858 0.484 8.69 4.26 14.24
4/28/2022 5:45:00 PM 13.84 56.912 0.483 8.76 27.36 14.04
4/28/2022 6:00:00 PM 13.86 56.948 0.482 8.76 37.46 13.87
4/28/2022 6:15:00 PM 13.87 56.966 0.481 8.77 109.4 13.66
4/28/2022 6:30:00 PM 13.85 56.93 0.483 8.76 11.47 13.42
4/28/2022 6:45:00 PM 13.82 56.876 0.485 8.74 6.61 13.11
4/28/2022 7:00:00 PM 13.77 56.786 0.485 8.71 8.21 12.71
4/28/2022 7:15:00 PM 13.73 56.714 0.487 8.67 7.49 12.39
4/28/2022 7:30:00 PM 13.71 56.678 0.487 8.65 10.13 11.98
4/28/2022 7:45:00 PM 13.66 56.588 0.488 8.63 3.55 11.62
4/28/2022 8:00:00 PM 13.63 56.534 0.489 8.6 3.64 11.27
4/28/2022 8:15:00 PM 13.57 56.426 0.489 8.58 7.77 10.93
4/28/2022 8:30:00 PM 13.5 56.3 0.491 8.54 6.81 10.56
4/28/2022 8:45:00 PM 13.42 56.156 0.492 8.51 8.82 10.29
4/28/2022 9:00:00 PM 13.33 55.994 0.493 8.49 3.8 10.03
4/28/2022 9:15:00 PM 13.24 55.832 0.493 8.46 4.37 9.83
4/28/2022 9:30:00 PM 13.14 55.652 0.494 8.43 14.67 9.63
4/28/2022 9:45:00 PM 13.03 55.454 0.495 8.41 4.15 9.44
4/28/2022 10:00:00 PM 12.92 55.256 0.495 8.38 25.68 9.28
4/28/2022 10:15:00 PM 12.81 55.058 0.496 8.36 4.5 9.14
4/28/2022 10:30:00 PM 12.69 54.842 0.496 8.34 4.88 8.98
4/28/2022 10:45:00 PM 12.57 54.626 0.497 8.32 3.83 8.9
4/28/2022 11:00:00 PM 12.45 54.41 0.497 8.31 11.79 8.81
4/28/2022 11:15:00 PM 12.34 54.212 0.498 8.29 8.92 8.69
4/28/2022 11:30:00 PM 12.22 53.996 0.498 8.27 3.26 8.65
4/28/2022 11:45:00 PM 12.09 53.762 0.499 8.26 15.01 8.53
4/29/2022 12:00:00 AM 11.96 53.528 0.5 8.25 5.97 8.51
4/29/2022 12:15:00 AM 11.83 53.294 0.501 8.24 10.51 8.46
4/29/2022 12:30:00 AM 11.7 53.06 0.501 8.22 7.92 8.42
4/29/2022 12:45:00 AM 11.58 52.844 0.502 8.22 7.28 8.39
4/29/2022 1:00:00 AM 11.44 52.592 0.502 8.22 13.19 8.4
4/29/2022 1:15:00 AM 11.31 52.358 0.503 8.23 8.93 8.38
4/29/2022 1:30:00 AM 11.17 52.106 0.504 8.22 10.99 8.39
4/29/2022 1:45:00 AM 11.03 51.854 0.504 8.21 7.03 8.44
4/29/2022 2:00:00 AM 10.9 51.62 0.505 8.21 32.37 8.44
4/29/2022 2:15:00 AM 10.76 51.368 0.506 8.21 9.06 8.45
4/29/2022 2:30:00 AM 10.62 51.116 0.506 8.21 3.61 8.48
4/29/2022 2:45:00 AM 10.48 50.864 0.506 8.21 6.73 8.51
4/29/2022 3:00:00 AM 10.35 50.63 0.507 8.22 11.3 8.56
4/29/2022 3:15:00 AM 10.21 50.378 0.507 8.21 7.8 8.6
4/29/2022 3:30:00 AM 10.08 50.144 0.508 8.21 10.85 8.63
4/29/2022 3:45:00 AM 9.95 49.91 0.508 8.21 12.18 8.71
4/29/2022 4:00:00 AM 9.82 49.676 0.509 8.22 27.8 8.72
4/29/2022 4:15:00 AM 9.69 49.442 0.509 8.23 12.84 8.79
4/29/2022 4:30:00 AM 9.56 49.208 0.509 8.24 3.56 8.83
4/29/2022 4:45:00 AM 9.44 48.992 0.509 8.24 8.04 8.89
4/29/2022 5:00:00 AM 9.32 48.776 0.51 8.24 6.03 8.94
4/29/2022 5:15:00 AM 9.2 48.56 0.51 8.24 5.85 8.99
4/29/2022 5:30:00 AM 9.07 48.326 0.51 8.24 10.05 9.05
4/29/2022 5:45:00 AM 8.95 48.11 0.51 8.26 6.22 9.1
4/29/2022 6:00:00 AM 8.83 47.894 0.51 8.27 6.54 9.16
4/29/2022 6:15:00 AM 8.71 47.678 0.51 8.28 7.5 9.22
4/29/2022 6:30:00 AM 8.59 47.462 0.51 8.28 5.15 9.29
4/29/2022 6:45:00 AM 8.48 47.264 0.51 8.28 4.92 9.38
4/29/2022 7:00:00 AM 8.39 47.102 0.51 8.28 5.04 9.5
4/29/2022 7:15:00 AM 8.31 46.958 0.51 8.3 20.18 9.65
4/29/2022 7:30:00 AM 8.24 46.832 0.51 8.31 2.92 9.83
4/29/2022 7:45:00 AM 8.2 46.76 0.51 8.34 4.38 10.08
4/29/2022 8:00:00 AM 8.18 46.724 0.509 8.34 10.68 10.4
4/29/2022 8:15:00 AM 8.17 46.706 0.509 8.36 15.35 10.69
4/29/2022 8:30:00 AM 8.16 46.688 0.509 8.37 3.37 10.98
4/29/2022 8:45:00 AM 8.16 46.688 0.508 8.38 8.92 11.23
4/29/2022 9:00:00 AM 8.17 46.706 0.508 8.41 22.55 11.52
4/29/2022 9:15:00 AM 8.22 46.796 0.508 8.43 9 11.85
4/29/2022 9:30:00 AM 8.27 46.886 0.508 8.45 2.61 12.1
4/29/2022 9:45:00 AM 8.34 47.012 0.508 8.45 11.68 12.42
4/29/2022 10:00:00 AM 8.46 47.228 0.508 8.47 2.26 12.72
4/29/2022 10:15:00 AM 8.55 47.39 0.507 8.47 3.53 12.94
4/29/2022 10:30:00 AM 8.68 47.624 0.506 8.49 2.97 13.2
4/29/2022 10:45:00 AM 8.83 47.894 0.506 8.5 13.08 13.43
4/29/2022 11:00:00 AM 9.01 48.218 0.505 8.51 14.57 13.65
4/29/2022 11:15:00 AM 9.22 48.596 0.503 8.52 4.57 13.86
4/29/2022 11:30:00 AM 9.43 48.974 0.502 8.53 2.73 14.06
4/29/2022 11:45:00 AM 9.67 49.406 0.502 8.55 3.58 14.27
4/29/2022 12:00:00 PM 9.91 49.838 0.503 8.56 19.3 14.45
4/29/2022 12:15:00 PM 10.17 50.306 0.503 8.58 8.97 14.58
4/29/2022 12:30:00 PM 10.43 50.774 0.503 8.59 14.7 14.76
4/29/2022 12:45:00 PM 10.7 51.26 0.498 8.6 6.93 14.86
4/29/2022 1:00:00 PM 10.97 51.746 0.496 8.62 23.55 14.96
4/29/2022 1:15:00 PM 11.23 52.214 0.493 8.64 22.22 15.07
4/29/2022 1:30:00 PM 11.5 52.7 0.497 8.66 7.82 15.13
4/29/2022 1:45:00 PM 11.77 53.186 0.497 8.67 8.95 15.15
4/29/2022 2:00:00 PM 12.05 53.69 0.49 8.69 12.18 15.21
4/29/2022 2:15:00 PM 12.29 54.122 0.49 8.7 12.64 15.24
4/29/2022 2:30:00 PM 12.56 54.608 0.493 8.71 3.37 15.36
4/29/2022 2:45:00 PM 12.8 55.04 0.489 8.73 15.57 15.35
4/29/2022 3:00:00 PM 13.02 55.436 0.491 8.74 7.98 15.31
4/29/2022 3:15:00 PM 13.25 55.85 0.488 8.76 16.59 15.35
4/29/2022 3:30:00 PM 13.44 56.192 0.492 8.78 8.5 15.27
4/29/2022 3:45:00 PM 13.63 56.534 0.49 8.79 2.92 15.21
4/29/2022 4:00:00 PM 13.81 56.858 0.489 8.8 12.7 15.17
4/29/2022 4:15:00 PM 13.97 57.146 0.486 8.81 15.25 15.09
4/29/2022 4:30:00 PM 14.11 57.398 0.487 8.82 9.38 15
4/29/2022 4:45:00 PM 14.24 57.632 0.482 8.82 35.14 14.91
4/29/2022 5:00:00 PM 14.36 57.848 0.484 8.82 8.12 14.69
4/29/2022 5:15:00 PM 14.46 58.028 0.484 8.81 7.18 14.57
4/29/2022 5:30:00 PM 14.52 58.136 0.486 8.81 86.28 14.39
4/29/2022 5:45:00 PM 14.58 58.244 0.486 8.82 19.98 14.17
4/29/2022 6:00:00 PM 14.61 58.298 0.485 8.83 14.89 13.94
4/29/2022 6:15:00 PM 14.63 58.334 0.485 8.82 38.15 13.67
4/29/2022 6:30:00 PM 14.65 58.37 0.484 8.82 22.21 13.43
4/29/2022 6:45:00 PM 14.65 58.37 0.485 8.8 76.21 13.14
4/29/2022 7:00:00 PM 14.63 58.334 0.485 8.76 80.21 12.77
4/29/2022 7:15:00 PM 14.62 58.316 0.486 8.74 31.25 12.41
4/29/2022 7:30:00 PM 14.61 58.298 0.489 8.71 23.75 11.99
4/29/2022 7:45:00 PM 14.57 58.226 0.489 8.68 20.58 11.55
4/29/2022 8:00:00 PM 14.54 58.172 0.49 8.65 13.11 11.14
4/29/2022 8:15:00 PM 14.48 58.064 0.492 8.62 5.1 10.75
4/29/2022 8:30:00 PM 14.41 57.938 0.494 8.58 8.87 10.38
4/29/2022 8:45:00 PM 14.34 57.812 0.496 8.54 3.8 10.08
4/29/2022 9:00:00 PM 14.26 57.668 0.495 8.5 5.49 9.8
4/29/2022 9:15:00 PM 14.18 57.524 0.494 8.47 3.12 9.55
4/29/2022 9:30:00 PM 14.09 57.362 0.496 8.44 45.03 9.3
4/29/2022 9:45:00 PM 14.01 57.218 0.497 8.41 26.37 9.09
4/29/2022 10:00:00 PM 13.91 57.038 0.497 8.37 22.61 8.88
4/29/2022 10:15:00 PM 13.8 56.84 0.497 8.35 75.37 8.73
4/29/2022 10:30:00 PM 13.69 56.642 0.497 8.33 10.36 8.56
4/29/2022 10:45:00 PM 13.57 56.426 0.498 8.31 72.96 8.43
4/29/2022 11:00:00 PM 13.45 56.21 0.498 8.3 28.53 8.34
4/29/2022 11:15:00 PM 13.34 56.012 0.499 8.28 16.7 8.27
4/29/2022 11:30:00 PM 13.23 55.814 0.499 8.27 12.91 8.17
4/29/2022 11:45:00 PM 13.11 55.598 0.5 8.26 26.12 8.09
4/30/2022 12:00:00 AM 13 55.4 0.501 8.25 3.34 8.04
4/30/2022 12:15:00 AM 12.89 55.202 0.501 8.25 4.49 8
4/30/2022 12:30:00 AM 12.77 54.986 0.503 8.24 19.04 7.95
4/30/2022 12:45:00 AM 12.66 54.788 0.504 8.23 15.17 7.88
4/30/2022 1:00:00 AM 12.54 54.572 0.504 8.23 33.78 7.9
4/30/2022 1:15:00 AM 12.39 54.302 0.505 8.23 32.95 7.88
4/30/2022 1:30:00 AM 12.25 54.05 0.505 8.24 8.99 7.89
4/30/2022 1:45:00 AM 12.1 53.78 0.506 8.23 11.57 7.88
4/30/2022 2:00:00 AM 11.95 53.51 0.506 8.23 28.2 7.9
4/30/2022 2:15:00 AM 11.79 53.222 0.507 8.23 6.11 7.93
4/30/2022 2:30:00 AM 11.65 52.97 0.507 8.22 8.08 7.99
4/30/2022 2:45:00 AM 11.5 52.7 0.507 8.23 13.75 8.01
4/30/2022 3:00:00 AM 11.35 52.43 0.508 8.24 15.16 8.07
4/30/2022 3:15:00 AM 11.21 52.178 0.508 8.24 9.93 8.11
4/30/2022 3:30:00 AM 11.06 51.908 0.509 8.25 44.17 8.15
4/30/2022 3:45:00 AM 10.9 51.62 0.509 8.25 34.53 8.21
4/30/2022 4:00:00 AM 10.76 51.368 0.509 8.26 34.93 8.28
4/30/2022 4:15:00 AM 10.61 51.098 0.51 8.27 11.03 8.32
4/30/2022 4:30:00 AM 10.47 50.846 0.511 8.27 9.69 8.36
4/30/2022 4:45:00 AM 10.33 50.594 0.511 8.28 31.44 8.44
4/30/2022 5:00:00 AM 10.19 50.342 0.511 8.29 7.85 8.47
4/30/2022 5:15:00 AM 10.05 50.09 0.511 8.3 8.59 8.53
4/30/2022 5:30:00 AM 9.91 49.838 0.512 8.3 14.98 8.61
4/30/2022 5:45:00 AM 9.77 49.586 0.512 8.31 14.45 8.64
4/30/2022 6:00:00 AM 9.64 49.352 0.512 8.32 14.67 8.72
4/30/2022 6:15:00 AM 9.51 49.118 0.512 8.32 41.93 8.77
4/30/2022 6:30:00 AM 9.37 48.866 0.512 8.32 33.06 8.88
4/30/2022 6:45:00 AM 9.26 48.668 0.512 8.33 3.31 9.01
4/30/2022 7:00:00 AM 9.14 48.452 0.512 8.34 22.4 9.14
4/30/2022 7:15:00 AM 9.04 48.272 0.512 8.35 21.75 9.31
4/30/2022 7:30:00 AM 8.97 48.146 0.512 8.37 59.06 9.54
4/30/2022 7:45:00 AM 8.9 48.02 0.512 8.38 12.73 9.74
4/30/2022 8:00:00 AM 8.85 47.93 0.512 8.38 23.06 10.02
4/30/2022 8:15:00 AM 8.82 47.876 0.511 8.4 13.78 10.26
4/30/2022 8:30:00 AM 8.81 47.858 0.511 8.41 11.65 10.57
4/30/2022 8:45:00 AM 8.83 47.894 0.51 8.43 6.91 10.91
4/30/2022 9:00:00 AM 8.85 47.93 0.51 8.45 4.99 11.22
4/30/2022 9:15:00 AM 8.91 48.038 0.51 8.46 73.73 11.55
4/30/2022 9:30:00 AM 8.98 48.164 0.508 8.48 9.43 11.9
4/30/2022 9:45:00 AM 9.08 48.344 0.508 8.49 10.83 12.23
4/30/2022 10:00:00 AM 9.2 48.56 0.507 8.5 15.29 12.54
4/30/2022 10:15:00 AM 9.34 48.812 0.506 8.52 8.01 12.84
4/30/2022 10:30:00 AM 9.5 49.1 0.505 8.53 5.05 13.12
4/30/2022 10:45:00 AM 9.67 49.406 0.505 8.55 20.79 13.39
4/30/2022 11:00:00 AM 9.85 49.73 0.505 8.57 8.48 13.64
4/30/2022 11:15:00 AM 10.05 50.09 0.505 8.58 8.16 13.91
4/30/2022 11:30:00 AM 10.26 50.468 0.505 8.59 3.34 14.16
4/30/2022 11:45:00 AM 10.49 50.882 0.503 8.6 5.45 14.39
4/30/2022 12:00:00 PM 10.73 51.314 0.501 8.61 11.36 14.56
4/30/2022 12:15:00 PM 10.97 51.746 0.5 8.62 5.43 14.72
4/30/2022 12:30:00 PM 11.22 52.196 0.502 8.64 14.25 14.9
4/30/2022 12:45:00 PM 11.48 52.664 0.498 8.65 11.81 15.02
4/30/2022 1:00:00 PM 11.74 53.132 0.496 8.66 20.72 15.12
4/30/2022 1:15:00 PM 12 53.6 0.494 8.67 18.01 15.23
4/30/2022 1:30:00 PM 12.25 54.05 0.497 8.69 9.08 15.3
4/30/2022 1:45:00 PM 12.51 54.518 0.495 8.71 4.55 15.4
4/30/2022 2:00:00 PM 12.76 54.968 0.491 8.73 76.65 15.47
4/30/2022 2:15:00 PM 12.97 55.346 0.493 8.74 3.42 15.52
4/30/2022 2:30:00 PM 13.21 55.778 0.495 8.75 10.63 15.6
4/30/2022 2:45:00 PM 13.43 56.174 0.488 8.76 4.02 15.65
4/30/2022 3:00:00 PM 13.67 56.606 0.486 8.78 5.82 15.7
4/30/2022 3:15:00 PM 13.87 56.966 0.489 8.79 10.13 15.65
4/30/2022 3:30:00 PM 14.1 57.38 0.487 8.8 6 15.59
4/30/2022 3:45:00 PM 14.25 57.65 0.485 8.8 3.11 15.54
4/30/2022 4:00:00 PM 14.36 57.848 0.488 8.8 39.48 15.49
4/30/2022 4:15:00 PM 14.51 58.118 0.488 8.8 19.09 15.4
4/30/2022 4:30:00 PM 14.58 58.244 0.487 8.8 2.14 15.21
4/30/2022 4:45:00 PM 14.66 58.388 0.487 8.79 12.16 15.08
4/30/2022 5:00:00 PM 14.76 58.568 0.486 8.79 25.32 14.9
4/30/2022 5:15:00 PM 14.88 58.784 0.485 8.79 3.01 14.77
4/30/2022 5:30:00 PM 14.95 58.91 0.484 8.78 3.53 14.57
4/30/2022 5:45:00 PM 15.07 59.126 0.483 8.78 3.88 14.43
4/30/2022 6:00:00 PM 15.15 59.27 0.481 8.77 13.68 14.22
4/30/2022 6:15:00 PM 15.19 59.342 0.482 8.77 2.8 13.96
4/30/2022 6:30:00 PM 15.23 59.414 0.478 8.75 32.94 13.64
4/30/2022 6:45:00 PM 15.26 59.468 0.481 8.74 5.05 13.29
4/30/2022 7:00:00 PM 15.27 59.486 0.48 8.72 6.43 12.84
4/30/2022 7:15:00 PM 15.26 59.468 0.482 8.69 3.91 12.43
4/30/2022 7:30:00 PM 15.24 59.432 0.484 8.66 10.18 11.98
4/30/2022 7:45:00 PM 15.21 59.378 0.485 8.64 8.1 11.51
4/30/2022 8:00:00 PM 15.16 59.288 0.487 8.6 3 11.08
4/30/2022 8:15:00 PM 15.11 59.198 0.488 8.56 22.87 10.67
4/30/2022 8:30:00 PM 15.05 59.09 0.49 8.51 2.45 10.31
4/30/2022 8:45:00 PM 14.98 58.964 0.491 8.46 4.42 9.91
4/30/2022 9:00:00 PM 14.9 58.82 0.493 8.41 2.7 9.64
4/30/2022 9:15:00 PM 14.83 58.694 0.495 8.37 7.3 9.34
4/30/2022 9:30:00 PM 14.74 58.532 0.496 8.32 4.8 9.09
4/30/2022 9:45:00 PM 14.65 58.37 0.497 8.27 4.34 8.88
4/30/2022 10:00:00 PM 14.57 58.226 0.497 8.23 3.4 8.72
4/30/2022 10:15:00 PM 14.48 58.064 0.498 8.19 3.27 8.46
4/30/2022 10:30:00 PM 14.39 57.902 0.499 8.15 7.59 8.2
4/30/2022 10:45:00 PM 14.28 57.704 0.499 8.11 5.6 7.97
4/30/2022 11:00:00 PM 14.17 57.506 0.5 8.07 19.44 7.82
4/30/2022 11:15:00 PM 14.07 57.326 0.5 8.04 5.99 7.68
4/30/2022 11:30:00 PM 13.95 57.11 0.501 8.01 5.28 7.59
4/30/2022 11:45:00 PM 13.84 56.912 0.501 7.98 7.11 7.56
5/1/2022 12:00:00 AM 13.71 56.678 0.501 7.96 3.74 7.51
5/1/2022 12:15:00 AM 13.59 56.462 0.502 7.94 4.84 7.48
5/1/2022 12:30:00 AM 13.46 56.228 0.502 7.92 3.96 7.44
5/1/2022 12:45:00 AM 13.33 55.994 0.503 7.92 4.24 7.43
5/1/2022 1:00:00 AM 13.21 55.778 0.504 7.9 3.41 7.42
5/1/2022 1:15:00 AM 13.09 55.562 0.505 7.89 3.79 7.43
5/1/2022 1:30:00 AM 12.97 55.346 0.506 7.88 4.39 7.43
5/1/2022 1:45:00 AM 12.85 55.13 0.506 7.87 13.16 7.45
5/1/2022 2:00:00 AM 12.72 54.896 0.506 7.86 5.16 7.47
5/1/2022 2:15:00 AM 12.59 54.662 0.506 7.85 4.3 7.52
5/1/2022 2:30:00 AM 12.45 54.41 0.507 7.85 4.18 7.53
5/1/2022 2:45:00 AM 12.32 54.176 0.507 7.85 4.02 7.58
5/1/2022 3:00:00 AM 12.19 53.942 0.508 7.85 4.19 7.61
5/1/2022 3:15:00 AM 12.06 53.708 0.509 7.85 6.95 7.67
5/1/2022 3:30:00 AM 11.95 53.51 0.51 7.85 8.06 7.7
5/1/2022 3:45:00 AM 11.85 53.33 0.511 7.84 2.96 7.72
5/1/2022 4:00:00 AM 11.73 53.114 0.511 7.83 4.19 7.78
5/1/2022 4:15:00 AM 11.62 52.916 0.512 7.83 6.54 7.82
5/1/2022 4:30:00 AM 11.49 52.682 0.512 7.83 15.94 7.86
5/1/2022 4:45:00 AM 11.37 52.466 0.513 7.83 5.64 7.94
5/1/2022 5:00:00 AM 11.26 52.268 0.513 7.82 3.76 7.97
5/1/2022 5:15:00 AM 11.16 52.088 0.514 7.82 15.93 8.01
5/1/2022 5:30:00 AM 11.07 51.926 0.513 7.83 5.56 8.08
5/1/2022 5:45:00 AM 10.99 51.782 0.514 7.82 2.83 8.08
5/1/2022 6:00:00 AM 10.89 51.602 0.514 7.81 4.27 8.14
5/1/2022 6:15:00 AM 10.8 51.44 0.514 7.81 2.92 8.19
5/1/2022 6:30:00 AM 10.71 51.278 0.514 7.81 3.15 8.26
5/1/2022 6:45:00 AM 10.64 51.152 0.514 7.81 3.74 8.35
5/1/2022 7:00:00 AM 10.57 51.026 0.514 7.8 4.18 8.46
5/1/2022 7:15:00 AM 10.51 50.918 0.514 7.81 4.3 8.59
5/1/2022 7:30:00 AM 10.45 50.81 0.514 7.82 4.83 8.78
5/1/2022 7:45:00 AM 10.4 50.72 0.514 7.82 2.17 9
5/1/2022 8:00:00 AM 10.38 50.684 0.514 7.83 3.88 9.29
5/1/2022 8:15:00 AM 10.36 50.648 0.513 7.83 3.61 9.64
5/1/2022 8:30:00 AM 10.35 50.63 0.513 7.84 7.64 9.95
5/1/2022 8:45:00 AM 10.35 50.63 0.513 7.86 5.44 10.26
5/1/2022 9:00:00 AM 10.34 50.612 0.513 7.88 3.14 10.52
5/1/2022 9:15:00 AM 10.35 50.63 0.513 7.9 2.78 10.84
5/1/2022 9:30:00 AM 10.41 50.738 0.512 7.91 2.3 11.27
5/1/2022 9:45:00 AM 10.47 50.846 0.512 7.93 8.06 11.64
5/1/2022 10:00:00 AM 10.51 50.918 0.512 7.96 12.3 11.98
5/1/2022 10:15:00 AM 10.63 51.134 0.51 7.98 4.33 12.45
5/1/2022 10:30:00 AM 10.77 51.386 0.51 8 2.4 12.8
5/1/2022 10:45:00 AM 10.82 51.476 0.509 8.03 2.47 12.92
5/1/2022 11:00:00 AM 10.88 51.584 0.509 8.04 2.69 13.08
5/1/2022 11:15:00 AM 10.93 51.674 0.509 8.06 2.15 13.21
5/1/2022 11:30:00 AM 10.93 51.674 0.509 8.07 3.79 13.18
5/1/2022 11:45:00 AM 10.94 51.692 0.51 8.08 6.6 13.12
5/1/2022 12:00:00 PM 10.93 51.674 0.509 8.08 1.64 12.92
5/1/2022 12:15:00 PM 10.92 51.656 0.51 8.08 15.02 12.76
5/1/2022 12:30:00 PM 10.92 51.656 0.51 8.06 2.42 12.67
5/1/2022 12:45:00 PM 10.94 51.692 0.509 8.06 7.62 12.68
5/1/2022 1:00:00 PM 10.97 51.746 0.51 8.06 2.21 12.74
5/1/2022 1:15:00 PM 10.99 51.782 0.509 8.07 7.99 12.84
5/1/2022 1:30:00 PM 11.04 51.872 0.508 8.09 2.14 13.01
5/1/2022 1:45:00 PM 11.08 51.944 0.505 8.11 1.74 13.03
5/1/2022 2:00:00 PM 11.12 52.016 0.505 8.12 2.07 12.99
5/1/2022 2:15:00 PM 11.15 52.07 0.504 8.12 2.01 12.85
5/1/2022 2:30:00 PM 11.2 52.16 0.505 8.12 3.03 12.75
5/1/2022 2:45:00 PM 11.26 52.268 0.504 8.1 4.35 12.57
5/1/2022 3:00:00 PM 11.29 52.322 0.501 8.09 3.85 12.36
5/1/2022 3:15:00 PM 11.37 52.466 0.502 8.08 9.42 12.15
5/1/2022 3:30:00 PM 11.39 52.502 0.505 8.08 11.64 12.02
5/1/2022 3:45:00 PM 11.44 52.592 0.504 8.07 12.82 11.95
5/1/2022 4:00:00 PM 11.43 52.574 0.5 8.06 6.15 11.93
5/1/2022 4:15:00 PM 11.45 52.61 0.499 8.05 3.82 11.86
5/1/2022 4:30:00 PM 11.48 52.664 0.497 8.05 2.94 11.76
5/1/2022 4:45:00 PM 11.52 52.736 0.496 8.06 28.57 11.73
5/1/2022 5:00:00 PM 11.56 52.808 0.496 8.05 12.24 11.57
5/1/2022 5:15:00 PM 11.6 52.88 0.494 8.03 4.09 11.58
5/1/2022 5:30:00 PM 11.64 52.952 0.492 8.04 7.27 11.48
5/1/2022 5:45:00 PM 11.67 53.006 0.49 8.03 4.36 11.34
5/1/2022 6:00:00 PM 11.69 53.042 0.487 8.02 3.31 11.1
5/1/2022 6:15:00 PM 11.71 53.078 0.484 8.01 4.52 10.87
5/1/2022 6:30:00 PM 11.73 53.114 0.483 7.99 6.94 10.63
5/1/2022 6:45:00 PM 11.75 53.15 0.481 7.96 6.01 10.4
5/1/2022 7:00:00 PM 11.77 53.186 0.482 7.94 12.72 10.19
5/1/2022 7:15:00 PM 11.78 53.204 0.482 7.92 7.17 10.02
5/1/2022 7:30:00 PM 11.8 53.24 0.482 7.91 4.66 9.9
5/1/2022 7:45:00 PM 11.81 53.258 0.483 7.89 5.5 9.76
5/1/2022 8:00:00 PM 11.81 53.258 0.484 7.88 5.17 9.64
5/1/2022 8:15:00 PM 11.8 53.24 0.485 7.87 5.5 9.53
5/1/2022 8:30:00 PM 11.8 53.24 0.487 7.86 20.5 9.42
5/1/2022 8:45:00 PM 11.79 53.222 0.488 7.86 4.75 9.36
5/1/2022 9:00:00 PM 11.79 53.222 0.489 7.84 4.5 9.27
5/1/2022 9:15:00 PM 11.79 53.222 0.489 7.84 4.38 9.19
5/1/2022 9:30:00 PM 11.79 53.222 0.488 7.82 4.11 9.09
5/1/2022 9:45:00 PM 11.79 53.222 0.486 7.82 4.89 9
5/1/2022 10:00:00 PM 11.79 53.222 0.486 7.8 4.97 8.89
5/1/2022 10:15:00 PM 11.79 53.222 0.486 7.79 3.84 8.8
5/1/2022 10:30:00 PM 11.79 53.222 0.485 7.79 4.53 8.75
5/1/2022 10:45:00 PM 11.79 53.222 0.484 7.78 4.27 8.66
5/1/2022 11:00:00 PM 11.79 53.222 0.484 7.77 4.82 8.59
5/1/2022 11:15:00 PM 11.79 53.222 0.484 7.76 4.41 8.54
5/1/2022 11:30:00 PM 11.78 53.204 0.484 7.75 4.26 8.49
5/1/2022 11:45:00 PM 11.77 53.186 0.485 7.75 5.17 8.45
5/2/2022 12:00:00 AM 11.76 53.168 0.485 7.75 5.72 8.43
5/2/2022 12:15:00 AM 11.74 53.132 0.486 7.73 7.27 8.36
5/2/2022 12:30:00 AM 11.73 53.114 0.486 7.72 8.35 8.33
5/2/2022 12:45:00 AM 11.72 53.096 0.487 7.71 6.18 8.3
5/2/2022 1:00:00 AM 11.7 53.06 0.488 7.71 7.52 8.29
5/2/2022 1:15:00 AM 11.69 53.042 0.489 7.7 5.77 8.28
5/2/2022 1:30:00 AM 11.67 53.006 0.49 7.71 7 8.26
5/2/2022 1:45:00 AM 11.65 52.97 0.49 7.71 5.99 8.23
5/2/2022 2:00:00 AM 11.63 52.934 0.491 7.71 4.99 8.24
5/2/2022 2:15:00 AM 11.61 52.898 0.493 7.71 5.7 8.22
5/2/2022 2:30:00 AM 11.59 52.862 0.493 7.71 4.3 8.24
5/2/2022 2:45:00 AM 11.57 52.826 0.494 7.7 6.35 8.24
5/2/2022 3:00:00 AM 11.55 52.79 0.494 7.7 7.08 8.24
5/2/2022 3:15:00 AM 11.53 52.754 0.493 7.7 4.28 8.23
5/2/2022 3:30:00 AM 11.51 52.718 0.493 7.7 64.43 8.23
5/2/2022 3:45:00 AM 11.49 52.682 0.496 7.7 3.97 8.24
5/2/2022 4:00:00 AM 11.47 52.646 0.497 7.7 6.16 8.21
5/2/2022 4:15:00 AM 11.45 52.61 0.496 7.69 6.91 8.25
5/2/2022 4:30:00 AM 11.43 52.574 0.497 7.7 4.43 8.24
5/2/2022 4:45:00 AM 11.41 52.538 0.497 7.7 7.28 8.28
5/2/2022 5:00:00 AM 11.39 52.502 0.497 7.7 4.19 8.27
5/2/2022 5:15:00 AM 11.37 52.466 0.498 7.69 5.89 8.29
5/2/2022 5:30:00 AM 11.36 52.448 0.499 7.69 8.32 8.28
5/2/2022 5:45:00 AM 11.34 52.412 0.499 7.69 4.83 8.29
5/2/2022 6:00:00 AM 11.32 52.376 0.499 7.69 5.63 8.29
5/2/2022 6:15:00 AM 11.3 52.34 0.5 7.69 4.18 8.33
5/2/2022 6:30:00 AM 11.29 52.322 0.5 7.69 5.51 8.32
5/2/2022 6:45:00 AM 11.28 52.304 0.5 7.69 4.65 8.35
5/2/2022 7:00:00 AM 11.26 52.268 0.5 7.69 6.53 8.39
5/2/2022 7:15:00 AM 11.25 52.25 0.499 7.7 4.84 8.46
5/2/2022 7:30:00 AM 11.25 52.25 0.498 7.7 7.7 8.58
5/2/2022 7:45:00 AM 11.25 52.25 0.497 7.7 3.15 8.7
5/2/2022 8:00:00 AM 11.25 52.25 0.499 7.71 5.2 8.79
5/2/2022 8:15:00 AM 11.26 52.268 0.498 7.71 4.19 9.01
5/2/2022 8:30:00 AM 11.28 52.304 0.498 7.71 4.66 9.18
5/2/2022 8:45:00 AM 11.3 52.34 0.498 7.73 6.32 9.39
5/2/2022 9:00:00 AM 11.32 52.376 0.497 7.75 3.44 9.6
5/2/2022 9:15:00 AM 11.33 52.394 0.497 7.75 2.9 9.71
5/2/2022 9:30:00 AM 11.36 52.448 0.497 7.77 2.43 9.91
5/2/2022 9:45:00 AM 11.43 52.574 0.496 7.79 2.32 10.33
5/2/2022 10:00:00 AM 11.52 52.736 0.497 7.81 3.82 10.74
5/2/2022 10:15:00 AM 11.64 52.952 0.496 7.84 3.07 11.22
5/2/2022 10:30:00 AM 11.73 53.114 0.496 7.86 3.88 11.49
5/2/2022 10:45:00 AM 11.81 53.258 0.496 7.89 4.3 11.77
5/2/2022 11:00:00 AM 11.99 53.582 0.495 7.91 2.78 12.07
5/2/2022 11:15:00 AM 12.14 53.852 0.495 7.93 3.01 12.4
5/2/2022 11:30:00 AM 12.26 54.068 0.494 7.95 13.42 12.6
5/2/2022 11:45:00 AM 12.45 54.41 0.494 7.98 3.77 12.92
5/2/2022 12:00:00 PM 12.55 54.59 0.493 8.01 8.2 13.11
5/2/2022 12:15:00 PM 12.71 54.878 0.492 8.05 5.29 13.4
5/2/2022 12:30:00 PM 12.92 55.256 0.492 8.09 3.07 13.62
5/2/2022 12:45:00 PM 13.21 55.778 0.492 8.11 4.54 13.94
5/2/2022 1:00:00 PM 13.51 56.318 0.491 8.14 6.78 14.14
5/2/2022 1:15:00 PM 13.82 56.876 0.489 8.17 6.42 14.41
5/2/2022 1:30:00 PM 14.1 57.38 0.49 8.2 4.4 14.56
5/2/2022 1:45:00 PM 14.38 57.884 0.482 8.23 8.93 14.73
5/2/2022 2:00:00 PM 14.63 58.334 0.486 8.25 3.12 14.85
5/2/2022 2:15:00 PM 14.86 58.748 0.483 8.28 4.82 14.98
5/2/2022 2:30:00 PM 15.08 59.144 0.485 8.3 2.58 15.04
5/2/2022 2:45:00 PM 15.3 59.54 0.48 8.32 3.86 15.13
5/2/2022 3:00:00 PM 15.49 59.882 0.483 8.34 2.67 15.17
5/2/2022 3:15:00 PM 15.68 60.224 0.476 8.36 2.71 15.18
5/2/2022 3:30:00 PM 15.85 60.53 0.48 8.37 7.56 15.17
5/2/2022 3:45:00 PM 16 60.8 0.483 8.4 5.42 15.14
5/2/2022 4:00:00 PM 16.12 61.016 0.48 8.41 3.45 15.08
5/2/2022 4:15:00 PM 16.24 61.232 0.478 8.45 7.45 15
5/2/2022 4:30:00 PM 16.34 61.412 0.476 8.46 6.59 14.9
5/2/2022 4:45:00 PM 16.44 61.592 0.476 8.47 15.55 14.8
5/2/2022 5:00:00 PM 16.53 61.754 0.476 8.48 2.98 14.73
5/2/2022 5:15:00 PM 16.6 61.88 0.475 8.48 4.02 14.52
5/2/2022 5:30:00 PM 16.66 61.988 0.475 8.49 4.9 14.3
5/2/2022 5:45:00 PM 16.71 62.078 0.476 8.49 4.84 14.06
5/2/2022 6:00:00 PM 16.74 62.132 0.471 8.48 5.48 13.79
5/2/2022 6:15:00 PM 16.77 62.186 0.475 8.47 5.95 13.46
5/2/2022 6:30:00 PM 16.78 62.204 0.475 8.45 5.73 13.11
5/2/2022 6:45:00 PM 16.77 62.186 0.477 8.43 7.04 12.73
5/2/2022 7:00:00 PM 16.76 62.168 0.479 8.41 4.14 12.3
5/2/2022 7:15:00 PM 16.76 62.168 0.477 8.38 7.54 11.89
5/2/2022 7:30:00 PM 16.75 62.15 0.475 8.35 7.91 11.47
5/2/2022 7:45:00 PM 16.73 62.114 0.478 8.32 4.1 10.99
5/2/2022 8:00:00 PM 16.69 62.042 0.48 8.28 6.23 10.55
5/2/2022 8:15:00 PM 16.65 61.97 0.476 8.24 3.96 10.13
5/2/2022 8:30:00 PM 16.6 61.88 0.477 8.2 6.63 9.73
5/2/2022 8:45:00 PM 16.54 61.772 0.478 8.16 17.12 9.38
5/2/2022 9:00:00 PM 16.48 61.664 0.486 8.12 6.34 9.05
5/2/2022 9:15:00 PM 16.41 61.538 0.488 8.06 3.91 8.76
5/2/2022 9:30:00 PM 16.33 61.394 0.489 8.02 7.08 8.52
5/2/2022 9:45:00 PM 16.25 61.25 0.496 7.97 4.53 8.31
5/2/2022 10:00:00 PM 16.15 61.07 0.497 7.94 7.47 8.1
5/2/2022 10:15:00 PM 16.06 60.908 0.497 7.9 6.51 7.96
5/2/2022 10:30:00 PM 15.95 60.71 0.498 7.86 14.93 7.75
5/2/2022 10:45:00 PM 15.84 60.512 0.498 7.83 3.84 7.62
5/2/2022 11:00:00 PM 15.73 60.314 0.499 7.8 6.06 7.5
5/2/2022 11:15:00 PM 15.62 60.116 0.499 7.77 10.48 7.37
5/2/2022 11:30:00 PM 15.5 59.9 0.5 7.75 4.05 7.27
5/2/2022 11:45:00 PM 15.39 59.702 0.501 7.73 17.64 7.2
5/3/2022 12:00:00 AM 15.27 59.486 0.503 7.7 4.6 7.15
5/3/2022 12:15:00 AM 15.15 59.27 0.507 7.69 5.77 7.08
5/3/2022 12:30:00 AM 15.03 59.054 0.511 7.68 7.58 7.03
5/3/2022 12:45:00 AM 14.9 58.82 0.512 7.67 14.85 7.02
5/3/2022 1:00:00 AM 14.77 58.586 0.511 7.66 15.69 6.97
5/3/2022 1:15:00 AM 14.64 58.352 0.51 7.65 4.71 6.97
5/3/2022 1:30:00 AM 14.51 58.118 0.509 7.63 5.45 6.95
5/3/2022 1:45:00 AM 14.37 57.866 0.509 7.62 9.82 6.96
5/3/2022 2:00:00 AM 14.23 57.614 0.509 7.62 7.57 7
5/3/2022 2:15:00 AM 14.09 57.362 0.51 7.61 9.68 7.01
5/3/2022 2:30:00 AM 13.95 57.11 0.512 7.6 18.64 7.03
5/3/2022 2:45:00 AM 13.81 56.858 0.514 7.59 3.79 7.06
5/3/2022 3:00:00 AM 13.67 56.606 0.515 7.59 4.97 7.11
5/3/2022 3:15:00 AM 13.54 56.372 0.516 7.6 10.8 7.15
5/3/2022 3:30:00 AM 13.4 56.12 0.516 7.6 20.52 7.19
5/3/2022 3:45:00 AM 13.26 55.868 0.517 7.6 4.41 7.25
5/3/2022 4:00:00 AM 13.12 55.616 0.517 7.6 5.92 7.28
5/3/2022 4:15:00 AM 12.98 55.364 0.517 7.6 12.7 7.33
5/3/2022 4:30:00 AM 12.85 55.13 0.517 7.6 2.98 7.4
5/3/2022 4:45:00 AM 12.72 54.896 0.517 7.61 3.51 7.44
5/3/2022 5:00:00 AM 12.58 54.644 0.518 7.61 4.69 7.48
5/3/2022 5:15:00 AM 12.45 54.41 0.518 7.61 4.01 7.54
5/3/2022 5:30:00 AM 12.32 54.176 0.518 7.63 5.26 7.58
5/3/2022 5:45:00 AM 12.2 53.96 0.518 7.63 8.18 7.64
5/3/2022 6:00:00 AM 12.08 53.744 0.517 7.63 2.99 7.68
5/3/2022 6:15:00 AM 11.95 53.51 0.518 7.63 11.09 7.76
5/3/2022 6:30:00 AM 11.83 53.294 0.518 7.63 3.93 7.85
5/3/2022 6:45:00 AM 11.72 53.096 0.519 7.63 4.39 7.97
5/3/2022 7:00:00 AM 11.63 52.934 0.519 7.64 2.79 8.13
5/3/2022 7:15:00 AM 11.55 52.79 0.519 7.64 3.08 8.31
5/3/2022 7:30:00 AM 11.49 52.682 0.518 7.65 2.73 8.57
5/3/2022 7:45:00 AM 11.44 52.592 0.519 7.66 11.3 8.82
5/3/2022 8:00:00 AM 11.4 52.52 0.519 7.67 3.86 9.13
5/3/2022 8:15:00 AM 11.37 52.466 0.518 7.69 2.79 9.39
5/3/2022 8:30:00 AM 11.36 52.448 0.518 7.7 12.92 9.7
5/3/2022 8:45:00 AM 11.34 52.412 0.517 7.72 2.79 10.03
5/3/2022 9:00:00 AM 11.33 52.394 0.517 7.74 3.33 10.37
5/3/2022 9:15:00 AM 11.34 52.412 0.517 7.76 4.16 10.71
5/3/2022 9:30:00 AM 11.34 52.412 0.517 7.79 4.74 10.95
5/3/2022 9:45:00 AM 11.35 52.43 0.517 7.8 2.6 11.23
5/3/2022 10:00:00 AM 11.39 52.502 0.517 7.83 3.57 11.52
5/3/2022 10:15:00 AM 11.42 52.556 0.516 7.84 2.31 11.77
5/3/2022 10:30:00 AM 11.48 52.664 0.516 7.87 4.75 12.12
5/3/2022 10:45:00 AM 11.55 52.79 0.515 7.89 6.31 12.42
5/3/2022 11:00:00 AM 11.64 52.952 0.515 7.92 2.32 12.76
5/3/2022 11:15:00 AM 11.78 53.204 0.514 7.96 1.99 13.1
5/3/2022 11:30:00 AM 11.93 53.474 0.514 7.99 3.59 13.4
5/3/2022 11:45:00 AM 12.06 53.708 0.513 8.02 3.13 13.63
5/3/2022 12:00:00 PM 12.32 54.176 0.512 8.05 3.92 13.93
5/3/2022 12:15:00 PM 12.51 54.518 0.511 8.07 2.16 14.12
5/3/2022 12:30:00 PM 12.67 54.806 0.509 8.1 5.66 14.29
5/3/2022 12:45:00 PM 12.76 54.968 0.509 8.13 2.2 14.36
5/3/2022 1:00:00 PM 12.86 55.148 0.51 8.15 2.17 14.5
5/3/2022 1:15:00 PM 13.1 55.58 0.501 8.19 1.9 14.68
5/3/2022 1:30:00 PM 13.4 56.12 0.502 8.21 3.36 14.87
5/3/2022 1:45:00 PM 13.58 56.444 0.502 8.24 2.75 14.97
5/3/2022 2:00:00 PM 13.73 56.714 0.505 8.27 3.08 15.02
5/3/2022 2:15:00 PM 13.85 56.93 0.501 8.29 7.46 15.07
5/3/2022 2:30:00 PM 13.88 56.984 0.501 8.3 6.67 14.85
5/3/2022 2:45:00 PM 13.87 56.966 0.499 8.3 8.14 14.57
5/3/2022 3:00:00 PM 13.87 56.966 0.501 8.3 9.27 14.3
5/3/2022 3:15:00 PM 13.85 56.93 0.498 8.29 7.88 13.91
5/3/2022 3:30:00 PM 13.89 57.002 0.497 8.29 11.66 13.86
5/3/2022 3:45:00 PM 13.96 57.128 0.499 8.29 5.29 13.74
5/3/2022 4:00:00 PM 14.04 57.272 0.496 8.3 7.74 13.72
5/3/2022 4:15:00 PM 14.15 57.47 0.496 8.32 2.49 13.91
5/3/2022 4:30:00 PM 14.23 57.614 0.495 8.32 3.86 13.67
5/3/2022 4:45:00 PM 14.29 57.722 0.496 8.32 3.12 13.46
5/3/2022 5:00:00 PM 14.35 57.83 0.495 8.31 4.83 13.29
5/3/2022 5:15:00 PM 14.43 57.974 0.493 8.31 8.56 13.22
5/3/2022 5:30:00 PM 14.45 58.01 0.497 8.3 2.25 12.89
5/3/2022 5:45:00 PM 14.5 58.1 0.496 8.3 5.36 12.71
5/3/2022 6:00:00 PM 14.53 58.154 0.496 8.28 2.31 12.37
5/3/2022 6:15:00 PM 14.56 58.208 0.496 8.27 2.2 12.16
5/3/2022 6:30:00 PM 14.59 58.262 0.497 8.26 2.43 11.81
5/3/2022 6:45:00 PM 14.61 58.298 0.498 8.23 3.71 11.51
5/3/2022 7:00:00 PM 14.63 58.334 0.498 8.21 7.75 11.17
5/3/2022 7:15:00 PM 14.64 58.352 0.499 8.18 3.87 10.94
5/3/2022 7:30:00 PM 14.63 58.334 0.5 8.15 6.25 10.58
5/3/2022 7:45:00 PM 14.62 58.316 0.5 8.11 3.29 10.27
5/3/2022 8:00:00 PM 14.6 58.28 0.501 8.07 3.02 9.95
5/3/2022 8:15:00 PM 14.58 58.244 0.502 8.04 2.76 9.64
5/3/2022 8:30:00 PM 14.56 58.208 0.502 8 3.64 9.35
5/3/2022 8:45:00 PM 14.55 58.19 0.502 7.96 3.58 9.1
5/3/2022 9:00:00 PM 14.54 58.172 0.503 7.93 3.91 8.9
5/3/2022 9:15:00 PM 14.54 58.172 0.502 7.91 3.01 8.74
5/3/2022 9:30:00 PM 14.55 58.19 0.511 7.88 7.34 8.53
5/3/2022 9:45:00 PM 14.55 58.19 0.532 7.83 5.85 8.31
5/3/2022 10:00:00 PM 14.52 58.136 0.517 7.82 4.73 8.15
5/3/2022 10:15:00 PM 14.5 58.1 0.516 7.79 5.37 7.97
5/3/2022 10:30:00 PM 14.47 58.046 0.51 7.76 4.86 7.82
5/3/2022 10:45:00 PM 14.44 57.992 0.506 7.74 5.05 7.72
5/3/2022 11:00:00 PM 14.42 57.956 0.502 7.73 4.52 7.68
5/3/2022 11:15:00 PM 14.59 58.262 0.502 7.72 218.6 7.79
5/3/2022 11:30:00 PM 14.48 58.064 0.499 7.7 54.7 7.6
5/3/2022 11:45:00 PM 14.41 57.938 0.497 7.67 25.88 7.53
5/4/2022 12:00:00 AM 14.35 57.83 0.5 7.67 17.18 7.51
5/4/2022 12:15:00 AM 14.28 57.704 0.497 7.66 18.57 7.5
5/4/2022 12:30:00 AM 14.22 57.596 0.494 7.66 23.23 7.45
5/4/2022 12:45:00 AM 14.16 57.488 0.487 7.65 13.58 7.4
5/4/2022 1:00:00 AM 14.1 57.38 0.483 7.64 16.54 7.31
5/4/2022 1:15:00 AM 14.05 57.29 0.473 7.62 14.49 7.28
5/4/2022 1:30:00 AM 14.01 57.218 0.459 7.61 24.92 7.24
5/4/2022 1:45:00 AM 14 57.2 0.444 7.6 43.07 7.22
5/4/2022 2:00:00 AM 13.99 57.182 0.431 7.59 38.65 7.14
5/4/2022 2:15:00 AM 13.98 57.164 0.42 7.57 49.96 7.06
5/4/2022 2:30:00 AM 13.98 57.164 0.412 7.55 55.18 6.99
5/4/2022 2:45:00 AM 13.97 57.146 0.409 7.54 46.67 6.94
5/4/2022 3:00:00 AM 13.93 57.074 0.416 7.53 43.25 6.97
5/4/2022 3:15:00 AM 13.84 56.912 0.43 7.53 33.51 7.06
5/4/2022 3:30:00 AM 13.71 56.678 0.444 7.54 29.23 7.17
5/4/2022 3:45:00 AM 13.6 56.48 0.453 7.55 37.31 7.29
5/4/2022 4:00:00 AM 13.5 56.3 0.451 7.56 43.14 7.33
5/4/2022 4:15:00 AM 13.45 56.21 0.444 7.56 31.47 7.26
5/4/2022 4:30:00 AM 13.42 56.156 0.438 7.55 32.77 7.13
5/4/2022 4:45:00 AM 13.38 56.084 0.431 7.55 35.55 7.08
5/4/2022 5:00:00 AM 13.33 55.994 0.425 7.54 36.53 7.1
5/4/2022 5:15:00 AM 13.26 55.868 0.421 7.53 42.69 7.11
5/4/2022 5:30:00 AM 13.18 55.724 0.416 7.53 49.02 7.18
5/4/2022 5:45:00 AM 13.11 55.598 0.413 7.53 42.64 7.22
5/4/2022 6:00:00 AM 13.03 55.454 0.411 7.53 48.46 7.25
5/4/2022 6:15:00 AM 12.96 55.328 0.413 7.54 48.73 7.28
5/4/2022 6:30:00 AM 12.89 55.202 0.414 7.53 51.54 7.29
5/4/2022 6:45:00 AM 12.83 55.094 0.417 7.53 63.22 7.32
5/4/2022 7:00:00 AM 12.77 54.986 0.419 7.53 46.35 7.38
5/4/2022 7:15:00 AM 12.71 54.878 0.422 7.53 40.48 7.42
5/4/2022 7:30:00 AM 12.65 54.77 0.425 7.53 36.45 7.48
5/4/2022 7:45:00 AM 12.6 54.68 0.429 7.54 33.91 7.56
5/4/2022 8:00:00 AM 12.56 54.608 0.43 7.54 31.34 7.6
5/4/2022 8:15:00 AM 12.53 54.554 0.432 7.54 32.67 7.74
5/4/2022 8:30:00 AM 12.5 54.5 0.434 7.55 27.35 7.84
5/4/2022 8:45:00 AM 12.49 54.482 0.437 7.55 27.47 7.92
5/4/2022 9:00:00 AM 12.46 54.428 0.439 7.56 24.17 8.02
5/4/2022 9:15:00 AM 12.45 54.41 0.44 7.56 21.88 8.11
5/4/2022 9:30:00 AM 12.43 54.374 0.442 7.56 25.81 8.21
5/4/2022 9:45:00 AM 12.42 54.356 0.443 7.57 21.27 8.32
5/4/2022 10:00:00 AM 12.46 54.428 0.444 7.57 18.04 8.57
5/4/2022 10:15:00 AM 12.48 54.464 0.446 7.58 20.63 8.77
5/4/2022 10:30:00 AM 12.53 54.554 0.447 7.59 15.43 9.04
5/4/2022 10:45:00 AM 12.57 54.626 0.449 7.61 21.27 9.27
5/4/2022 11:00:00 AM 12.63 54.734 0.45 7.62 13.28 9.55
5/4/2022 11:15:00 AM 12.68 54.824 0.451 7.64 12.98 9.73
5/4/2022 11:30:00 AM 12.8 55.04 0.452 7.66 12.45 10.11
5/4/2022 11:45:00 AM 12.8 55.04 0.453 7.67 15.65 10.07
5/4/2022 12:00:00 PM 12.8 55.04 0.453 7.69 10.14 10.11
5/4/2022 12:15:00 PM 12.81 55.058 0.455 7.69 15.43 10.1
5/4/2022 12:30:00 PM 12.89 55.202 0.455 7.69 11.42 10.34
5/4/2022 12:45:00 PM 13.13 55.634 0.455 7.71 10.42 10.85
5/4/2022 1:00:00 PM 13.34 56.012 0.455 7.75 11.04 11.31
5/4/2022 1:15:00 PM 13.5 56.3 0.454 7.78 8.71 11.59
5/4/2022 1:30:00 PM 13.58 56.444 0.454 7.81 9.51 11.67
5/4/2022 1:45:00 PM 13.65 56.57 0.455 7.83 8.63 11.69
5/4/2022 2:00:00 PM 13.88 56.984 0.455 7.85 11.05 11.95
5/4/2022 2:15:00 PM 14.21 57.578 0.454 7.89 7.54 12.47
5/4/2022 2:30:00 PM 14.49 58.082 0.452 7.93 7.55 12.74
5/4/2022 2:45:00 PM 14.53 58.154 0.453 7.95 7.78 12.51
5/4/2022 3:00:00 PM 14.5 58.1 0.453 7.96 18.64 12.28
5/4/2022 3:15:00 PM 14.61 58.298 0.452 7.96 6.73 12.29
5/4/2022 3:30:00 PM 14.81 58.658 0.455 7.98 7.4 12.41
5/4/2022 3:45:00 PM 15.05 59.09 0.454 8.01 6.91 12.73
5/4/2022 4:00:00 PM 15.26 59.468 0.455 8.05 6.16 13.01
5/4/2022 4:15:00 PM 15.45 59.81 0.456 8.08 7.3 13.14
5/4/2022 4:30:00 PM 15.54 59.972 0.45 8.1 7 13.08
5/4/2022 4:45:00 PM 15.67 60.206 0.452 8.12 7.96 12.97
5/4/2022 5:00:00 PM 15.63 60.134 0.454 8.11 7.21 12.63
5/4/2022 5:15:00 PM 15.64 60.152 0.455 8.12 7.14 12.55
5/4/2022 5:30:00 PM 15.75 60.35 0.457 8.12 5.5 12.59
5/4/2022 5:45:00 PM 15.83 60.494 0.46 8.14 7.59 12.54
5/4/2022 6:00:00 PM 15.9 60.62 0.461 8.15 5.81 12.5
5/4/2022 6:15:00 PM 15.9 60.62 0.456 8.15 7.08 12.25
5/4/2022 6:30:00 PM 15.85 60.53 0.457 8.13 5.44 11.79
5/4/2022 6:45:00 PM 15.77 60.386 0.458 8.1 6.86 11.24
5/4/2022 7:00:00 PM 15.7 60.26 0.458 8.05 7.8 10.67
5/4/2022 7:15:00 PM 15.67 60.206 0.46 8.02 5.83 10.32
5/4/2022 7:30:00 PM 15.64 60.152 0.461 7.99 6.51 10.03
5/4/2022 7:45:00 PM 15.63 60.134 0.462 7.96 4.59 9.79
5/4/2022 8:00:00 PM 15.6 60.08 0.462 7.95 7.11 9.52
5/4/2022 8:15:00 PM 15.58 60.044 0.462 7.92 5.43 9.28
5/4/2022 8:30:00 PM 15.55 59.99 0.463 7.89 4.96 9.05
5/4/2022 8:45:00 PM 15.5 59.9 0.465 7.86 6.27 8.82
5/4/2022 9:00:00 PM 15.46 59.828 0.465 7.83 5.88 8.64
5/4/2022 9:15:00 PM 15.42 59.756 0.466 7.8 5.66 8.45
5/4/2022 9:30:00 PM 15.37 59.666 0.467 7.78 6.03 8.33
5/4/2022 9:45:00 PM 15.32 59.576 0.468 7.77 6.12 8.22
5/4/2022 10:00:00 PM 15.27 59.486 0.468 7.75 5.58 8.04
5/4/2022 10:15:00 PM 15.21 59.378 0.469 7.73 5.5 7.95
5/4/2022 10:30:00 PM 15.16 59.288 0.471 7.72 5.17 7.86
5/4/2022 10:45:00 PM 15.08 59.144 0.473 7.7 6.09 7.76
5/4/2022 11:00:00 PM 15.01 59.018 0.474 7.68 9 7.66
5/4/2022 11:15:00 PM 14.93 58.874 0.475 7.67 5.38 7.56
5/4/2022 11:30:00 PM 14.84 58.712 0.476 7.65 6.28 7.52
5/4/2022 11:45:00 PM 14.77 58.586 0.477 7.65 6.69 7.47
5/5/2022 12:00:00 AM 14.69 58.442 0.478 7.64 7.9 7.41
5/5/2022 12:15:00 AM 14.62 58.316 0.478 7.63 7.64 7.37
5/5/2022 12:30:00 AM 14.55 58.19 0.479 7.63 14.18 7.35
5/5/2022 12:45:00 AM 14.48 58.064 0.48 7.62 6.89 7.34
5/5/2022 1:00:00 AM 14.41 57.938 0.48 7.61 6.31 7.35
5/5/2022 1:15:00 AM 14.34 57.812 0.481 7.61 5.06 7.33
5/5/2022 1:30:00 AM 14.27 57.686 0.481 7.6 6.62 7.33
5/5/2022 1:45:00 AM 14.2 57.56 0.482 7.6 5.27 7.34
5/5/2022 2:00:00 AM 14.13 57.434 0.483 7.59 5.74 7.34
5/5/2022 2:15:00 AM 14.06 57.308 0.483 7.59 5.19 7.36
5/5/2022 2:30:00 AM 13.99 57.182 0.483 7.59 4.79 7.36
5/5/2022 2:45:00 AM 13.91 57.038 0.483 7.59 8.19 7.41
5/5/2022 3:00:00 AM 13.84 56.912 0.484 7.58 6.56 7.39
5/5/2022 3:15:00 AM 13.76 56.768 0.485 7.58 4.69 7.42
5/5/2022 3:30:00 AM 13.69 56.642 0.485 7.57 6.24 7.44
5/5/2022 3:45:00 AM 13.62 56.516 0.485 7.58 5.44 7.49
5/5/2022 4:00:00 AM 13.55 56.39 0.485 7.57 5.94 7.48
5/5/2022 4:15:00 AM 13.49 56.282 0.485 7.57 7.02 7.5
5/5/2022 4:30:00 AM 13.43 56.174 0.484 7.58 4.44 7.51
5/5/2022 4:45:00 AM 13.36 56.048 0.485 7.57 9.55 7.55
5/5/2022 5:00:00 AM 13.29 55.922 0.484 7.58 4.6 7.58
5/5/2022 5:15:00 AM 13.23 55.814 0.484 7.58 4.58 7.58
5/5/2022 5:30:00 AM 13.17 55.706 0.485 7.57 23.83 7.6
5/5/2022 5:45:00 AM 13.1 55.58 0.485 7.57 32.44 7.63
5/5/2022 6:00:00 AM 13.04 55.472 0.485 7.58 7.53 7.67
5/5/2022 6:15:00 AM 12.97 55.346 0.485 7.59 6.27 7.71
5/5/2022 6:30:00 AM 12.9 55.22 0.485 7.59 6.02 7.75
5/5/2022 6:45:00 AM 12.83 55.094 0.485 7.58 6.12 7.86
5/5/2022 7:00:00 AM 12.77 54.986 0.485 7.58 4.51 7.96
5/5/2022 7:15:00 AM 12.7 54.86 0.485 7.59 8.66 8.1
5/5/2022 7:30:00 AM 12.64 54.752 0.484 7.6 4.65 8.21
5/5/2022 7:45:00 AM 12.59 54.662 0.484 7.61 4.26 8.45
5/5/2022 8:00:00 AM 12.57 54.626 0.484 7.62 4.15 8.65
5/5/2022 8:15:00 AM 12.56 54.608 0.485 7.63 4.39 8.88
5/5/2022 8:30:00 AM 12.55 54.59 0.485 7.64 15.89 9.06
5/5/2022 8:45:00 AM 12.57 54.626 0.485 7.65 12.2 9.3
5/5/2022 9:00:00 AM 12.61 54.698 0.485 7.67 4.9 9.54
5/5/2022 9:15:00 AM 12.65 54.77 0.485 7.69 3.8 9.87
5/5/2022 9:30:00 AM 12.72 54.896 0.484 7.71 5.14 10.17
5/5/2022 9:45:00 AM 12.82 55.076 0.484 7.73 24.76 10.53
5/5/2022 10:00:00 AM 12.93 55.274 0.484 7.75 64.49 10.82
5/5/2022 10:15:00 AM 13.06 55.508 0.484 7.77 3.25 11.07
5/5/2022 10:30:00 AM 13.19 55.742 0.484 7.79 3.34 11.38
5/5/2022 10:45:00 AM 13.34 56.012 0.483 7.82 3.65 11.6
5/5/2022 11:00:00 AM 13.5 56.3 0.483 7.84 3.51 11.88
5/5/2022 11:15:00 AM 13.68 56.624 0.482 7.86 3.13 12.12
5/5/2022 11:30:00 AM 13.87 56.966 0.482 7.89 6.06 12.33
5/5/2022 11:45:00 AM 14.05 57.29 0.481 7.92 3.51 12.53
5/5/2022 12:00:00 PM 14.24 57.632 0.481 7.94 34.33 12.78
5/5/2022 12:15:00 PM 14.42 57.956 0.481 7.97 4.86 13.01
5/5/2022 12:30:00 PM 14.59 58.262 0.478 8 12.48 13.16
5/5/2022 12:45:00 PM 14.81 58.658 0.475 8.03 10.77 13.4
5/5/2022 1:00:00 PM 14.98 58.964 0.476 8.05 4.37 13.49
5/5/2022 1:15:00 PM 15.13 59.234 0.472 8.08 13.77 13.56
5/5/2022 1:30:00 PM 15.3 59.54 0.474 8.11 66.23 13.71
5/5/2022 1:45:00 PM 15.49 59.882 0.474 8.13 262.8 13.83
5/5/2022 2:00:00 PM 15.73 60.314 0.471 8.16 415.1 13.91
5/5/2022 2:15:00 PM 15.96 60.728 0.472 8.18 20.1 14.03
5/5/2022 2:30:00 PM 16.23 61.214 0.474 8.2 8.79 14.13
5/5/2022 2:45:00 PM 16.47 61.646 0.474 8.24 4.33 14.12
5/5/2022 3:00:00 PM 16.7 62.06 0.465 8.25 19.3 14.05
5/5/2022 3:15:00 PM 16.89 62.402 0.467 8.26 5.7 13.99
5/5/2022 3:30:00 PM 17.08 62.744 0.467 8.28 3.06 13.91
5/5/2022 3:45:00 PM 17.24 63.032 0.472 8.3 3.24 13.78
5/5/2022 4:00:00 PM 17.4 63.32 0.469 8.31 4.11 13.72
5/5/2022 4:15:00 PM 17.55 63.59 0.469 8.33 3.03 13.62
5/5/2022 4:30:00 PM 17.62 63.716 0.465 8.34 7.79 13.44
5/5/2022 4:45:00 PM 17.69 63.842 0.466 8.34 3.55 13.29
5/5/2022 5:00:00 PM 17.78 64.004 0.465 8.34 11.15 13.14
5/5/2022 5:15:00 PM 17.86 64.148 0.467 8.35 4.3 12.96
5/5/2022 5:30:00 PM 17.84 64.112 0.467 8.34 3.84 12.57
5/5/2022 5:45:00 PM 17.88 64.184 0.462 8.33 6.26 12.26
5/5/2022 6:00:00 PM 17.89 64.202 0.464 8.32 15.26 11.92
5/5/2022 6:15:00 PM 17.86 64.148 0.462 8.3 18.66 11.53
5/5/2022 6:30:00 PM 17.88 64.184 0.462 8.28 13.63 11.27
5/5/2022 6:45:00 PM 17.89 64.202 0.463 8.26 23.96 10.98
5/5/2022 7:00:00 PM 17.89 64.202 0.462 8.24 3.73 10.62
5/5/2022 7:15:00 PM 17.88 64.184 0.462 8.23 17.42 10.34
5/5/2022 7:30:00 PM 17.84 64.112 0.462 8.19 19.5 9.93
5/5/2022 7:45:00 PM 17.8 64.04 0.463 8.15 5.32 9.5
5/5/2022 8:00:00 PM 17.76 63.968 0.464 8.11 7.21 9.14
5/5/2022 8:15:00 PM 17.72 63.896 0.465 8.07 23.52 8.81
5/5/2022 8:30:00 PM 17.68 63.824 0.466 8.03 5.67 8.53
5/5/2022 8:45:00 PM 17.65 63.77 0.467 7.99 10 8.26
5/5/2022 9:00:00 PM 17.6 63.68 0.468 7.95 20.96 8.04
5/5/2022 9:15:00 PM 17.56 63.608 0.466 7.91 12.72 7.84
5/5/2022 9:30:00 PM 17.5 63.5 0.468 7.87 8.29 7.63
5/5/2022 9:45:00 PM 17.43 63.374 0.469 7.83 22.98 7.43
5/5/2022 10:00:00 PM 17.34 63.212 0.471 7.8 11.45 7.28
5/5/2022 10:15:00 PM 17.27 63.086 0.471 7.76 7.97 7.15
5/5/2022 10:30:00 PM 17.19 62.942 0.47 7.74 6.21 7.05
5/5/2022 10:45:00 PM 17.1 62.78 0.472 7.71 5.91 6.97
5/5/2022 11:00:00 PM 17.01 62.618 0.472 7.69 12.37 6.88
5/5/2022 11:15:00 PM 16.93 62.474 0.472 7.67 5.17 6.83
5/5/2022 11:30:00 PM 16.84 62.312 0.474 7.65 8.33 6.78
5/5/2022 11:45:00 PM 16.74 62.132 0.475 7.64 10.97 6.69
5/6/2022 12:00:00 AM 16.65 61.97 0.476 7.62 11.77 6.62
5/6/2022 12:15:00 AM 16.56 61.808 0.476 7.61 9.31 6.59
5/6/2022 12:30:00 AM 16.46 61.628 0.478 7.6 13.27 6.54
5/6/2022 12:45:00 AM 16.37 61.466 0.479 7.58 20.83 6.52
5/6/2022 1:00:00 AM 16.28 61.304 0.479 7.57 7.23 6.52
5/6/2022 1:15:00 AM 16.18 61.124 0.48 7.56 4.52 6.49
5/6/2022 1:30:00 AM 16.08 60.944 0.479 7.56 14.7 6.47
5/6/2022 1:45:00 AM 15.98 60.764 0.48 7.55 8.88 6.52
5/6/2022 2:00:00 AM 15.89 60.602 0.481 7.54 17.74 6.52
5/6/2022 2:15:00 AM 15.79 60.422 0.482 7.54 4.58 6.53
5/6/2022 2:30:00 AM 15.69 60.242 0.484 7.54 7.62 6.55
5/6/2022 2:45:00 AM 15.59 60.062 0.485 7.53 19.11 6.58
5/6/2022 3:00:00 AM 15.49 59.882 0.485 7.53 65.04 6.61
5/6/2022 3:15:00 AM 15.39 59.702 0.486 7.52 11.27 6.63
5/6/2022 3:30:00 AM 15.3 59.54 0.487 7.52 4.04 6.66
5/6/2022 3:45:00 AM 15.2 59.36 0.488 7.52 14.97 6.69
5/6/2022 4:00:00 AM 15.1 59.18 0.488 7.52 10.72 6.72
5/6/2022 4:15:00 AM 15.01 59.018 0.489 7.51 6.9 6.73
5/6/2022 4:30:00 AM 14.92 58.856 0.489 7.52 9.19 6.79
5/6/2022 4:45:00 AM 14.82 58.676 0.487 7.51 22.25 6.83
5/6/2022 5:00:00 AM 14.74 58.532 0.488 7.51 11.66 6.85
5/6/2022 5:15:00 AM 14.64 58.352 0.489 7.52 35.12 6.9
5/6/2022 5:30:00 AM 14.55 58.19 0.502 7.5 8.42 6.88
5/6/2022 5:45:00 AM 14.47 58.046 0.499 7.49 6.88 6.87
5/6/2022 6:00:00 AM 14.38 57.884 0.496 7.48 7.62 6.9
5/6/2022 6:15:00 AM 14.27 57.686 0.492 7.48 11.21 6.96
5/6/2022 6:30:00 AM 14.17 57.506 0.488 7.48 14.2 7.02
5/6/2022 6:45:00 AM 14.08 57.344 0.489 7.48 10.79 7.08
5/6/2022 7:00:00 AM 13.98 57.164 0.487 7.49 22.79 7.14
5/6/2022 7:15:00 AM 13.88 56.984 0.486 7.49 25.65 7.28
5/6/2022 7:30:00 AM 13.77 56.786 0.488 7.49 11.2 7.4
5/6/2022 7:45:00 AM 13.66 56.588 0.487 7.49 35.74 7.56
5/6/2022 8:00:00 AM 13.56 56.408 0.482 7.5 42.61 7.7
5/6/2022 8:15:00 AM 13.46 56.228 0.479 7.49 25.25 7.81
5/6/2022 8:30:00 AM 13.36 56.048 0.475 7.49 8.56 7.89
5/6/2022 8:45:00 AM 13.27 55.886 0.468 7.5 102.2 7.94
5/6/2022 9:00:00 AM 13.2 55.76 0.462 7.5 8.52 8.01
5/6/2022 9:15:00 AM 13.13 55.634 0.3 7.5 13.61 8.05
5/6/2022 9:30:00 AM 13.08 55.544 0.448 7.49 13.96 8.11
5/6/2022 9:45:00 AM 13.06 55.508 0.441 7.49 24.91 8.17
5/6/2022 10:00:00 AM 13.05 55.49 0.434 7.49 31.1 8.22
5/6/2022 10:15:00 AM 13.03 55.454 0.427 7.49 25.59 8.28
5/6/2022 10:30:00 AM 13.03 55.454 0.419 7.49 30.14 8.38
5/6/2022 10:45:00 AM 12.99 55.382 0.418 7.49 35.35 8.43
5/6/2022 11:00:00 AM 12.97 55.346 0.418 7.5 26.65 8.51
5/6/2022 11:15:00 AM 12.9 55.22 0.419 7.5 27.17 8.55
5/6/2022 11:30:00 AM 12.86 55.148 0.417 7.5 37.94 8.56
5/6/2022 11:45:00 AM 12.84 55.112 0.411 7.51 51.31 8.63
5/6/2022 12:00:00 PM 12.8 55.04 0.4 7.52 49.37 8.66
5/6/2022 12:15:00 PM 12.79 55.022 0.391 7.53 59.08 8.52
5/6/2022 12:30:00 PM 12.87 55.166 0.387 7.52 71.01 8.25
5/6/2022 12:45:00 PM 12.86 55.148 0.384 7.53 89.96 7.96
5/6/2022 1:00:00 PM 12.89 55.202 0.375 7.53 112.8 7.86
5/6/2022 1:15:00 PM 12.94 55.292 0.362 7.53 125.7 7.88
5/6/2022 1:30:00 PM 12.99 55.382 0.352 7.54 136.6 7.94
5/6/2022 1:45:00 PM 13.01 55.418 0.345 7.54 149.2 8
5/6/2022 2:00:00 PM 12.99 55.382 0.345 7.54 189.8 8.04
5/6/2022 2:15:00 PM 12.96 55.328 0.345 7.54 178.3 8.03
5/6/2022 2:30:00 PM 12.93 55.274 0.342 7.54 325.6 8.03
5/6/2022 2:45:00 PM 12.9 55.22 0.338 7.54 208.6 7.99
5/6/2022 3:00:00 PM 12.91 55.238 0.327 7.54 227.9 7.94
5/6/2022 3:15:00 PM 12.93 55.274 0.31 7.53 247.1 8
5/6/2022 3:30:00 PM 12.96 55.328 0.293 7.53 267.3 8.07
5/6/2022 3:45:00 PM 12.98 55.364 0.279 7.52 275.7 8.13
5/6/2022 4:00:00 PM 12.98 55.364 0.271 7.51 270.7 8.17
5/6/2022 4:15:00 PM 12.95 55.31 0.268 7.51 246.3 8.2
5/6/2022 4:30:00 PM 12.9 55.22 0.267 7.5 219.2 8.21
5/6/2022 4:45:00 PM 12.85 55.13 0.266 7.49 205.6 8.2
5/6/2022 5:00:00 PM 12.82 55.076 0.264 7.48 189.3 8.17
5/6/2022 5:15:00 PM 12.78 55.004 0.26 7.48 199.7 8.17
5/6/2022 5:30:00 PM 12.73 54.914 0.256 7.48 207.7 8.17
5/6/2022 5:45:00 PM 12.69 54.842 0.25 7.47 216.5 8.19
5/6/2022 6:00:00 PM 12.65 54.77 0.244 7.46 243.3 8.2
5/6/2022 6:15:00 PM 12.6 54.68 0.24 7.45 247.3 8.22
5/6/2022 6:30:00 PM 12.55 54.59 0.234 7.45 258 8.25
5/6/2022 6:45:00 PM 12.49 54.482 0.231 7.44 247.3 8.28
5/6/2022 7:00:00 PM 12.43 54.374 0.229 7.43 241.2 8.29
5/6/2022 7:15:00 PM 12.36 54.248 0.227 7.43 225.3 8.33
5/6/2022 7:30:00 PM 12.28 54.104 0.225 7.42 213.4 8.34
5/6/2022 7:45:00 PM 12.21 53.978 0.225 7.42 196.9 8.35
5/6/2022 8:00:00 PM 12.13 53.834 0.224 7.41 181.9 8.36
5/6/2022 8:15:00 PM 12.05 53.69 0.223 7.4 168.4 8.37
5/6/2022 8:30:00 PM 11.98 53.564 0.223 7.39 161.8 8.39
5/6/2022 8:45:00 PM 11.9 53.42 0.223 7.39 150.2 8.41
5/6/2022 9:00:00 PM 11.82 53.276 0.224 7.38 145.2 8.45
5/6/2022 9:15:00 PM 11.75 53.15 0.226 7.38 134.3 8.47
5/6/2022 9:30:00 PM 11.68 53.024 0.228 7.38 128.1 8.5
5/6/2022 9:45:00 PM 11.6 52.88 0.23 7.37 124.1 8.54
5/6/2022 10:00:00 PM 11.53 52.754 0.232 7.37 116 8.56
5/6/2022 10:15:00 PM 11.47 52.646 0.235 7.36 115.8 8.58
5/6/2022 10:30:00 PM 11.41 52.538 0.237 7.37 118.5 8.6
5/6/2022 10:45:00 PM 11.35 52.43 0.239 7.37 109.7 8.62
5/6/2022 11:00:00 PM 11.3 52.34 0.24 7.37 110.1 8.64
5/6/2022 11:15:00 PM 11.25 52.25 0.241 7.36 106.3 8.66
5/6/2022 11:30:00 PM 11.2 52.16 0.242 7.36 107.7 8.67
5/6/2022 11:45:00 PM 11.16 52.088 0.243 7.36 110.3 8.68
5/7/2022 12:00:00 AM 11.11 51.998 0.243 7.36 106.9 8.69
5/7/2022 12:15:00 AM 11.07 51.926 0.243 7.36 108 8.71
5/7/2022 12:30:00 AM 11.04 51.872 0.243 7.37 108.8 8.72
5/7/2022 12:45:00 AM 11 51.8 0.242 7.36 107.7 8.74
5/7/2022 1:00:00 AM 10.97 51.746 0.242 7.36 121.8 8.76
5/7/2022 1:15:00 AM 10.94 51.692 0.243 7.36 122.1 8.77
5/7/2022 1:30:00 AM 10.91 51.638 0.243 7.36 127.7 8.76
5/7/2022 1:45:00 AM 10.88 51.584 0.244 7.36 116.6 8.78
5/7/2022 2:00:00 AM 10.85 51.53 0.245 7.36 106 8.78
5/7/2022 2:15:00 AM 10.82 51.476 0.246 7.35 107.8 8.8
5/7/2022 2:30:00 AM 10.8 51.44 0.246 7.35 104.5 8.79
5/7/2022 2:45:00 AM 10.77 51.386 0.246 7.35 101.8 8.8
5/7/2022 3:00:00 AM 10.75 51.35 0.246 7.36 107.2 8.81
5/7/2022 3:15:00 AM 10.73 51.314 0.245 7.36 106.6 8.83
5/7/2022 3:30:00 AM 10.71 51.278 0.245 7.35 107.4 8.84
5/7/2022 3:45:00 AM 10.69 51.242 0.244 7.35 104.7 8.85
5/7/2022 4:00:00 AM 10.66 51.188 0.244 7.34 109 8.86
5/7/2022 4:15:00 AM 10.65 51.17 0.243 7.34 110.2 8.87
5/7/2022 4:30:00 AM 10.63 51.134 0.242 7.35 110.2 8.88
5/7/2022 4:45:00 AM 10.61 51.098 0.243 7.35 106.6 8.9
5/7/2022 5:00:00 AM 10.59 51.062 0.242 7.35 104.2 8.91
5/7/2022 5:15:00 AM 10.58 51.044 0.243 7.34 102.7 8.9
5/7/2022 5:30:00 AM 10.57 51.026 0.242 7.35 104.2 8.91
5/7/2022 5:45:00 AM 10.55 50.99 0.243 7.35 102 8.93
5/7/2022 6:00:00 AM 10.54 50.972 0.242 7.35 102.8 8.93
5/7/2022 6:15:00 AM 10.53 50.954 0.242 7.35 99.32 8.94
5/7/2022 6:30:00 AM 10.52 50.936 0.242 7.35 100.3 8.95
5/7/2022 6:45:00 AM 10.51 50.918 0.242 7.34 99.63 8.96
5/7/2022 7:00:00 AM 10.5 50.9 0.242 7.34 93.83 8.98
5/7/2022 7:15:00 AM 10.48 50.864 0.242 7.34 94.73 8.99
5/7/2022 7:30:00 AM 10.47 50.846 0.242 7.33 92.98 9
5/7/2022 7:45:00 AM 10.46 50.828 0.242 7.34 93.2 9.01
5/7/2022 8:00:00 AM 10.45 50.81 0.242 7.34 91.64 9.01
5/7/2022 8:15:00 AM 10.45 50.81 0.243 7.34 92.96 9.03
5/7/2022 8:30:00 AM 10.44 50.792 0.243 7.35 92.43 9.04
5/7/2022 8:45:00 AM 10.43 50.774 0.243 7.36 96.19 9.05
5/7/2022 9:00:00 AM 10.43 50.774 0.242 7.35 99.17 9.06
5/7/2022 9:15:00 AM 10.43 50.774 0.241 7.35 106.3 9.08
5/7/2022 9:30:00 AM 10.43 50.774 0.239 7.36 111.4 9.1
5/7/2022 9:45:00 AM 10.43 50.774 0.237 7.37 119.9 9.13
5/7/2022 10:00:00 AM 10.44 50.792 0.235 7.36 120.6 9.16
5/7/2022 10:15:00 AM 10.45